<?xml version="1.0" encoding="UTF-8" standalone="no" ?>
<gpx xmlns="http://www.topografix.com/GPX/1/1" xmlns:xsi="http://www.w3.org/2001/XMLSchema-instance" xsi:schemaLocation="http://www.topografix.com/GPX/1/1 http://www.topografix.com/GPX/1/1/gpx.xsd" version="1.1" creator="VisuGPX - https://www.visugpx.com">
  <metadata>
    <name>Parcours moyen 1 - 7/09/2014</name>
    <desc><![CDATA[Parcours moyen du 7/09/14 réalisé avec Fabio et Antoine - A compléter par boucle Goule de Laval   descente monotrace Goule de Laval   Arrivée par le Mas de Matour]]></desc>
  </metadata>
  <trk>
    <name><![CDATA[Moyen 1 6-09-14]]></name>
    <trkseg>
      <trkpt lat="43.65003" lon="3.78975">
        <ele>50.36</ele>
        <time>2014-09-07T07:11:28Z</time>
      </trkpt>
      <trkpt lat="43.65003" lon="3.78974">
        <ele>50.36</ele>
        <time>2014-09-07T07:11:29Z</time>
      </trkpt>
      <trkpt lat="43.65002" lon="3.78969">
        <ele>50.21</ele>
        <time>2014-09-07T07:11:47Z</time>
      </trkpt>
      <trkpt lat="43.64997" lon="3.78971">
        <ele>50.36</ele>
        <time>2014-09-07T07:11:57Z</time>
      </trkpt>
      <trkpt lat="43.6499" lon="3.78977">
        <ele>50.45</ele>
        <time>2014-09-07T07:12:01Z</time>
      </trkpt>
      <trkpt lat="43.6497" lon="3.7899">
        <ele>50.11</ele>
        <time>2014-09-07T07:12:08Z</time>
      </trkpt>
      <trkpt lat="43.6495" lon="3.79004">
        <ele>49.88</ele>
        <time>2014-09-07T07:12:14Z</time>
      </trkpt>
      <trkpt lat="43.64931" lon="3.79022">
        <ele>49.84</ele>
        <time>2014-09-07T07:12:21Z</time>
      </trkpt>
      <trkpt lat="43.64918" lon="3.79032">
        <ele>49.84</ele>
        <time>2014-09-07T07:12:26Z</time>
      </trkpt>
      <trkpt lat="43.64906" lon="3.79038">
        <ele>50.27</ele>
        <time>2014-09-07T07:12:31Z</time>
      </trkpt>
      <trkpt lat="43.64887" lon="3.79052">
        <ele>50.73</ele>
        <time>2014-09-07T07:12:37Z</time>
      </trkpt>
      <trkpt lat="43.64864" lon="3.79075">
        <ele>50.55</ele>
        <time>2014-09-07T07:12:44Z</time>
      </trkpt>
      <trkpt lat="43.64843" lon="3.79096">
        <ele>50.24</ele>
        <time>2014-09-07T07:12:52Z</time>
      </trkpt>
      <trkpt lat="43.64829" lon="3.79112">
        <ele>50.18</ele>
        <time>2014-09-07T07:12:58Z</time>
      </trkpt>
      <trkpt lat="43.64814" lon="3.79134">
        <ele>50.23</ele>
        <time>2014-09-07T07:13:05Z</time>
      </trkpt>
      <trkpt lat="43.64806" lon="3.79142">
        <ele>50.2</ele>
        <time>2014-09-07T07:13:09Z</time>
      </trkpt>
      <trkpt lat="43.64799" lon="3.79146">
        <ele>50.18</ele>
        <time>2014-09-07T07:13:18Z</time>
      </trkpt>
      <trkpt lat="43.64786" lon="3.7916">
        <ele>50.14</ele>
        <time>2014-09-07T07:13:23Z</time>
      </trkpt>
      <trkpt lat="43.64779" lon="3.79164">
        <ele>50.18</ele>
        <time>2014-09-07T07:13:25Z</time>
      </trkpt>
      <trkpt lat="43.64753" lon="3.79194">
        <ele>50.17</ele>
        <time>2014-09-07T07:13:33Z</time>
      </trkpt>
      <trkpt lat="43.6475" lon="3.79199">
        <ele>50.12</ele>
        <time>2014-09-07T07:13:34Z</time>
      </trkpt>
      <trkpt lat="43.64738" lon="3.79213">
        <ele>49.67</ele>
        <time>2014-09-07T07:13:37Z</time>
      </trkpt>
      <trkpt lat="43.64719" lon="3.7924">
        <ele>48.89</ele>
        <time>2014-09-07T07:13:43Z</time>
      </trkpt>
      <trkpt lat="43.64714" lon="3.79252">
        <ele>48.63</ele>
        <time>2014-09-07T07:13:45Z</time>
      </trkpt>
      <trkpt lat="43.64699" lon="3.79275">
        <ele>47.87</ele>
        <time>2014-09-07T07:13:50Z</time>
      </trkpt>
      <trkpt lat="43.6468" lon="3.7928">
        <ele>47.38</ele>
        <time>2014-09-07T07:13:55Z</time>
      </trkpt>
      <trkpt lat="43.64669" lon="3.79298">
        <ele>47.68</ele>
        <time>2014-09-07T07:14:00Z</time>
      </trkpt>
      <trkpt lat="43.64661" lon="3.79326">
        <ele>47.87</ele>
        <time>2014-09-07T07:14:05Z</time>
      </trkpt>
      <trkpt lat="43.64649" lon="3.79362">
        <ele>47.5</ele>
        <time>2014-09-07T07:14:11Z</time>
      </trkpt>
      <trkpt lat="43.64647" lon="3.79367">
        <ele>47.35</ele>
        <time>2014-09-07T07:14:12Z</time>
      </trkpt>
      <trkpt lat="43.64628" lon="3.79399">
        <ele>46.49</ele>
        <time>2014-09-07T07:14:17Z</time>
      </trkpt>
      <trkpt lat="43.64609" lon="3.79429">
        <ele>45.82</ele>
        <time>2014-09-07T07:14:23Z</time>
      </trkpt>
      <trkpt lat="43.64602" lon="3.79443">
        <ele>45.45</ele>
        <time>2014-09-07T07:14:28Z</time>
      </trkpt>
      <trkpt lat="43.64598" lon="3.79459">
        <ele>45.41</ele>
        <time>2014-09-07T07:14:34Z</time>
      </trkpt>
      <trkpt lat="43.64599" lon="3.79482">
        <ele>45.44</ele>
        <time>2014-09-07T07:14:40Z</time>
      </trkpt>
      <trkpt lat="43.64597" lon="3.79485">
        <ele>45.43</ele>
        <time>2014-09-07T07:14:41Z</time>
      </trkpt>
      <trkpt lat="43.6458" lon="3.79512">
        <ele>45.64</ele>
        <time>2014-09-07T07:14:48Z</time>
      </trkpt>
      <trkpt lat="43.64568" lon="3.79547">
        <ele>45.71</ele>
        <time>2014-09-07T07:14:55Z</time>
      </trkpt>
      <trkpt lat="43.64556" lon="3.79584">
        <ele>45.71</ele>
        <time>2014-09-07T07:15:03Z</time>
      </trkpt>
      <trkpt lat="43.6455" lon="3.79613">
        <ele>45.59</ele>
        <time>2014-09-07T07:15:09Z</time>
      </trkpt>
      <trkpt lat="43.64538" lon="3.79639">
        <ele>45.72</ele>
        <time>2014-09-07T07:15:15Z</time>
      </trkpt>
      <trkpt lat="43.64526" lon="3.79666">
        <ele>45.95</ele>
        <time>2014-09-07T07:15:21Z</time>
      </trkpt>
      <trkpt lat="43.64514" lon="3.79696">
        <ele>45.84</ele>
        <time>2014-09-07T07:15:28Z</time>
      </trkpt>
      <trkpt lat="43.64502" lon="3.79725">
        <ele>45.79</ele>
        <time>2014-09-07T07:15:35Z</time>
      </trkpt>
      <trkpt lat="43.64493" lon="3.79742">
        <ele>45.82</ele>
        <time>2014-09-07T07:15:40Z</time>
      </trkpt>
      <trkpt lat="43.64478" lon="3.79759">
        <ele>45.9</ele>
        <time>2014-09-07T07:15:46Z</time>
      </trkpt>
      <trkpt lat="43.64467" lon="3.79771">
        <ele>46.02</ele>
        <time>2014-09-07T07:15:51Z</time>
      </trkpt>
      <trkpt lat="43.64455" lon="3.79779">
        <ele>46.34</ele>
        <time>2014-09-07T07:15:56Z</time>
      </trkpt>
      <trkpt lat="43.64452" lon="3.79779">
        <ele>46.39</ele>
        <time>2014-09-07T07:15:57Z</time>
      </trkpt>
      <trkpt lat="43.64428" lon="3.79787">
        <ele>46.13</ele>
        <time>2014-09-07T07:16:04Z</time>
      </trkpt>
      <trkpt lat="43.6441" lon="3.79782">
        <ele>45.5</ele>
        <time>2014-09-07T07:16:09Z</time>
      </trkpt>
      <trkpt lat="43.64399" lon="3.79779">
        <ele>45.38</ele>
        <time>2014-09-07T07:16:13Z</time>
      </trkpt>
      <trkpt lat="43.64392" lon="3.79779">
        <ele>45.3</ele>
        <time>2014-09-07T07:16:15Z</time>
      </trkpt>
      <trkpt lat="43.64381" lon="3.79789">
        <ele>44.91</ele>
        <time>2014-09-07T07:16:20Z</time>
      </trkpt>
      <trkpt lat="43.64385" lon="3.79795">
        <ele>44.8</ele>
        <time>2014-09-07T07:16:23Z</time>
      </trkpt>
      <trkpt lat="43.64406" lon="3.79819">
        <ele>45.3</ele>
        <time>2014-09-07T07:16:33Z</time>
      </trkpt>
      <trkpt lat="43.64425" lon="3.7984">
        <ele>45.78</ele>
        <time>2014-09-07T07:16:42Z</time>
      </trkpt>
      <trkpt lat="43.64445" lon="3.79864">
        <ele>46.44</ele>
        <time>2014-09-07T07:16:51Z</time>
      </trkpt>
      <trkpt lat="43.64474" lon="3.79896">
        <ele>47.11</ele>
        <time>2014-09-07T07:17:03Z</time>
      </trkpt>
      <trkpt lat="43.64487" lon="3.79914">
        <ele>47.48</ele>
        <time>2014-09-07T07:17:10Z</time>
      </trkpt>
      <trkpt lat="43.64502" lon="3.7993">
        <ele>48.06</ele>
        <time>2014-09-07T07:17:17Z</time>
      </trkpt>
      <trkpt lat="43.64525" lon="3.79957">
        <ele>48.72</ele>
        <time>2014-09-07T07:17:27Z</time>
      </trkpt>
      <trkpt lat="43.64548" lon="3.79981">
        <ele>49.35</ele>
        <time>2014-09-07T07:17:36Z</time>
      </trkpt>
      <trkpt lat="43.64563" lon="3.79999">
        <ele>50.04</ele>
        <time>2014-09-07T07:17:43Z</time>
      </trkpt>
      <trkpt lat="43.64563" lon="3.80003">
        <ele>50.09</ele>
        <time>2014-09-07T07:17:44Z</time>
      </trkpt>
      <trkpt lat="43.64553" lon="3.80033">
        <ele>50.48</ele>
        <time>2014-09-07T07:17:51Z</time>
      </trkpt>
      <trkpt lat="43.64534" lon="3.80072">
        <ele>50.95</ele>
        <time>2014-09-07T07:18:00Z</time>
      </trkpt>
      <trkpt lat="43.64522" lon="3.80102">
        <ele>51.05</ele>
        <time>2014-09-07T07:18:06Z</time>
      </trkpt>
      <trkpt lat="43.64523" lon="3.80138">
        <ele>50.46</ele>
        <time>2014-09-07T07:18:11Z</time>
      </trkpt>
      <trkpt lat="43.64527" lon="3.80143">
        <ele>50.37</ele>
        <time>2014-09-07T07:18:12Z</time>
      </trkpt>
      <trkpt lat="43.64552" lon="3.80166">
        <ele>50.11</ele>
        <time>2014-09-07T07:18:18Z</time>
      </trkpt>
      <trkpt lat="43.64572" lon="3.80188">
        <ele>49.55</ele>
        <time>2014-09-07T07:18:24Z</time>
      </trkpt>
      <trkpt lat="43.64578" lon="3.80206">
        <ele>49.41</ele>
        <time>2014-09-07T07:18:28Z</time>
      </trkpt>
      <trkpt lat="43.64583" lon="3.80226">
        <ele>49.46</ele>
        <time>2014-09-07T07:18:33Z</time>
      </trkpt>
      <trkpt lat="43.64606" lon="3.80239">
        <ele>49.42</ele>
        <time>2014-09-07T07:18:39Z</time>
      </trkpt>
      <trkpt lat="43.64604" lon="3.80251">
        <ele>49.56</ele>
        <time>2014-09-07T07:18:42Z</time>
      </trkpt>
      <trkpt lat="43.64588" lon="3.80271">
        <ele>49.94</ele>
        <time>2014-09-07T07:18:48Z</time>
      </trkpt>
      <trkpt lat="43.64581" lon="3.80298">
        <ele>49.73</ele>
        <time>2014-09-07T07:18:54Z</time>
      </trkpt>
      <trkpt lat="43.64583" lon="3.80301">
        <ele>49.72</ele>
        <time>2014-09-07T07:18:55Z</time>
      </trkpt>
      <trkpt lat="43.64603" lon="3.80316">
        <ele>49.95</ele>
        <time>2014-09-07T07:19:01Z</time>
      </trkpt>
      <trkpt lat="43.64629" lon="3.80294">
        <ele>50.22</ele>
        <time>2014-09-07T07:19:09Z</time>
      </trkpt>
      <trkpt lat="43.64651" lon="3.80279">
        <ele>50.67</ele>
        <time>2014-09-07T07:19:17Z</time>
      </trkpt>
      <trkpt lat="43.64669" lon="3.80276">
        <ele>51.15</ele>
        <time>2014-09-07T07:19:23Z</time>
      </trkpt>
      <trkpt lat="43.64673" lon="3.80289">
        <ele>51.43</ele>
        <time>2014-09-07T07:19:27Z</time>
      </trkpt>
      <trkpt lat="43.64671" lon="3.80332">
        <ele>51.84</ele>
        <time>2014-09-07T07:19:36Z</time>
      </trkpt>
      <trkpt lat="43.64668" lon="3.80373">
        <ele>51.69</ele>
        <time>2014-09-07T07:19:44Z</time>
      </trkpt>
      <trkpt lat="43.64662" lon="3.80426">
        <ele>51.22</ele>
        <time>2014-09-07T07:19:54Z</time>
      </trkpt>
      <trkpt lat="43.64665" lon="3.8047">
        <ele>51.44</ele>
        <time>2014-09-07T07:20:02Z</time>
      </trkpt>
      <trkpt lat="43.64667" lon="3.80481">
        <ele>51.54</ele>
        <time>2014-09-07T07:20:04Z</time>
      </trkpt>
      <trkpt lat="43.64672" lon="3.80527">
        <ele>51.58</ele>
        <time>2014-09-07T07:20:12Z</time>
      </trkpt>
      <trkpt lat="43.64676" lon="3.80566">
        <ele>51.42</ele>
        <time>2014-09-07T07:20:20Z</time>
      </trkpt>
      <trkpt lat="43.64677" lon="3.80599">
        <ele>51.64</ele>
        <time>2014-09-07T07:20:27Z</time>
      </trkpt>
      <trkpt lat="43.64678" lon="3.8063">
        <ele>51.9</ele>
        <time>2014-09-07T07:20:33Z</time>
      </trkpt>
      <trkpt lat="43.64674" lon="3.80688">
        <ele>52.52</ele>
        <time>2014-09-07T07:20:44Z</time>
      </trkpt>
      <trkpt lat="43.64667" lon="3.80722">
        <ele>52.64</ele>
        <time>2014-09-07T07:20:51Z</time>
      </trkpt>
      <trkpt lat="43.64661" lon="3.80761">
        <ele>52.88</ele>
        <time>2014-09-07T07:20:58Z</time>
      </trkpt>
      <trkpt lat="43.64655" lon="3.80781">
        <ele>52.71</ele>
        <time>2014-09-07T07:21:02Z</time>
      </trkpt>
      <trkpt lat="43.64647" lon="3.80801">
        <ele>52.64</ele>
        <time>2014-09-07T07:21:06Z</time>
      </trkpt>
      <trkpt lat="43.64637" lon="3.80832">
        <ele>52.81</ele>
        <time>2014-09-07T07:21:12Z</time>
      </trkpt>
      <trkpt lat="43.64633" lon="3.80855">
        <ele>52.85</ele>
        <time>2014-09-07T07:21:16Z</time>
      </trkpt>
      <trkpt lat="43.6462" lon="3.8091">
        <ele>53.35</ele>
        <time>2014-09-07T07:21:26Z</time>
      </trkpt>
      <trkpt lat="43.64611" lon="3.80947">
        <ele>54.2</ele>
        <time>2014-09-07T07:21:34Z</time>
      </trkpt>
      <trkpt lat="43.64599" lon="3.80993">
        <ele>54.36</ele>
        <time>2014-09-07T07:21:42Z</time>
      </trkpt>
      <trkpt lat="43.64594" lon="3.81009">
        <ele>54.36</ele>
        <time>2014-09-07T07:21:45Z</time>
      </trkpt>
      <trkpt lat="43.64586" lon="3.81029">
        <ele>54.3</ele>
        <time>2014-09-07T07:21:49Z</time>
      </trkpt>
      <trkpt lat="43.64589" lon="3.81052">
        <ele>53.86</ele>
        <time>2014-09-07T07:21:54Z</time>
      </trkpt>
      <trkpt lat="43.64593" lon="3.81081">
        <ele>54.05</ele>
        <time>2014-09-07T07:22:01Z</time>
      </trkpt>
      <trkpt lat="43.64588" lon="3.81137">
        <ele>54.71</ele>
        <time>2014-09-07T07:22:12Z</time>
      </trkpt>
      <trkpt lat="43.6458" lon="3.81169">
        <ele>55.06</ele>
        <time>2014-09-07T07:22:19Z</time>
      </trkpt>
      <trkpt lat="43.64579" lon="3.81192">
        <ele>55.33</ele>
        <time>2014-09-07T07:22:25Z</time>
      </trkpt>
      <trkpt lat="43.64586" lon="3.81213">
        <ele>55.89</ele>
        <time>2014-09-07T07:22:31Z</time>
      </trkpt>
      <trkpt lat="43.64586" lon="3.81248">
        <ele>56.67</ele>
        <time>2014-09-07T07:22:39Z</time>
      </trkpt>
      <trkpt lat="43.64587" lon="3.81289">
        <ele>57.43</ele>
        <time>2014-09-07T07:22:48Z</time>
      </trkpt>
      <trkpt lat="43.64588" lon="3.81332">
        <ele>58.35</ele>
        <time>2014-09-07T07:22:57Z</time>
      </trkpt>
      <trkpt lat="43.6459" lon="3.81376">
        <ele>59.58</ele>
        <time>2014-09-07T07:23:06Z</time>
      </trkpt>
      <trkpt lat="43.64591" lon="3.81424">
        <ele>60.72</ele>
        <time>2014-09-07T07:23:16Z</time>
      </trkpt>
      <trkpt lat="43.6459" lon="3.81472">
        <ele>61.81</ele>
        <time>2014-09-07T07:23:27Z</time>
      </trkpt>
      <trkpt lat="43.64582" lon="3.81488">
        <ele>62.63</ele>
        <time>2014-09-07T07:23:32Z</time>
      </trkpt>
      <trkpt lat="43.6459" lon="3.81503">
        <ele>63.29</ele>
        <time>2014-09-07T07:23:37Z</time>
      </trkpt>
      <trkpt lat="43.64608" lon="3.81501">
        <ele>63.64</ele>
        <time>2014-09-07T07:23:43Z</time>
      </trkpt>
      <trkpt lat="43.64624" lon="3.815">
        <ele>63.65</ele>
        <time>2014-09-07T07:23:47Z</time>
      </trkpt>
      <trkpt lat="43.64635" lon="3.81527">
        <ele>63.07</ele>
        <time>2014-09-07T07:23:51Z</time>
      </trkpt>
      <trkpt lat="43.64635" lon="3.81535">
        <ele>62.85</ele>
        <time>2014-09-07T07:23:52Z</time>
      </trkpt>
      <trkpt lat="43.64632" lon="3.81558">
        <ele>62.04</ele>
        <time>2014-09-07T07:23:55Z</time>
      </trkpt>
      <trkpt lat="43.64635" lon="3.81595">
        <ele>61.51</ele>
        <time>2014-09-07T07:24:01Z</time>
      </trkpt>
      <trkpt lat="43.6465" lon="3.81625">
        <ele>61.93</ele>
        <time>2014-09-07T07:24:08Z</time>
      </trkpt>
      <trkpt lat="43.64669" lon="3.81666">
        <ele>62.22</ele>
        <time>2014-09-07T07:24:17Z</time>
      </trkpt>
      <trkpt lat="43.64682" lon="3.81691">
        <ele>62.04</ele>
        <time>2014-09-07T07:24:23Z</time>
      </trkpt>
      <trkpt lat="43.647" lon="3.81725">
        <ele>62.05</ele>
        <time>2014-09-07T07:24:32Z</time>
      </trkpt>
      <trkpt lat="43.64729" lon="3.81748">
        <ele>62.12</ele>
        <time>2014-09-07T07:24:40Z</time>
      </trkpt>
      <trkpt lat="43.64763" lon="3.81774">
        <ele>62.45</ele>
        <time>2014-09-07T07:24:50Z</time>
      </trkpt>
      <trkpt lat="43.6479" lon="3.81799">
        <ele>63.01</ele>
        <time>2014-09-07T07:24:59Z</time>
      </trkpt>
      <trkpt lat="43.64804" lon="3.8183">
        <ele>63.04</ele>
        <time>2014-09-07T07:25:06Z</time>
      </trkpt>
      <trkpt lat="43.64806" lon="3.81835">
        <ele>63</ele>
        <time>2014-09-07T07:25:07Z</time>
      </trkpt>
      <trkpt lat="43.64825" lon="3.81857">
        <ele>62.79</ele>
        <time>2014-09-07T07:25:14Z</time>
      </trkpt>
      <trkpt lat="43.64842" lon="3.81882">
        <ele>64.4</ele>
        <time>2014-09-07T07:25:24Z</time>
      </trkpt>
      <trkpt lat="43.64843" lon="3.81885">
        <ele>64.57</ele>
        <time>2014-09-07T07:25:25Z</time>
      </trkpt>
      <trkpt lat="43.64845" lon="3.81913">
        <ele>66.33</ele>
        <time>2014-09-07T07:25:33Z</time>
      </trkpt>
      <trkpt lat="43.64859" lon="3.81949">
        <ele>66.94</ele>
        <time>2014-09-07T07:25:42Z</time>
      </trkpt>
      <trkpt lat="43.6488" lon="3.81974">
        <ele>67.46</ele>
        <time>2014-09-07T07:25:51Z</time>
      </trkpt>
      <trkpt lat="43.64896" lon="3.81977">
        <ele>67.69</ele>
        <time>2014-09-07T07:25:56Z</time>
      </trkpt>
      <trkpt lat="43.64912" lon="3.81982">
        <ele>67.84</ele>
        <time>2014-09-07T07:26:01Z</time>
      </trkpt>
      <trkpt lat="43.64922" lon="3.82005">
        <ele>68.03</ele>
        <time>2014-09-07T07:26:07Z</time>
      </trkpt>
      <trkpt lat="43.64937" lon="3.82039">
        <ele>68.83</ele>
        <time>2014-09-07T07:26:16Z</time>
      </trkpt>
      <trkpt lat="43.64953" lon="3.82074">
        <ele>69.68</ele>
        <time>2014-09-07T07:26:26Z</time>
      </trkpt>
      <trkpt lat="43.64966" lon="3.82108">
        <ele>70.76</ele>
        <time>2014-09-07T07:26:36Z</time>
      </trkpt>
      <trkpt lat="43.64983" lon="3.82127">
        <ele>72.96</ele>
        <time>2014-09-07T07:26:46Z</time>
      </trkpt>
      <trkpt lat="43.65002" lon="3.82131">
        <ele>74.79</ele>
        <time>2014-09-07T07:26:54Z</time>
      </trkpt>
      <trkpt lat="43.65022" lon="3.82111">
        <ele>75.76</ele>
        <time>2014-09-07T07:27:02Z</time>
      </trkpt>
      <trkpt lat="43.65039" lon="3.8209">
        <ele>75.53</ele>
        <time>2014-09-07T07:27:07Z</time>
      </trkpt>
      <trkpt lat="43.65048" lon="3.82081">
        <ele>74.95</ele>
        <time>2014-09-07T07:27:09Z</time>
      </trkpt>
      <trkpt lat="43.65098" lon="3.82047">
        <ele>72.41</ele>
        <time>2014-09-07T07:27:18Z</time>
      </trkpt>
      <trkpt lat="43.65161" lon="3.82014">
        <ele>69.7</ele>
        <time>2014-09-07T07:27:28Z</time>
      </trkpt>
      <trkpt lat="43.65204" lon="3.81991">
        <ele>67.65</ele>
        <time>2014-09-07T07:27:35Z</time>
      </trkpt>
      <trkpt lat="43.65262" lon="3.81959">
        <ele>66</ele>
        <time>2014-09-07T07:27:46Z</time>
      </trkpt>
      <trkpt lat="43.65287" lon="3.81944">
        <ele>65.73</ele>
        <time>2014-09-07T07:27:51Z</time>
      </trkpt>
      <trkpt lat="43.65327" lon="3.81905">
        <ele>65.6</ele>
        <time>2014-09-07T07:28:01Z</time>
      </trkpt>
      <trkpt lat="43.6536" lon="3.8187">
        <ele>66.18</ele>
        <time>2014-09-07T07:28:11Z</time>
      </trkpt>
      <trkpt lat="43.65386" lon="3.81843">
        <ele>67.57</ele>
        <time>2014-09-07T07:28:21Z</time>
      </trkpt>
      <trkpt lat="43.654" lon="3.81842">
        <ele>68.41</ele>
        <time>2014-09-07T07:28:28Z</time>
      </trkpt>
      <trkpt lat="43.65404" lon="3.8186">
        <ele>68.36</ele>
        <time>2014-09-07T07:28:33Z</time>
      </trkpt>
      <trkpt lat="43.65409" lon="3.8189">
        <ele>68.41</ele>
        <time>2014-09-07T07:28:41Z</time>
      </trkpt>
      <trkpt lat="43.65413" lon="3.81923">
        <ele>69.02</ele>
        <time>2014-09-07T07:28:50Z</time>
      </trkpt>
      <trkpt lat="43.6542" lon="3.81941">
        <ele>69.43</ele>
        <time>2014-09-07T07:28:56Z</time>
      </trkpt>
      <trkpt lat="43.65422" lon="3.81957">
        <ele>69.93</ele>
        <time>2014-09-07T07:29:01Z</time>
      </trkpt>
      <trkpt lat="43.65428" lon="3.81969">
        <ele>70.57</ele>
        <time>2014-09-07T07:29:09Z</time>
      </trkpt>
      <trkpt lat="43.65427" lon="3.8197">
        <ele>70.59</ele>
        <time>2014-09-07T07:29:10Z</time>
      </trkpt>
      <trkpt lat="43.65419" lon="3.81976">
        <ele>70.71</ele>
        <time>2014-09-07T07:29:15Z</time>
      </trkpt>
      <trkpt lat="43.65415" lon="3.81977">
        <ele>70.89</ele>
        <time>2014-09-07T07:29:17Z</time>
      </trkpt>
      <trkpt lat="43.65404" lon="3.81994">
        <ele>71.12</ele>
        <time>2014-09-07T07:29:23Z</time>
      </trkpt>
      <trkpt lat="43.654" lon="3.82003">
        <ele>71.03</ele>
        <time>2014-09-07T07:29:26Z</time>
      </trkpt>
      <trkpt lat="43.65388" lon="3.82023">
        <ele>71.58</ele>
        <time>2014-09-07T07:29:34Z</time>
      </trkpt>
      <trkpt lat="43.65384" lon="3.8204">
        <ele>71.64</ele>
        <time>2014-09-07T07:29:38Z</time>
      </trkpt>
      <trkpt lat="43.65384" lon="3.82042">
        <ele>71.61</ele>
        <time>2014-09-07T07:29:39Z</time>
      </trkpt>
      <trkpt lat="43.6539" lon="3.82052">
        <ele>71.71</ele>
        <time>2014-09-07T07:29:44Z</time>
      </trkpt>
      <trkpt lat="43.65398" lon="3.82064">
        <ele>72.51</ele>
        <time>2014-09-07T07:29:50Z</time>
      </trkpt>
      <trkpt lat="43.65399" lon="3.82072">
        <ele>72.73</ele>
        <time>2014-09-07T07:29:52Z</time>
      </trkpt>
      <trkpt lat="43.6541" lon="3.821">
        <ele>72.32</ele>
        <time>2014-09-07T07:29:57Z</time>
      </trkpt>
      <trkpt lat="43.65409" lon="3.82106">
        <ele>72.07</ele>
        <time>2014-09-07T07:29:58Z</time>
      </trkpt>
      <trkpt lat="43.65403" lon="3.8215">
        <ele>71.06</ele>
        <time>2014-09-07T07:30:06Z</time>
      </trkpt>
      <trkpt lat="43.65396" lon="3.82191">
        <ele>70.84</ele>
        <time>2014-09-07T07:30:14Z</time>
      </trkpt>
      <trkpt lat="43.65393" lon="3.82201">
        <ele>70.84</ele>
        <time>2014-09-07T07:30:16Z</time>
      </trkpt>
      <trkpt lat="43.65378" lon="3.82212">
        <ele>71.15</ele>
        <time>2014-09-07T07:30:23Z</time>
      </trkpt>
      <trkpt lat="43.6537" lon="3.8222">
        <ele>72.37</ele>
        <time>2014-09-07T07:30:29Z</time>
      </trkpt>
      <trkpt lat="43.65361" lon="3.82237">
        <ele>75.35</ele>
        <time>2014-09-07T07:30:38Z</time>
      </trkpt>
      <trkpt lat="43.65355" lon="3.82265">
        <ele>75.93</ele>
        <time>2014-09-07T07:30:46Z</time>
      </trkpt>
      <trkpt lat="43.65351" lon="3.82306">
        <ele>77.06</ele>
        <time>2014-09-07T07:30:58Z</time>
      </trkpt>
      <trkpt lat="43.65347" lon="3.82342">
        <ele>78.42</ele>
        <time>2014-09-07T07:31:09Z</time>
      </trkpt>
      <trkpt lat="43.65344" lon="3.82375">
        <ele>80.18</ele>
        <time>2014-09-07T07:31:20Z</time>
      </trkpt>
      <trkpt lat="43.65342" lon="3.82407">
        <ele>81.37</ele>
        <time>2014-09-07T07:31:30Z</time>
      </trkpt>
      <trkpt lat="43.6534" lon="3.82438">
        <ele>82.33</ele>
        <time>2014-09-07T07:31:39Z</time>
      </trkpt>
      <trkpt lat="43.65337" lon="3.82447">
        <ele>82.45</ele>
        <time>2014-09-07T07:31:42Z</time>
      </trkpt>
      <trkpt lat="43.65328" lon="3.82447">
        <ele>82.91</ele>
        <time>2014-09-07T07:31:47Z</time>
      </trkpt>
      <trkpt lat="43.65315" lon="3.82431">
        <ele>83.52</ele>
        <time>2014-09-07T07:31:56Z</time>
      </trkpt>
      <trkpt lat="43.65312" lon="3.82429">
        <ele>83.66</ele>
        <time>2014-09-07T07:31:59Z</time>
      </trkpt>
      <trkpt lat="43.65301" lon="3.82426">
        <ele>84.7</ele>
        <time>2014-09-07T07:32:06Z</time>
      </trkpt>
      <trkpt lat="43.65286" lon="3.82424">
        <ele>86.84</ele>
        <time>2014-09-07T07:32:15Z</time>
      </trkpt>
      <trkpt lat="43.65274" lon="3.82421">
        <ele>88.8</ele>
        <time>2014-09-07T07:32:23Z</time>
      </trkpt>
      <trkpt lat="43.65262" lon="3.8242">
        <ele>91.31</ele>
        <time>2014-09-07T07:32:32Z</time>
      </trkpt>
      <trkpt lat="43.65252" lon="3.82423">
        <ele>93.52</ele>
        <time>2014-09-07T07:32:40Z</time>
      </trkpt>
      <trkpt lat="43.6524" lon="3.82423">
        <ele>95.35</ele>
        <time>2014-09-07T07:32:49Z</time>
      </trkpt>
      <trkpt lat="43.65228" lon="3.8243">
        <ele>97.31</ele>
        <time>2014-09-07T07:32:59Z</time>
      </trkpt>
      <trkpt lat="43.65215" lon="3.82438">
        <ele>99.15</ele>
        <time>2014-09-07T07:33:09Z</time>
      </trkpt>
      <trkpt lat="43.65203" lon="3.82445">
        <ele>100.49</ele>
        <time>2014-09-07T07:33:18Z</time>
      </trkpt>
      <trkpt lat="43.652" lon="3.82447">
        <ele>101.47</ele>
        <time>2014-09-07T07:33:21Z</time>
      </trkpt>
      <trkpt lat="43.65199" lon="3.82449">
        <ele>101.89</ele>
        <time>2014-09-07T07:33:23Z</time>
      </trkpt>
      <trkpt lat="43.65191" lon="3.82451">
        <ele>103.21</ele>
        <time>2014-09-07T07:33:30Z</time>
      </trkpt>
      <trkpt lat="43.65188" lon="3.82451">
        <ele>103.81</ele>
        <time>2014-09-07T07:33:33Z</time>
      </trkpt>
      <trkpt lat="43.6518" lon="3.82441">
        <ele>105.65</ele>
        <time>2014-09-07T07:33:43Z</time>
      </trkpt>
      <trkpt lat="43.65178" lon="3.82439">
        <ele>106.17</ele>
        <time>2014-09-07T07:33:45Z</time>
      </trkpt>
      <trkpt lat="43.6517" lon="3.82433">
        <ele>107.22</ele>
        <time>2014-09-07T07:33:53Z</time>
      </trkpt>
      <trkpt lat="43.65164" lon="3.82434">
        <ele>109.03</ele>
        <time>2014-09-07T07:34:01Z</time>
      </trkpt>
      <trkpt lat="43.65163" lon="3.82435">
        <ele>109.43</ele>
        <time>2014-09-07T07:34:03Z</time>
      </trkpt>
      <trkpt lat="43.65161" lon="3.82449">
        <ele>109.98</ele>
        <time>2014-09-07T07:34:09Z</time>
      </trkpt>
      <trkpt lat="43.65158" lon="3.82467">
        <ele>109.5</ele>
        <time>2014-09-07T07:34:17Z</time>
      </trkpt>
      <trkpt lat="43.65157" lon="3.82469">
        <ele>109.43</ele>
        <time>2014-09-07T07:34:29Z</time>
      </trkpt>
      <trkpt lat="43.65158" lon="3.82473">
        <ele>109.19</ele>
        <time>2014-09-07T07:34:45Z</time>
      </trkpt>
      <trkpt lat="43.65157" lon="3.82473">
        <ele>109.11</ele>
        <time>2014-09-07T07:35:05Z</time>
      </trkpt>
      <trkpt lat="43.65158" lon="3.82473">
        <ele>108.99</ele>
        <time>2014-09-07T07:35:20Z</time>
      </trkpt>
      <trkpt lat="43.65155" lon="3.82478">
        <ele>109.19</ele>
        <time>2014-09-07T07:35:25Z</time>
      </trkpt>
      <trkpt lat="43.65151" lon="3.82483">
        <ele>109.32</ele>
        <time>2014-09-07T07:35:29Z</time>
      </trkpt>
      <trkpt lat="43.6515" lon="3.82489">
        <ele>109.43</ele>
        <time>2014-09-07T07:35:32Z</time>
      </trkpt>
      <trkpt lat="43.65156" lon="3.82506">
        <ele>109.2</ele>
        <time>2014-09-07T07:35:39Z</time>
      </trkpt>
      <trkpt lat="43.65162" lon="3.82516">
        <ele>108.95</ele>
        <time>2014-09-07T07:35:42Z</time>
      </trkpt>
      <trkpt lat="43.65171" lon="3.82528">
        <ele>108.42</ele>
        <time>2014-09-07T07:35:46Z</time>
      </trkpt>
      <trkpt lat="43.65188" lon="3.82549">
        <ele>107.34</ele>
        <time>2014-09-07T07:35:53Z</time>
      </trkpt>
      <trkpt lat="43.65198" lon="3.82566">
        <ele>107.22</ele>
        <time>2014-09-07T07:35:59Z</time>
      </trkpt>
      <trkpt lat="43.65207" lon="3.82579">
        <ele>107.63</ele>
        <time>2014-09-07T07:36:05Z</time>
      </trkpt>
      <trkpt lat="43.65208" lon="3.82583">
        <ele>107.8</ele>
        <time>2014-09-07T07:36:07Z</time>
      </trkpt>
      <trkpt lat="43.65222" lon="3.82598">
        <ele>108.42</ele>
        <time>2014-09-07T07:36:15Z</time>
      </trkpt>
      <trkpt lat="43.65229" lon="3.82604">
        <ele>108.69</ele>
        <time>2014-09-07T07:36:18Z</time>
      </trkpt>
      <trkpt lat="43.65237" lon="3.82615">
        <ele>109.38</ele>
        <time>2014-09-07T07:36:24Z</time>
      </trkpt>
      <trkpt lat="43.65244" lon="3.82623">
        <ele>110</ele>
        <time>2014-09-07T07:36:28Z</time>
      </trkpt>
      <trkpt lat="43.65255" lon="3.82633">
        <ele>111.45</ele>
        <time>2014-09-07T07:36:35Z</time>
      </trkpt>
      <trkpt lat="43.65259" lon="3.8264">
        <ele>112.01</ele>
        <time>2014-09-07T07:36:39Z</time>
      </trkpt>
      <trkpt lat="43.65262" lon="3.82644">
        <ele>112.26</ele>
        <time>2014-09-07T07:36:41Z</time>
      </trkpt>
      <trkpt lat="43.65278" lon="3.82662">
        <ele>113.05</ele>
        <time>2014-09-07T07:36:51Z</time>
      </trkpt>
      <trkpt lat="43.65293" lon="3.82674">
        <ele>113.23</ele>
        <time>2014-09-07T07:36:57Z</time>
      </trkpt>
      <trkpt lat="43.6531" lon="3.82688">
        <ele>113.72</ele>
        <time>2014-09-07T07:37:04Z</time>
      </trkpt>
      <trkpt lat="43.65318" lon="3.82697">
        <ele>114.02</ele>
        <time>2014-09-07T07:37:09Z</time>
      </trkpt>
      <trkpt lat="43.65335" lon="3.82707">
        <ele>114.45</ele>
        <time>2014-09-07T07:37:16Z</time>
      </trkpt>
      <trkpt lat="43.65346" lon="3.82713">
        <ele>114.66</ele>
        <time>2014-09-07T07:37:21Z</time>
      </trkpt>
      <trkpt lat="43.65355" lon="3.82719">
        <ele>114.79</ele>
        <time>2014-09-07T07:37:26Z</time>
      </trkpt>
      <trkpt lat="43.65371" lon="3.82723">
        <ele>114.93</ele>
        <time>2014-09-07T07:37:32Z</time>
      </trkpt>
      <trkpt lat="43.65384" lon="3.8273">
        <ele>115.03</ele>
        <time>2014-09-07T07:37:37Z</time>
      </trkpt>
      <trkpt lat="43.65391" lon="3.82739">
        <ele>115.13</ele>
        <time>2014-09-07T07:37:42Z</time>
      </trkpt>
      <trkpt lat="43.65403" lon="3.82749">
        <ele>115.6</ele>
        <time>2014-09-07T07:37:48Z</time>
      </trkpt>
      <trkpt lat="43.65415" lon="3.82758">
        <ele>115.76</ele>
        <time>2014-09-07T07:37:53Z</time>
      </trkpt>
      <trkpt lat="43.65431" lon="3.82767">
        <ele>115.92</ele>
        <time>2014-09-07T07:37:59Z</time>
      </trkpt>
      <trkpt lat="43.65443" lon="3.82768">
        <ele>116.11</ele>
        <time>2014-09-07T07:38:04Z</time>
      </trkpt>
      <trkpt lat="43.6546" lon="3.82773">
        <ele>116.02</ele>
        <time>2014-09-07T07:38:11Z</time>
      </trkpt>
      <trkpt lat="43.65462" lon="3.82774">
        <ele>115.98</ele>
        <time>2014-09-07T07:38:12Z</time>
      </trkpt>
      <trkpt lat="43.65474" lon="3.82792">
        <ele>115.29</ele>
        <time>2014-09-07T07:38:19Z</time>
      </trkpt>
      <trkpt lat="43.65475" lon="3.82795">
        <ele>115.15</ele>
        <time>2014-09-07T07:38:20Z</time>
      </trkpt>
      <trkpt lat="43.6549" lon="3.82811">
        <ele>114.28</ele>
        <time>2014-09-07T07:38:26Z</time>
      </trkpt>
      <trkpt lat="43.65492" lon="3.82817">
        <ele>114.02</ele>
        <time>2014-09-07T07:38:28Z</time>
      </trkpt>
      <trkpt lat="43.655" lon="3.82833">
        <ele>113.92</ele>
        <time>2014-09-07T07:38:34Z</time>
      </trkpt>
      <trkpt lat="43.65511" lon="3.82833">
        <ele>114.03</ele>
        <time>2014-09-07T07:38:40Z</time>
      </trkpt>
      <trkpt lat="43.65517" lon="3.82831">
        <ele>113.06</ele>
        <time>2014-09-07T07:38:43Z</time>
      </trkpt>
      <trkpt lat="43.6553" lon="3.82831">
        <ele>110.31</ele>
        <time>2014-09-07T07:38:50Z</time>
      </trkpt>
      <trkpt lat="43.65533" lon="3.82832">
        <ele>108.99</ele>
        <time>2014-09-07T07:38:53Z</time>
      </trkpt>
      <trkpt lat="43.65546" lon="3.82832">
        <ele>106.86</ele>
        <time>2014-09-07T07:38:59Z</time>
      </trkpt>
      <trkpt lat="43.65555" lon="3.82833">
        <ele>105.94</ele>
        <time>2014-09-07T07:39:02Z</time>
      </trkpt>
      <trkpt lat="43.65571" lon="3.82843">
        <ele>103.58</ele>
        <time>2014-09-07T07:39:08Z</time>
      </trkpt>
      <trkpt lat="43.65575" lon="3.82846">
        <ele>102.97</ele>
        <time>2014-09-07T07:39:10Z</time>
      </trkpt>
      <trkpt lat="43.65583" lon="3.82849">
        <ele>102.22</ele>
        <time>2014-09-07T07:39:14Z</time>
      </trkpt>
      <trkpt lat="43.65594" lon="3.82843">
        <ele>100.62</ele>
        <time>2014-09-07T07:39:21Z</time>
      </trkpt>
      <trkpt lat="43.656" lon="3.82853">
        <ele>99.4</ele>
        <time>2014-09-07T07:39:27Z</time>
      </trkpt>
      <trkpt lat="43.65601" lon="3.82857">
        <ele>98.93</ele>
        <time>2014-09-07T07:39:33Z</time>
      </trkpt>
      <trkpt lat="43.65604" lon="3.82861">
        <ele>98.66</ele>
        <time>2014-09-07T07:39:50Z</time>
      </trkpt>
      <trkpt lat="43.65609" lon="3.82875">
        <ele>98.52</ele>
        <time>2014-09-07T07:39:56Z</time>
      </trkpt>
      <trkpt lat="43.65621" lon="3.82886">
        <ele>98.03</ele>
        <time>2014-09-07T07:40:02Z</time>
      </trkpt>
      <trkpt lat="43.65639" lon="3.82881">
        <ele>96.87</ele>
        <time>2014-09-07T07:40:08Z</time>
      </trkpt>
      <trkpt lat="43.65652" lon="3.82889">
        <ele>95.17</ele>
        <time>2014-09-07T07:40:13Z</time>
      </trkpt>
      <trkpt lat="43.65667" lon="3.82892">
        <ele>93.02</ele>
        <time>2014-09-07T07:40:18Z</time>
      </trkpt>
      <trkpt lat="43.65677" lon="3.82891">
        <ele>92</ele>
        <time>2014-09-07T07:40:21Z</time>
      </trkpt>
      <trkpt lat="43.65696" lon="3.82905">
        <ele>89.77</ele>
        <time>2014-09-07T07:40:27Z</time>
      </trkpt>
      <trkpt lat="43.65711" lon="3.82922">
        <ele>88.38</ele>
        <time>2014-09-07T07:40:33Z</time>
      </trkpt>
      <trkpt lat="43.65716" lon="3.82926">
        <ele>87.98</ele>
        <time>2014-09-07T07:40:35Z</time>
      </trkpt>
      <trkpt lat="43.65722" lon="3.82925">
        <ele>87.06</ele>
        <time>2014-09-07T07:40:40Z</time>
      </trkpt>
      <trkpt lat="43.65723" lon="3.82922">
        <ele>86.92</ele>
        <time>2014-09-07T07:40:41Z</time>
      </trkpt>
      <trkpt lat="43.65736" lon="3.82924">
        <ele>85.36</ele>
        <time>2014-09-07T07:40:48Z</time>
      </trkpt>
      <trkpt lat="43.65738" lon="3.82926">
        <ele>85.12</ele>
        <time>2014-09-07T07:40:49Z</time>
      </trkpt>
      <trkpt lat="43.6574" lon="3.82929">
        <ele>83.56</ele>
        <time>2014-09-07T07:40:57Z</time>
      </trkpt>
      <trkpt lat="43.65743" lon="3.8293">
        <ele>83.44</ele>
        <time>2014-09-07T07:41:13Z</time>
      </trkpt>
      <trkpt lat="43.65748" lon="3.82936">
        <ele>83.52</ele>
        <time>2014-09-07T07:41:25Z</time>
      </trkpt>
      <trkpt lat="43.65758" lon="3.82959">
        <ele>83.23</ele>
        <time>2014-09-07T07:41:31Z</time>
      </trkpt>
      <trkpt lat="43.65768" lon="3.82993">
        <ele>82.66</ele>
        <time>2014-09-07T07:41:38Z</time>
      </trkpt>
      <trkpt lat="43.65782" lon="3.83036">
        <ele>82.5</ele>
        <time>2014-09-07T07:41:48Z</time>
      </trkpt>
      <trkpt lat="43.65788" lon="3.83042">
        <ele>82.6</ele>
        <time>2014-09-07T07:41:52Z</time>
      </trkpt>
      <trkpt lat="43.65798" lon="3.83038">
        <ele>82.72</ele>
        <time>2014-09-07T07:41:56Z</time>
      </trkpt>
      <trkpt lat="43.65821" lon="3.83028">
        <ele>82.98</ele>
        <time>2014-09-07T07:42:04Z</time>
      </trkpt>
      <trkpt lat="43.65831" lon="3.83022">
        <ele>83.34</ele>
        <time>2014-09-07T07:42:08Z</time>
      </trkpt>
      <trkpt lat="43.6583" lon="3.83003">
        <ele>83.98</ele>
        <time>2014-09-07T07:42:14Z</time>
      </trkpt>
      <trkpt lat="43.65832" lon="3.82994">
        <ele>83.92</ele>
        <time>2014-09-07T07:42:20Z</time>
      </trkpt>
      <trkpt lat="43.65832" lon="3.82993">
        <ele>83.84</ele>
        <time>2014-09-07T07:42:21Z</time>
      </trkpt>
      <trkpt lat="43.65836" lon="3.82983">
        <ele>83.66</ele>
        <time>2014-09-07T07:42:25Z</time>
      </trkpt>
      <trkpt lat="43.65839" lon="3.82943">
        <ele>83.19</ele>
        <time>2014-09-07T07:42:34Z</time>
      </trkpt>
      <trkpt lat="43.65846" lon="3.82915">
        <ele>82.95</ele>
        <time>2014-09-07T07:42:42Z</time>
      </trkpt>
      <trkpt lat="43.65863" lon="3.82898">
        <ele>83.04</ele>
        <time>2014-09-07T07:42:50Z</time>
      </trkpt>
      <trkpt lat="43.65893" lon="3.82891">
        <ele>84.25</ele>
        <time>2014-09-07T07:43:02Z</time>
      </trkpt>
      <trkpt lat="43.65914" lon="3.82884">
        <ele>86.36</ele>
        <time>2014-09-07T07:43:13Z</time>
      </trkpt>
      <trkpt lat="43.65934" lon="3.82878">
        <ele>88.24</ele>
        <time>2014-09-07T07:43:24Z</time>
      </trkpt>
      <trkpt lat="43.65946" lon="3.82864">
        <ele>89.47</ele>
        <time>2014-09-07T07:43:33Z</time>
      </trkpt>
      <trkpt lat="43.65953" lon="3.82842">
        <ele>90.29</ele>
        <time>2014-09-07T07:43:41Z</time>
      </trkpt>
      <trkpt lat="43.65966" lon="3.82815">
        <ele>90.46</ele>
        <time>2014-09-07T07:43:51Z</time>
      </trkpt>
      <trkpt lat="43.65968" lon="3.82814">
        <ele>90.48</ele>
        <time>2014-09-07T07:43:52Z</time>
      </trkpt>
      <trkpt lat="43.65972" lon="3.82815">
        <ele>90.66</ele>
        <time>2014-09-07T07:43:55Z</time>
      </trkpt>
      <trkpt lat="43.65976" lon="3.82831">
        <ele>91.87</ele>
        <time>2014-09-07T07:44:03Z</time>
      </trkpt>
      <trkpt lat="43.65979" lon="3.82838">
        <ele>92.36</ele>
        <time>2014-09-07T07:44:07Z</time>
      </trkpt>
      <trkpt lat="43.65987" lon="3.82833">
        <ele>93.01</ele>
        <time>2014-09-07T07:44:13Z</time>
      </trkpt>
      <trkpt lat="43.65996" lon="3.8282">
        <ele>93.76</ele>
        <time>2014-09-07T07:44:20Z</time>
      </trkpt>
      <trkpt lat="43.66007" lon="3.82811">
        <ele>94.79</ele>
        <time>2014-09-07T07:44:27Z</time>
      </trkpt>
      <trkpt lat="43.66019" lon="3.828">
        <ele>95.48</ele>
        <time>2014-09-07T07:44:34Z</time>
      </trkpt>
      <trkpt lat="43.66043" lon="3.82778">
        <ele>95.63</ele>
        <time>2014-09-07T07:44:42Z</time>
      </trkpt>
      <trkpt lat="43.66063" lon="3.82749">
        <ele>95.04</ele>
        <time>2014-09-07T07:44:49Z</time>
      </trkpt>
      <trkpt lat="43.66083" lon="3.82715">
        <ele>93.46</ele>
        <time>2014-09-07T07:44:55Z</time>
      </trkpt>
      <trkpt lat="43.66109" lon="3.8269">
        <ele>90.96</ele>
        <time>2014-09-07T07:45:00Z</time>
      </trkpt>
      <trkpt lat="43.66127" lon="3.82687">
        <ele>90.13</ele>
        <time>2014-09-07T07:45:06Z</time>
      </trkpt>
      <trkpt lat="43.66143" lon="3.82689">
        <ele>92.08</ele>
        <time>2014-09-07T07:45:15Z</time>
      </trkpt>
      <trkpt lat="43.66157" lon="3.82697">
        <ele>93.7</ele>
        <time>2014-09-07T07:45:25Z</time>
      </trkpt>
      <trkpt lat="43.66168" lon="3.82708">
        <ele>95.27</ele>
        <time>2014-09-07T07:45:34Z</time>
      </trkpt>
      <trkpt lat="43.66184" lon="3.8271">
        <ele>96.4</ele>
        <time>2014-09-07T07:45:42Z</time>
      </trkpt>
      <trkpt lat="43.66187" lon="3.82711">
        <ele>96.59</ele>
        <time>2014-09-07T07:45:44Z</time>
      </trkpt>
      <trkpt lat="43.66199" lon="3.82708">
        <ele>97.1</ele>
        <time>2014-09-07T07:45:50Z</time>
      </trkpt>
      <trkpt lat="43.66213" lon="3.8271">
        <ele>97.43</ele>
        <time>2014-09-07T07:45:57Z</time>
      </trkpt>
      <trkpt lat="43.66224" lon="3.82721">
        <ele>99.12</ele>
        <time>2014-09-07T07:46:06Z</time>
      </trkpt>
      <trkpt lat="43.66228" lon="3.82724">
        <ele>99.76</ele>
        <time>2014-09-07T07:46:09Z</time>
      </trkpt>
      <trkpt lat="43.66242" lon="3.82724">
        <ele>100.72</ele>
        <time>2014-09-07T07:46:17Z</time>
      </trkpt>
      <trkpt lat="43.66244" lon="3.82724">
        <ele>100.79</ele>
        <time>2014-09-07T07:46:18Z</time>
      </trkpt>
      <trkpt lat="43.66251" lon="3.82707">
        <ele>100.54</ele>
        <time>2014-09-07T07:46:24Z</time>
      </trkpt>
      <trkpt lat="43.66255" lon="3.82702">
        <ele>100.51</ele>
        <time>2014-09-07T07:46:27Z</time>
      </trkpt>
      <trkpt lat="43.66258" lon="3.8269">
        <ele>100.61</ele>
        <time>2014-09-07T07:46:34Z</time>
      </trkpt>
      <trkpt lat="43.66256" lon="3.82679">
        <ele>99.39</ele>
        <time>2014-09-07T07:46:39Z</time>
      </trkpt>
      <trkpt lat="43.66258" lon="3.82676">
        <ele>98.28</ele>
        <time>2014-09-07T07:46:48Z</time>
      </trkpt>
      <trkpt lat="43.66259" lon="3.82674">
        <ele>98</ele>
        <time>2014-09-07T07:46:53Z</time>
      </trkpt>
      <trkpt lat="43.66262" lon="3.82656">
        <ele>96.93</ele>
        <time>2014-09-07T07:47:00Z</time>
      </trkpt>
      <trkpt lat="43.66259" lon="3.82645">
        <ele>96</ele>
        <time>2014-09-07T07:47:06Z</time>
      </trkpt>
      <trkpt lat="43.66258" lon="3.82639">
        <ele>95.16</ele>
        <time>2014-09-07T07:47:15Z</time>
      </trkpt>
      <trkpt lat="43.66259" lon="3.82636">
        <ele>95.45</ele>
        <time>2014-09-07T07:47:24Z</time>
      </trkpt>
      <trkpt lat="43.66261" lon="3.82631">
        <ele>95.78</ele>
        <time>2014-09-07T07:47:36Z</time>
      </trkpt>
      <trkpt lat="43.66263" lon="3.82631">
        <ele>96.45</ele>
        <time>2014-09-07T07:47:49Z</time>
      </trkpt>
      <trkpt lat="43.66265" lon="3.8263">
        <ele>96.52</ele>
        <time>2014-09-07T07:48:08Z</time>
      </trkpt>
      <trkpt lat="43.66266" lon="3.8263">
        <ele>96.59</ele>
        <time>2014-09-07T07:48:14Z</time>
      </trkpt>
      <trkpt lat="43.66275" lon="3.82627">
        <ele>96.76</ele>
        <time>2014-09-07T07:48:22Z</time>
      </trkpt>
      <trkpt lat="43.66287" lon="3.82624">
        <ele>98.81</ele>
        <time>2014-09-07T07:48:31Z</time>
      </trkpt>
      <trkpt lat="43.66293" lon="3.82612">
        <ele>100.15</ele>
        <time>2014-09-07T07:48:38Z</time>
      </trkpt>
      <trkpt lat="43.66298" lon="3.82603">
        <ele>100.65</ele>
        <time>2014-09-07T07:48:42Z</time>
      </trkpt>
      <trkpt lat="43.66298" lon="3.82596">
        <ele>100.91</ele>
        <time>2014-09-07T07:48:45Z</time>
      </trkpt>
      <trkpt lat="43.66299" lon="3.8258">
        <ele>100.74</ele>
        <time>2014-09-07T07:48:51Z</time>
      </trkpt>
      <trkpt lat="43.66303" lon="3.82569">
        <ele>100.47</ele>
        <time>2014-09-07T07:48:57Z</time>
      </trkpt>
      <trkpt lat="43.66304" lon="3.82554">
        <ele>101.03</ele>
        <time>2014-09-07T07:49:03Z</time>
      </trkpt>
      <trkpt lat="43.66304" lon="3.82551">
        <ele>101.04</ele>
        <time>2014-09-07T07:49:04Z</time>
      </trkpt>
      <trkpt lat="43.66302" lon="3.82526">
        <ele>99.84</ele>
        <time>2014-09-07T07:49:12Z</time>
      </trkpt>
      <trkpt lat="43.66303" lon="3.82507">
        <ele>98.81</ele>
        <time>2014-09-07T07:49:19Z</time>
      </trkpt>
      <trkpt lat="43.66306" lon="3.82491">
        <ele>98.1</ele>
        <time>2014-09-07T07:49:24Z</time>
      </trkpt>
      <trkpt lat="43.6631" lon="3.82467">
        <ele>97.87</ele>
        <time>2014-09-07T07:49:30Z</time>
      </trkpt>
      <trkpt lat="43.66317" lon="3.82451">
        <ele>97.74</ele>
        <time>2014-09-07T07:49:35Z</time>
      </trkpt>
      <trkpt lat="43.66328" lon="3.82438">
        <ele>99.3</ele>
        <time>2014-09-07T07:49:43Z</time>
      </trkpt>
      <trkpt lat="43.66341" lon="3.82426">
        <ele>101.27</ele>
        <time>2014-09-07T07:49:52Z</time>
      </trkpt>
      <trkpt lat="43.66351" lon="3.82419">
        <ele>102.71</ele>
        <time>2014-09-07T07:49:59Z</time>
      </trkpt>
      <trkpt lat="43.66361" lon="3.82411">
        <ele>104.43</ele>
        <time>2014-09-07T07:50:06Z</time>
      </trkpt>
      <trkpt lat="43.66367" lon="3.82404">
        <ele>105.67</ele>
        <time>2014-09-07T07:50:11Z</time>
      </trkpt>
      <trkpt lat="43.66362" lon="3.82381">
        <ele>106.35</ele>
        <time>2014-09-07T07:50:17Z</time>
      </trkpt>
      <trkpt lat="43.66352" lon="3.82357">
        <ele>105.27</ele>
        <time>2014-09-07T07:50:22Z</time>
      </trkpt>
      <trkpt lat="43.6635" lon="3.82354">
        <ele>104.94</ele>
        <time>2014-09-07T07:50:23Z</time>
      </trkpt>
      <trkpt lat="43.66342" lon="3.82344">
        <ele>104.41</ele>
        <time>2014-09-07T07:50:29Z</time>
      </trkpt>
      <trkpt lat="43.6634" lon="3.82342">
        <ele>103.78</ele>
        <time>2014-09-07T07:50:38Z</time>
      </trkpt>
      <trkpt lat="43.66336" lon="3.82339">
        <ele>103.36</ele>
        <time>2014-09-07T07:50:54Z</time>
      </trkpt>
      <trkpt lat="43.66334" lon="3.82336">
        <ele>103.48</ele>
        <time>2014-09-07T07:51:12Z</time>
      </trkpt>
      <trkpt lat="43.66335" lon="3.82336">
        <ele>103.48</ele>
        <time>2014-09-07T07:51:26Z</time>
      </trkpt>
      <trkpt lat="43.66336" lon="3.82335">
        <ele>103.08</ele>
        <time>2014-09-07T07:51:43Z</time>
      </trkpt>
      <trkpt lat="43.66337" lon="3.82335">
        <ele>103.3</ele>
        <time>2014-09-07T07:52:02Z</time>
      </trkpt>
      <trkpt lat="43.66337" lon="3.82337">
        <ele>102.86</ele>
        <time>2014-09-07T07:52:17Z</time>
      </trkpt>
      <trkpt lat="43.66337" lon="3.82338">
        <ele>102.8</ele>
        <time>2014-09-07T07:52:40Z</time>
      </trkpt>
      <trkpt lat="43.66337" lon="3.8234">
        <ele>102.73</ele>
        <time>2014-09-07T07:53:03Z</time>
      </trkpt>
      <trkpt lat="43.66336" lon="3.82339">
        <ele>102.7</ele>
        <time>2014-09-07T07:53:19Z</time>
      </trkpt>
      <trkpt lat="43.66334" lon="3.82337">
        <ele>102.79</ele>
        <time>2014-09-07T07:53:22Z</time>
      </trkpt>
      <trkpt lat="43.66328" lon="3.82323">
        <ele>102.75</ele>
        <time>2014-09-07T07:53:27Z</time>
      </trkpt>
      <trkpt lat="43.66319" lon="3.82301">
        <ele>101.79</ele>
        <time>2014-09-07T07:53:33Z</time>
      </trkpt>
      <trkpt lat="43.66314" lon="3.82282">
        <ele>102.05</ele>
        <time>2014-09-07T07:53:40Z</time>
      </trkpt>
      <trkpt lat="43.66314" lon="3.82261">
        <ele>102.67</ele>
        <time>2014-09-07T07:53:47Z</time>
      </trkpt>
      <trkpt lat="43.66312" lon="3.82231">
        <ele>103.97</ele>
        <time>2014-09-07T07:53:56Z</time>
      </trkpt>
      <trkpt lat="43.66311" lon="3.82201">
        <ele>104.77</ele>
        <time>2014-09-07T07:54:04Z</time>
      </trkpt>
      <trkpt lat="43.66302" lon="3.8217">
        <ele>105.23</ele>
        <time>2014-09-07T07:54:11Z</time>
      </trkpt>
      <trkpt lat="43.66289" lon="3.82146">
        <ele>105.18</ele>
        <time>2014-09-07T07:54:16Z</time>
      </trkpt>
      <trkpt lat="43.66276" lon="3.82111">
        <ele>104.23</ele>
        <time>2014-09-07T07:54:21Z</time>
      </trkpt>
      <trkpt lat="43.66266" lon="3.82079">
        <ele>102.65</ele>
        <time>2014-09-07T07:54:27Z</time>
      </trkpt>
      <trkpt lat="43.66264" lon="3.82074">
        <ele>102.46</ele>
        <time>2014-09-07T07:54:28Z</time>
      </trkpt>
      <trkpt lat="43.66254" lon="3.82049">
        <ele>100.81</ele>
        <time>2014-09-07T07:54:33Z</time>
      </trkpt>
      <trkpt lat="43.66251" lon="3.82034">
        <ele>100.09</ele>
        <time>2014-09-07T07:54:37Z</time>
      </trkpt>
      <trkpt lat="43.66249" lon="3.82026">
        <ele>100.26</ele>
        <time>2014-09-07T07:54:40Z</time>
      </trkpt>
      <trkpt lat="43.66237" lon="3.82016">
        <ele>100.26</ele>
        <time>2014-09-07T07:54:44Z</time>
      </trkpt>
      <trkpt lat="43.66226" lon="3.82007">
        <ele>99.86</ele>
        <time>2014-09-07T07:54:47Z</time>
      </trkpt>
      <trkpt lat="43.66208" lon="3.8199">
        <ele>97.5</ele>
        <time>2014-09-07T07:54:53Z</time>
      </trkpt>
      <trkpt lat="43.6621" lon="3.81976">
        <ele>96.27</ele>
        <time>2014-09-07T07:54:58Z</time>
      </trkpt>
      <trkpt lat="43.66213" lon="3.81962">
        <ele>97.26</ele>
        <time>2014-09-07T07:55:04Z</time>
      </trkpt>
      <trkpt lat="43.66215" lon="3.81933">
        <ele>98.41</ele>
        <time>2014-09-07T07:55:13Z</time>
      </trkpt>
      <trkpt lat="43.66218" lon="3.81912">
        <ele>98.98</ele>
        <time>2014-09-07T07:55:20Z</time>
      </trkpt>
      <trkpt lat="43.66221" lon="3.8189">
        <ele>99.81</ele>
        <time>2014-09-07T07:55:29Z</time>
      </trkpt>
      <trkpt lat="43.66221" lon="3.81874">
        <ele>100.11</ele>
        <time>2014-09-07T07:55:35Z</time>
      </trkpt>
      <trkpt lat="43.66223" lon="3.81862">
        <ele>100.15</ele>
        <time>2014-09-07T07:55:40Z</time>
      </trkpt>
      <trkpt lat="43.66223" lon="3.81852">
        <ele>100.04</ele>
        <time>2014-09-07T07:55:43Z</time>
      </trkpt>
      <trkpt lat="43.66228" lon="3.81842">
        <ele>100.49</ele>
        <time>2014-09-07T07:55:49Z</time>
      </trkpt>
      <trkpt lat="43.66226" lon="3.81821">
        <ele>101.3</ele>
        <time>2014-09-07T07:55:56Z</time>
      </trkpt>
      <trkpt lat="43.66228" lon="3.81799">
        <ele>101.33</ele>
        <time>2014-09-07T07:56:02Z</time>
      </trkpt>
      <trkpt lat="43.66231" lon="3.81779">
        <ele>101.78</ele>
        <time>2014-09-07T07:56:09Z</time>
      </trkpt>
      <trkpt lat="43.66231" lon="3.81754">
        <ele>104.12</ele>
        <time>2014-09-07T07:56:17Z</time>
      </trkpt>
      <trkpt lat="43.66229" lon="3.81732">
        <ele>104.52</ele>
        <time>2014-09-07T07:56:23Z</time>
      </trkpt>
      <trkpt lat="43.66229" lon="3.8173">
        <ele>104.53</ele>
        <time>2014-09-07T07:56:24Z</time>
      </trkpt>
      <trkpt lat="43.66226" lon="3.81704">
        <ele>104.6</ele>
        <time>2014-09-07T07:56:32Z</time>
      </trkpt>
      <trkpt lat="43.66226" lon="3.81701">
        <ele>104.61</ele>
        <time>2014-09-07T07:56:33Z</time>
      </trkpt>
      <trkpt lat="43.66224" lon="3.81683">
        <ele>105.09</ele>
        <time>2014-09-07T07:56:40Z</time>
      </trkpt>
      <trkpt lat="43.66225" lon="3.81675">
        <ele>105.3</ele>
        <time>2014-09-07T07:56:43Z</time>
      </trkpt>
      <trkpt lat="43.66222" lon="3.81657">
        <ele>105.08</ele>
        <time>2014-09-07T07:56:49Z</time>
      </trkpt>
      <trkpt lat="43.66221" lon="3.81652">
        <ele>104.89</ele>
        <time>2014-09-07T07:56:50Z</time>
      </trkpt>
      <trkpt lat="43.66221" lon="3.81621">
        <ele>103.26</ele>
        <time>2014-09-07T07:56:56Z</time>
      </trkpt>
      <trkpt lat="43.6622" lon="3.81603">
        <ele>102.42</ele>
        <time>2014-09-07T07:57:01Z</time>
      </trkpt>
      <trkpt lat="43.66219" lon="3.81585">
        <ele>101.95</ele>
        <time>2014-09-07T07:57:06Z</time>
      </trkpt>
      <trkpt lat="43.66211" lon="3.81575">
        <ele>101.43</ele>
        <time>2014-09-07T07:57:10Z</time>
      </trkpt>
      <trkpt lat="43.66212" lon="3.81571">
        <ele>101.13</ele>
        <time>2014-09-07T07:57:11Z</time>
      </trkpt>
      <trkpt lat="43.66211" lon="3.81543">
        <ele>99.42</ele>
        <time>2014-09-07T07:57:16Z</time>
      </trkpt>
      <trkpt lat="43.66204" lon="3.81524">
        <ele>98.27</ele>
        <time>2014-09-07T07:57:23Z</time>
      </trkpt>
      <trkpt lat="43.66204" lon="3.81521">
        <ele>98.04</ele>
        <time>2014-09-07T07:57:24Z</time>
      </trkpt>
      <trkpt lat="43.66196" lon="3.815">
        <ele>96.25</ele>
        <time>2014-09-07T07:57:29Z</time>
      </trkpt>
      <trkpt lat="43.66191" lon="3.81484">
        <ele>94.46</ele>
        <time>2014-09-07T07:57:34Z</time>
      </trkpt>
      <trkpt lat="43.66183" lon="3.81475">
        <ele>93.28</ele>
        <time>2014-09-07T07:57:38Z</time>
      </trkpt>
      <trkpt lat="43.66171" lon="3.81457">
        <ele>90.82</ele>
        <time>2014-09-07T07:57:44Z</time>
      </trkpt>
      <trkpt lat="43.66169" lon="3.8144">
        <ele>88.63</ele>
        <time>2014-09-07T07:57:48Z</time>
      </trkpt>
      <trkpt lat="43.6617" lon="3.81416">
        <ele>86.41</ele>
        <time>2014-09-07T07:57:54Z</time>
      </trkpt>
      <trkpt lat="43.6616" lon="3.81389">
        <ele>84.09</ele>
        <time>2014-09-07T07:57:59Z</time>
      </trkpt>
      <trkpt lat="43.66151" lon="3.81355">
        <ele>82.06</ele>
        <time>2014-09-07T07:58:04Z</time>
      </trkpt>
      <trkpt lat="43.66146" lon="3.81334">
        <ele>80.73</ele>
        <time>2014-09-07T07:58:08Z</time>
      </trkpt>
      <trkpt lat="43.66148" lon="3.81322">
        <ele>79.46</ele>
        <time>2014-09-07T07:58:13Z</time>
      </trkpt>
      <trkpt lat="43.66148" lon="3.81323">
        <ele>78.66</ele>
        <time>2014-09-07T07:58:30Z</time>
      </trkpt>
      <trkpt lat="43.66147" lon="3.8132">
        <ele>78.63</ele>
        <time>2014-09-07T07:58:54Z</time>
      </trkpt>
      <trkpt lat="43.66147" lon="3.81322">
        <ele>78.69</ele>
        <time>2014-09-07T07:59:09Z</time>
      </trkpt>
      <trkpt lat="43.66147" lon="3.81323">
        <ele>78.32</ele>
        <time>2014-09-07T07:59:30Z</time>
      </trkpt>
      <trkpt lat="43.66148" lon="3.81323">
        <ele>78.62</ele>
        <time>2014-09-07T07:59:46Z</time>
      </trkpt>
      <trkpt lat="43.66147" lon="3.81323">
        <ele>78.31</ele>
        <time>2014-09-07T08:00:08Z</time>
      </trkpt>
      <trkpt lat="43.66147" lon="3.81323">
        <ele>78.2</ele>
        <time>2014-09-07T08:00:18Z</time>
      </trkpt>
      <trkpt lat="43.66152" lon="3.8132">
        <ele>78.15</ele>
        <time>2014-09-07T08:00:22Z</time>
      </trkpt>
      <trkpt lat="43.66173" lon="3.81307">
        <ele>78.79</ele>
        <time>2014-09-07T08:00:35Z</time>
      </trkpt>
      <trkpt lat="43.6619" lon="3.81296">
        <ele>79.62</ele>
        <time>2014-09-07T08:00:44Z</time>
      </trkpt>
      <trkpt lat="43.66208" lon="3.81286">
        <ele>81.34</ele>
        <time>2014-09-07T08:00:54Z</time>
      </trkpt>
      <trkpt lat="43.66225" lon="3.81278">
        <ele>82.9</ele>
        <time>2014-09-07T08:01:04Z</time>
      </trkpt>
      <trkpt lat="43.66237" lon="3.81274">
        <ele>83.96</ele>
        <time>2014-09-07T08:01:12Z</time>
      </trkpt>
      <trkpt lat="43.66251" lon="3.81272">
        <ele>85.54</ele>
        <time>2014-09-07T08:01:21Z</time>
      </trkpt>
      <trkpt lat="43.66258" lon="3.81271">
        <ele>85.96</ele>
        <time>2014-09-07T08:01:26Z</time>
      </trkpt>
      <trkpt lat="43.66271" lon="3.81265">
        <ele>87.19</ele>
        <time>2014-09-07T08:01:34Z</time>
      </trkpt>
      <trkpt lat="43.66284" lon="3.81255">
        <ele>88.41</ele>
        <time>2014-09-07T08:01:43Z</time>
      </trkpt>
      <trkpt lat="43.66294" lon="3.81248">
        <ele>89.78</ele>
        <time>2014-09-07T08:01:52Z</time>
      </trkpt>
      <trkpt lat="43.66294" lon="3.81248">
        <ele>90.33</ele>
        <time>2014-09-07T08:02:04Z</time>
      </trkpt>
      <trkpt lat="43.66294" lon="3.81247">
        <ele>90.27</ele>
        <time>2014-09-07T08:02:16Z</time>
      </trkpt>
      <trkpt lat="43.66297" lon="3.81244">
        <ele>90.48</ele>
        <time>2014-09-07T08:02:27Z</time>
      </trkpt>
      <trkpt lat="43.66305" lon="3.8124">
        <ele>90.65</ele>
        <time>2014-09-07T08:02:34Z</time>
      </trkpt>
      <trkpt lat="43.66317" lon="3.81237">
        <ele>91.87</ele>
        <time>2014-09-07T08:02:43Z</time>
      </trkpt>
      <trkpt lat="43.6633" lon="3.81239">
        <ele>93.86</ele>
        <time>2014-09-07T08:02:53Z</time>
      </trkpt>
      <trkpt lat="43.66341" lon="3.81238">
        <ele>95.55</ele>
        <time>2014-09-07T08:03:02Z</time>
      </trkpt>
      <trkpt lat="43.66352" lon="3.81238">
        <ele>97.36</ele>
        <time>2014-09-07T08:03:11Z</time>
      </trkpt>
      <trkpt lat="43.66363" lon="3.81239">
        <ele>99.01</ele>
        <time>2014-09-07T08:03:21Z</time>
      </trkpt>
      <trkpt lat="43.66374" lon="3.81242">
        <ele>100.03</ele>
        <time>2014-09-07T08:03:29Z</time>
      </trkpt>
      <trkpt lat="43.66386" lon="3.81242">
        <ele>100.59</ele>
        <time>2014-09-07T08:03:38Z</time>
      </trkpt>
      <trkpt lat="43.664" lon="3.81242">
        <ele>101.32</ele>
        <time>2014-09-07T08:03:48Z</time>
      </trkpt>
      <trkpt lat="43.66405" lon="3.81243">
        <ele>101.95</ele>
        <time>2014-09-07T08:03:52Z</time>
      </trkpt>
      <trkpt lat="43.66412" lon="3.81244">
        <ele>102.51</ele>
        <time>2014-09-07T08:03:57Z</time>
      </trkpt>
      <trkpt lat="43.66428" lon="3.81242">
        <ele>104.27</ele>
        <time>2014-09-07T08:04:09Z</time>
      </trkpt>
      <trkpt lat="43.66439" lon="3.8124">
        <ele>105.58</ele>
        <time>2014-09-07T08:04:18Z</time>
      </trkpt>
      <trkpt lat="43.66452" lon="3.8124">
        <ele>106.59</ele>
        <time>2014-09-07T08:04:28Z</time>
      </trkpt>
      <trkpt lat="43.66465" lon="3.81241">
        <ele>108.18</ele>
        <time>2014-09-07T08:04:38Z</time>
      </trkpt>
      <trkpt lat="43.66476" lon="3.81243">
        <ele>109.29</ele>
        <time>2014-09-07T08:04:47Z</time>
      </trkpt>
      <trkpt lat="43.6648" lon="3.81243">
        <ele>110.05</ele>
        <time>2014-09-07T08:04:51Z</time>
      </trkpt>
      <trkpt lat="43.66485" lon="3.81242">
        <ele>110.65</ele>
        <time>2014-09-07T08:04:55Z</time>
      </trkpt>
      <trkpt lat="43.66498" lon="3.81243">
        <ele>112.27</ele>
        <time>2014-09-07T08:05:06Z</time>
      </trkpt>
      <trkpt lat="43.66506" lon="3.81244">
        <ele>113.13</ele>
        <time>2014-09-07T08:05:12Z</time>
      </trkpt>
      <trkpt lat="43.66515" lon="3.81244">
        <ele>114.31</ele>
        <time>2014-09-07T08:05:19Z</time>
      </trkpt>
      <trkpt lat="43.66519" lon="3.81243">
        <ele>114.76</ele>
        <time>2014-09-07T08:05:22Z</time>
      </trkpt>
      <trkpt lat="43.66532" lon="3.81243">
        <ele>116.86</ele>
        <time>2014-09-07T08:05:33Z</time>
      </trkpt>
      <trkpt lat="43.6654" lon="3.81243">
        <ele>117.93</ele>
        <time>2014-09-07T08:05:40Z</time>
      </trkpt>
      <trkpt lat="43.66553" lon="3.81242">
        <ele>119.75</ele>
        <time>2014-09-07T08:05:50Z</time>
      </trkpt>
      <trkpt lat="43.66565" lon="3.81239">
        <ele>121.24</ele>
        <time>2014-09-07T08:05:59Z</time>
      </trkpt>
      <trkpt lat="43.66572" lon="3.81239">
        <ele>122.54</ele>
        <time>2014-09-07T08:06:06Z</time>
      </trkpt>
      <trkpt lat="43.66582" lon="3.81241">
        <ele>124.4</ele>
        <time>2014-09-07T08:06:15Z</time>
      </trkpt>
      <trkpt lat="43.66594" lon="3.81243">
        <ele>125.97</ele>
        <time>2014-09-07T08:06:24Z</time>
      </trkpt>
      <trkpt lat="43.66606" lon="3.81239">
        <ele>127.41</ele>
        <time>2014-09-07T08:06:33Z</time>
      </trkpt>
      <trkpt lat="43.66622" lon="3.8123">
        <ele>128.4</ele>
        <time>2014-09-07T08:06:44Z</time>
      </trkpt>
      <trkpt lat="43.66637" lon="3.81226">
        <ele>128.49</ele>
        <time>2014-09-07T08:06:53Z</time>
      </trkpt>
      <trkpt lat="43.66657" lon="3.81225">
        <ele>128.83</ele>
        <time>2014-09-07T08:07:02Z</time>
      </trkpt>
      <trkpt lat="43.66679" lon="3.81217">
        <ele>129.23</ele>
        <time>2014-09-07T08:07:11Z</time>
      </trkpt>
      <trkpt lat="43.66705" lon="3.81219">
        <ele>129.1</ele>
        <time>2014-09-07T08:07:20Z</time>
      </trkpt>
      <trkpt lat="43.66717" lon="3.81219">
        <ele>128.98</ele>
        <time>2014-09-07T08:07:26Z</time>
      </trkpt>
      <trkpt lat="43.66718" lon="3.81219">
        <ele>128.98</ele>
        <time>2014-09-07T08:07:34Z</time>
      </trkpt>
      <trkpt lat="43.66717" lon="3.81218">
        <ele>128.93</ele>
        <time>2014-09-07T08:07:56Z</time>
      </trkpt>
      <trkpt lat="43.66717" lon="3.81219">
        <ele>128.87</ele>
        <time>2014-09-07T08:08:10Z</time>
      </trkpt>
      <trkpt lat="43.66716" lon="3.81218">
        <ele>128.67</ele>
        <time>2014-09-07T08:08:23Z</time>
      </trkpt>
      <trkpt lat="43.66716" lon="3.81218">
        <ele>128.91</ele>
        <time>2014-09-07T08:08:47Z</time>
      </trkpt>
      <trkpt lat="43.6672" lon="3.81217">
        <ele>129.15</ele>
        <time>2014-09-07T08:09:08Z</time>
      </trkpt>
      <trkpt lat="43.66737" lon="3.81215">
        <ele>129.26</ele>
        <time>2014-09-07T08:09:16Z</time>
      </trkpt>
      <trkpt lat="43.66751" lon="3.81222">
        <ele>128.94</ele>
        <time>2014-09-07T08:09:23Z</time>
      </trkpt>
      <trkpt lat="43.66753" lon="3.81223">
        <ele>128.85</ele>
        <time>2014-09-07T08:09:24Z</time>
      </trkpt>
      <trkpt lat="43.66759" lon="3.8122">
        <ele>128.56</ele>
        <time>2014-09-07T08:09:28Z</time>
      </trkpt>
      <trkpt lat="43.66761" lon="3.81205">
        <ele>128.33</ele>
        <time>2014-09-07T08:09:34Z</time>
      </trkpt>
      <trkpt lat="43.66763" lon="3.81188">
        <ele>128.57</ele>
        <time>2014-09-07T08:09:41Z</time>
      </trkpt>
      <trkpt lat="43.66765" lon="3.8116">
        <ele>128.59</ele>
        <time>2014-09-07T08:09:49Z</time>
      </trkpt>
      <trkpt lat="43.66764" lon="3.81135">
        <ele>128.39</ele>
        <time>2014-09-07T08:09:55Z</time>
      </trkpt>
      <trkpt lat="43.66766" lon="3.81116">
        <ele>128.17</ele>
        <time>2014-09-07T08:10:00Z</time>
      </trkpt>
      <trkpt lat="43.66767" lon="3.81088">
        <ele>127.94</ele>
        <time>2014-09-07T08:10:06Z</time>
      </trkpt>
      <trkpt lat="43.66768" lon="3.81058">
        <ele>127.49</ele>
        <time>2014-09-07T08:10:12Z</time>
      </trkpt>
      <trkpt lat="43.66768" lon="3.81037">
        <ele>126.72</ele>
        <time>2014-09-07T08:10:18Z</time>
      </trkpt>
      <trkpt lat="43.66768" lon="3.81029">
        <ele>125.46</ele>
        <time>2014-09-07T08:10:25Z</time>
      </trkpt>
      <trkpt lat="43.66769" lon="3.8103">
        <ele>125.08</ele>
        <time>2014-09-07T08:11:06Z</time>
      </trkpt>
      <trkpt lat="43.6677" lon="3.8103">
        <ele>125.29</ele>
        <time>2014-09-07T08:11:43Z</time>
      </trkpt>
      <trkpt lat="43.66775" lon="3.81014">
        <ele>125.34</ele>
        <time>2014-09-07T08:11:48Z</time>
      </trkpt>
      <trkpt lat="43.66775" lon="3.81013">
        <ele>125.44</ele>
        <time>2014-09-07T08:11:54Z</time>
      </trkpt>
      <trkpt lat="43.66775" lon="3.81011">
        <ele>125.19</ele>
        <time>2014-09-07T08:12:16Z</time>
      </trkpt>
      <trkpt lat="43.66774" lon="3.8101">
        <ele>125.22</ele>
        <time>2014-09-07T08:12:34Z</time>
      </trkpt>
      <trkpt lat="43.66775" lon="3.81009">
        <ele>125.07</ele>
        <time>2014-09-07T08:13:01Z</time>
      </trkpt>
      <trkpt lat="43.66774" lon="3.81009">
        <ele>125.3</ele>
        <time>2014-09-07T08:13:30Z</time>
      </trkpt>
      <trkpt lat="43.66775" lon="3.81008">
        <ele>125.17</ele>
        <time>2014-09-07T08:13:50Z</time>
      </trkpt>
      <trkpt lat="43.6679" lon="3.80999">
        <ele>125.41</ele>
        <time>2014-09-07T08:13:58Z</time>
      </trkpt>
      <trkpt lat="43.66813" lon="3.80987">
        <ele>126.13</ele>
        <time>2014-09-07T08:14:08Z</time>
      </trkpt>
      <trkpt lat="43.6683" lon="3.80976">
        <ele>126.33</ele>
        <time>2014-09-07T08:14:15Z</time>
      </trkpt>
      <trkpt lat="43.66855" lon="3.80956">
        <ele>126.5</ele>
        <time>2014-09-07T08:14:24Z</time>
      </trkpt>
      <trkpt lat="43.66878" lon="3.80933">
        <ele>126.03</ele>
        <time>2014-09-07T08:14:31Z</time>
      </trkpt>
      <trkpt lat="43.66901" lon="3.80905">
        <ele>125.1</ele>
        <time>2014-09-07T08:14:38Z</time>
      </trkpt>
      <trkpt lat="43.66913" lon="3.80875">
        <ele>123.97</ele>
        <time>2014-09-07T08:14:45Z</time>
      </trkpt>
      <trkpt lat="43.66916" lon="3.80857">
        <ele>124.13</ele>
        <time>2014-09-07T08:14:50Z</time>
      </trkpt>
      <trkpt lat="43.66921" lon="3.80831">
        <ele>125.26</ele>
        <time>2014-09-07T08:14:58Z</time>
      </trkpt>
      <trkpt lat="43.66922" lon="3.80816">
        <ele>125.61</ele>
        <time>2014-09-07T08:15:05Z</time>
      </trkpt>
      <trkpt lat="43.66922" lon="3.80814">
        <ele>125.65</ele>
        <time>2014-09-07T08:15:19Z</time>
      </trkpt>
      <trkpt lat="43.66919" lon="3.80812">
        <ele>125.74</ele>
        <time>2014-09-07T08:15:33Z</time>
      </trkpt>
      <trkpt lat="43.66904" lon="3.80795">
        <ele>126.12</ele>
        <time>2014-09-07T08:15:43Z</time>
      </trkpt>
      <trkpt lat="43.66888" lon="3.80776">
        <ele>126.48</ele>
        <time>2014-09-07T08:15:51Z</time>
      </trkpt>
      <trkpt lat="43.66873" lon="3.80759">
        <ele>126.73</ele>
        <time>2014-09-07T08:15:57Z</time>
      </trkpt>
      <trkpt lat="43.66859" lon="3.80744">
        <ele>126.65</ele>
        <time>2014-09-07T08:16:02Z</time>
      </trkpt>
      <trkpt lat="43.66859" lon="3.80713">
        <ele>126.13</ele>
        <time>2014-09-07T08:16:08Z</time>
      </trkpt>
      <trkpt lat="43.66861" lon="3.80672">
        <ele>126.93</ele>
        <time>2014-09-07T08:16:16Z</time>
      </trkpt>
      <trkpt lat="43.6685" lon="3.80641">
        <ele>127.24</ele>
        <time>2014-09-07T08:16:23Z</time>
      </trkpt>
      <trkpt lat="43.66837" lon="3.80626">
        <ele>127.56</ele>
        <time>2014-09-07T08:16:28Z</time>
      </trkpt>
      <trkpt lat="43.66819" lon="3.80623">
        <ele>127.58</ele>
        <time>2014-09-07T08:16:33Z</time>
      </trkpt>
      <trkpt lat="43.66793" lon="3.80609">
        <ele>127.82</ele>
        <time>2014-09-07T08:16:40Z</time>
      </trkpt>
      <trkpt lat="43.66759" lon="3.80585">
        <ele>127.87</ele>
        <time>2014-09-07T08:16:49Z</time>
      </trkpt>
      <trkpt lat="43.66733" lon="3.80572">
        <ele>127.94</ele>
        <time>2014-09-07T08:16:56Z</time>
      </trkpt>
      <trkpt lat="43.66712" lon="3.80565">
        <ele>127.9</ele>
        <time>2014-09-07T08:17:02Z</time>
      </trkpt>
      <trkpt lat="43.66712" lon="3.8055">
        <ele>127.58</ele>
        <time>2014-09-07T08:17:06Z</time>
      </trkpt>
      <trkpt lat="43.66719" lon="3.80544">
        <ele>127.41</ele>
        <time>2014-09-07T08:17:08Z</time>
      </trkpt>
      <trkpt lat="43.66744" lon="3.80523">
        <ele>127.62</ele>
        <time>2014-09-07T08:17:15Z</time>
      </trkpt>
      <trkpt lat="43.66757" lon="3.80511">
        <ele>127.97</ele>
        <time>2014-09-07T08:17:19Z</time>
      </trkpt>
      <trkpt lat="43.66766" lon="3.805">
        <ele>128.22</ele>
        <time>2014-09-07T08:17:22Z</time>
      </trkpt>
      <trkpt lat="43.66792" lon="3.80458">
        <ele>128.53</ele>
        <time>2014-09-07T08:17:32Z</time>
      </trkpt>
      <trkpt lat="43.66813" lon="3.80433">
        <ele>128.73</ele>
        <time>2014-09-07T08:17:39Z</time>
      </trkpt>
      <trkpt lat="43.66823" lon="3.80407">
        <ele>129.21</ele>
        <time>2014-09-07T08:17:45Z</time>
      </trkpt>
      <trkpt lat="43.66826" lon="3.8038">
        <ele>129.89</ele>
        <time>2014-09-07T08:17:51Z</time>
      </trkpt>
      <trkpt lat="43.6682" lon="3.80367">
        <ele>130.31</ele>
        <time>2014-09-07T08:17:54Z</time>
      </trkpt>
      <trkpt lat="43.66808" lon="3.80355">
        <ele>130.46</ele>
        <time>2014-09-07T08:17:58Z</time>
      </trkpt>
      <trkpt lat="43.66785" lon="3.80335">
        <ele>130.24</ele>
        <time>2014-09-07T08:18:05Z</time>
      </trkpt>
      <trkpt lat="43.66771" lon="3.80326">
        <ele>130.03</ele>
        <time>2014-09-07T08:18:09Z</time>
      </trkpt>
      <trkpt lat="43.66759" lon="3.80319">
        <ele>129.78</ele>
        <time>2014-09-07T08:18:12Z</time>
      </trkpt>
      <trkpt lat="43.66745" lon="3.8031">
        <ele>129.43</ele>
        <time>2014-09-07T08:18:15Z</time>
      </trkpt>
      <trkpt lat="43.66718" lon="3.80298">
        <ele>128.34</ele>
        <time>2014-09-07T08:18:21Z</time>
      </trkpt>
      <trkpt lat="43.667" lon="3.8029">
        <ele>127.19</ele>
        <time>2014-09-07T08:18:27Z</time>
      </trkpt>
      <trkpt lat="43.66699" lon="3.80289">
        <ele>126.96</ele>
        <time>2014-09-07T08:18:28Z</time>
      </trkpt>
      <trkpt lat="43.66698" lon="3.80284">
        <ele>126.48</ele>
        <time>2014-09-07T08:18:31Z</time>
      </trkpt>
      <trkpt lat="43.66703" lon="3.80279">
        <ele>126.02</ele>
        <time>2014-09-07T08:18:35Z</time>
      </trkpt>
      <trkpt lat="43.66731" lon="3.80275">
        <ele>125.16</ele>
        <time>2014-09-07T08:18:44Z</time>
      </trkpt>
      <trkpt lat="43.66752" lon="3.80274">
        <ele>124.11</ele>
        <time>2014-09-07T08:18:50Z</time>
      </trkpt>
      <trkpt lat="43.66775" lon="3.80276">
        <ele>123.7</ele>
        <time>2014-09-07T08:18:56Z</time>
      </trkpt>
      <trkpt lat="43.668" lon="3.80277">
        <ele>123.03</ele>
        <time>2014-09-07T08:19:03Z</time>
      </trkpt>
      <trkpt lat="43.66812" lon="3.80275">
        <ele>122.61</ele>
        <time>2014-09-07T08:19:06Z</time>
      </trkpt>
      <trkpt lat="43.66836" lon="3.80261">
        <ele>121.31</ele>
        <time>2014-09-07T08:19:12Z</time>
      </trkpt>
      <trkpt lat="43.66852" lon="3.80249">
        <ele>120.76</ele>
        <time>2014-09-07T08:19:16Z</time>
      </trkpt>
      <trkpt lat="43.66869" lon="3.80245">
        <ele>120.23</ele>
        <time>2014-09-07T08:19:20Z</time>
      </trkpt>
      <trkpt lat="43.66894" lon="3.80248">
        <ele>119.46</ele>
        <time>2014-09-07T08:19:27Z</time>
      </trkpt>
      <trkpt lat="43.66909" lon="3.80255">
        <ele>119.01</ele>
        <time>2014-09-07T08:19:33Z</time>
      </trkpt>
      <trkpt lat="43.66911" lon="3.80256">
        <ele>119.01</ele>
        <time>2014-09-07T08:19:34Z</time>
      </trkpt>
      <trkpt lat="43.66912" lon="3.80248">
        <ele>118.33</ele>
        <time>2014-09-07T08:19:39Z</time>
      </trkpt>
      <trkpt lat="43.66906" lon="3.80245">
        <ele>117.99</ele>
        <time>2014-09-07T08:19:41Z</time>
      </trkpt>
      <trkpt lat="43.66885" lon="3.80228">
        <ele>116.93</ele>
        <time>2014-09-07T08:19:48Z</time>
      </trkpt>
      <trkpt lat="43.6688" lon="3.80223">
        <ele>116.66</ele>
        <time>2014-09-07T08:19:50Z</time>
      </trkpt>
      <trkpt lat="43.66858" lon="3.80215">
        <ele>115.84</ele>
        <time>2014-09-07T08:19:55Z</time>
      </trkpt>
      <trkpt lat="43.66848" lon="3.80213">
        <ele>115.45</ele>
        <time>2014-09-07T08:19:57Z</time>
      </trkpt>
      <trkpt lat="43.6684" lon="3.80214">
        <ele>114.9</ele>
        <time>2014-09-07T08:19:59Z</time>
      </trkpt>
      <trkpt lat="43.66825" lon="3.80218">
        <ele>113.93</ele>
        <time>2014-09-07T08:20:02Z</time>
      </trkpt>
      <trkpt lat="43.66815" lon="3.80223">
        <ele>113.4</ele>
        <time>2014-09-07T08:20:04Z</time>
      </trkpt>
      <trkpt lat="43.66792" lon="3.80225">
        <ele>112.3</ele>
        <time>2014-09-07T08:20:08Z</time>
      </trkpt>
      <trkpt lat="43.66781" lon="3.8022">
        <ele>111.72</ele>
        <time>2014-09-07T08:20:10Z</time>
      </trkpt>
      <trkpt lat="43.66758" lon="3.80203">
        <ele>110.79</ele>
        <time>2014-09-07T08:20:14Z</time>
      </trkpt>
      <trkpt lat="43.66736" lon="3.80189">
        <ele>109.59</ele>
        <time>2014-09-07T08:20:18Z</time>
      </trkpt>
      <trkpt lat="43.66726" lon="3.80183">
        <ele>108.98</ele>
        <time>2014-09-07T08:20:20Z</time>
      </trkpt>
      <trkpt lat="43.66701" lon="3.80172">
        <ele>107.62</ele>
        <time>2014-09-07T08:20:25Z</time>
      </trkpt>
      <trkpt lat="43.66692" lon="3.80166">
        <ele>107.03</ele>
        <time>2014-09-07T08:20:27Z</time>
      </trkpt>
      <trkpt lat="43.6667" lon="3.80149">
        <ele>105.66</ele>
        <time>2014-09-07T08:20:33Z</time>
      </trkpt>
      <trkpt lat="43.66657" lon="3.80143">
        <ele>105.25</ele>
        <time>2014-09-07T08:20:37Z</time>
      </trkpt>
      <trkpt lat="43.66637" lon="3.80144">
        <ele>105.2</ele>
        <time>2014-09-07T08:20:42Z</time>
      </trkpt>
      <trkpt lat="43.66619" lon="3.80136">
        <ele>104.65</ele>
        <time>2014-09-07T08:20:46Z</time>
      </trkpt>
      <trkpt lat="43.66606" lon="3.8012">
        <ele>104.27</ele>
        <time>2014-09-07T08:20:50Z</time>
      </trkpt>
      <trkpt lat="43.66582" lon="3.80093">
        <ele>103.85</ele>
        <time>2014-09-07T08:20:57Z</time>
      </trkpt>
      <trkpt lat="43.66551" lon="3.80065">
        <ele>103.32</ele>
        <time>2014-09-07T08:21:04Z</time>
      </trkpt>
      <trkpt lat="43.66522" lon="3.8005">
        <ele>102.91</ele>
        <time>2014-09-07T08:21:10Z</time>
      </trkpt>
      <trkpt lat="43.66481" lon="3.80033">
        <ele>102.89</ele>
        <time>2014-09-07T08:21:18Z</time>
      </trkpt>
      <trkpt lat="43.66457" lon="3.80016">
        <ele>102.74</ele>
        <time>2014-09-07T08:21:23Z</time>
      </trkpt>
      <trkpt lat="43.66436" lon="3.79998">
        <ele>102.51</ele>
        <time>2014-09-07T08:21:28Z</time>
      </trkpt>
      <trkpt lat="43.66428" lon="3.79991">
        <ele>102.43</ele>
        <time>2014-09-07T08:21:30Z</time>
      </trkpt>
      <trkpt lat="43.66406" lon="3.79978">
        <ele>102.25</ele>
        <time>2014-09-07T08:21:35Z</time>
      </trkpt>
      <trkpt lat="43.66398" lon="3.79974">
        <ele>102.12</ele>
        <time>2014-09-07T08:21:37Z</time>
      </trkpt>
      <trkpt lat="43.66378" lon="3.7996">
        <ele>101.76</ele>
        <time>2014-09-07T08:21:42Z</time>
      </trkpt>
      <trkpt lat="43.66369" lon="3.79939">
        <ele>101.76</ele>
        <time>2014-09-07T08:21:46Z</time>
      </trkpt>
      <trkpt lat="43.66364" lon="3.79927">
        <ele>101.74</ele>
        <time>2014-09-07T08:21:48Z</time>
      </trkpt>
      <trkpt lat="43.66353" lon="3.79904">
        <ele>101.34</ele>
        <time>2014-09-07T08:21:52Z</time>
      </trkpt>
      <trkpt lat="43.66335" lon="3.79876">
        <ele>100.77</ele>
        <time>2014-09-07T08:21:57Z</time>
      </trkpt>
      <trkpt lat="43.66304" lon="3.79852">
        <ele>99.71</ele>
        <time>2014-09-07T08:22:04Z</time>
      </trkpt>
      <trkpt lat="43.66279" lon="3.79857">
        <ele>98.56</ele>
        <time>2014-09-07T08:22:09Z</time>
      </trkpt>
      <trkpt lat="43.6626" lon="3.7984">
        <ele>98.05</ele>
        <time>2014-09-07T08:22:14Z</time>
      </trkpt>
      <trkpt lat="43.66257" lon="3.79828">
        <ele>97.79</ele>
        <time>2014-09-07T08:22:16Z</time>
      </trkpt>
      <trkpt lat="43.66247" lon="3.79806">
        <ele>97.5</ele>
        <time>2014-09-07T08:22:20Z</time>
      </trkpt>
      <trkpt lat="43.6624" lon="3.79797">
        <ele>97.42</ele>
        <time>2014-09-07T08:22:22Z</time>
      </trkpt>
      <trkpt lat="43.66218" lon="3.79777">
        <ele>96.31</ele>
        <time>2014-09-07T08:22:27Z</time>
      </trkpt>
      <trkpt lat="43.66198" lon="3.79763">
        <ele>95.75</ele>
        <time>2014-09-07T08:22:31Z</time>
      </trkpt>
      <trkpt lat="43.66167" lon="3.7973">
        <ele>94.61</ele>
        <time>2014-09-07T08:22:38Z</time>
      </trkpt>
      <trkpt lat="43.66151" lon="3.79709">
        <ele>94.08</ele>
        <time>2014-09-07T08:22:42Z</time>
      </trkpt>
      <trkpt lat="43.66125" lon="3.79681">
        <ele>93.49</ele>
        <time>2014-09-07T08:22:48Z</time>
      </trkpt>
      <trkpt lat="43.6611" lon="3.79667">
        <ele>92.93</ele>
        <time>2014-09-07T08:22:51Z</time>
      </trkpt>
      <trkpt lat="43.66084" lon="3.79634">
        <ele>92.12</ele>
        <time>2014-09-07T08:22:57Z</time>
      </trkpt>
      <trkpt lat="43.66062" lon="3.79624">
        <ele>91.49</ele>
        <time>2014-09-07T08:23:02Z</time>
      </trkpt>
      <trkpt lat="43.66051" lon="3.79634">
        <ele>91.02</ele>
        <time>2014-09-07T08:23:05Z</time>
      </trkpt>
      <trkpt lat="43.66034" lon="3.79659">
        <ele>90.24</ele>
        <time>2014-09-07T08:23:10Z</time>
      </trkpt>
      <trkpt lat="43.66028" lon="3.7967">
        <ele>89.93</ele>
        <time>2014-09-07T08:23:12Z</time>
      </trkpt>
      <trkpt lat="43.6602" lon="3.79692">
        <ele>89.35</ele>
        <time>2014-09-07T08:23:18Z</time>
      </trkpt>
      <trkpt lat="43.66018" lon="3.79681">
        <ele>88.98</ele>
        <time>2014-09-07T08:23:22Z</time>
      </trkpt>
      <trkpt lat="43.66019" lon="3.79676">
        <ele>88.84</ele>
        <time>2014-09-07T08:23:23Z</time>
      </trkpt>
      <trkpt lat="43.66025" lon="3.79644">
        <ele>87.89</ele>
        <time>2014-09-07T08:23:28Z</time>
      </trkpt>
      <trkpt lat="43.66032" lon="3.79618">
        <ele>86.46</ele>
        <time>2014-09-07T08:23:32Z</time>
      </trkpt>
      <trkpt lat="43.66032" lon="3.79576">
        <ele>84.82</ele>
        <time>2014-09-07T08:23:37Z</time>
      </trkpt>
      <trkpt lat="43.66031" lon="3.79549">
        <ele>83.11</ele>
        <time>2014-09-07T08:23:40Z</time>
      </trkpt>
      <trkpt lat="43.66028" lon="3.79514">
        <ele>81.35</ele>
        <time>2014-09-07T08:23:44Z</time>
      </trkpt>
      <trkpt lat="43.66029" lon="3.79438">
        <ele>78</ele>
        <time>2014-09-07T08:23:53Z</time>
      </trkpt>
      <trkpt lat="43.66026" lon="3.79409">
        <ele>76.63</ele>
        <time>2014-09-07T08:23:57Z</time>
      </trkpt>
      <trkpt lat="43.66018" lon="3.79374">
        <ele>74.68</ele>
        <time>2014-09-07T08:24:03Z</time>
      </trkpt>
      <trkpt lat="43.66017" lon="3.79362">
        <ele>73.99</ele>
        <time>2014-09-07T08:24:06Z</time>
      </trkpt>
      <trkpt lat="43.66024" lon="3.79336">
        <ele>72.66</ele>
        <time>2014-09-07T08:24:12Z</time>
      </trkpt>
      <trkpt lat="43.6603" lon="3.79312">
        <ele>70.6</ele>
        <time>2014-09-07T08:24:18Z</time>
      </trkpt>
      <trkpt lat="43.66033" lon="3.79299">
        <ele>70.23</ele>
        <time>2014-09-07T08:24:20Z</time>
      </trkpt>
      <trkpt lat="43.66047" lon="3.79261">
        <ele>69.09</ele>
        <time>2014-09-07T08:24:25Z</time>
      </trkpt>
      <trkpt lat="43.66065" lon="3.79232">
        <ele>67.89</ele>
        <time>2014-09-07T08:24:29Z</time>
      </trkpt>
      <trkpt lat="43.6609" lon="3.79206">
        <ele>66.01</ele>
        <time>2014-09-07T08:24:33Z</time>
      </trkpt>
      <trkpt lat="43.66151" lon="3.79172">
        <ele>63.57</ele>
        <time>2014-09-07T08:24:41Z</time>
      </trkpt>
      <trkpt lat="43.66207" lon="3.79168">
        <ele>61.76</ele>
        <time>2014-09-07T08:24:49Z</time>
      </trkpt>
      <trkpt lat="43.66242" lon="3.79166">
        <ele>61.26</ele>
        <time>2014-09-07T08:24:56Z</time>
      </trkpt>
      <trkpt lat="43.66277" lon="3.79154">
        <ele>60.92</ele>
        <time>2014-09-07T08:25:05Z</time>
      </trkpt>
      <trkpt lat="43.66305" lon="3.79135">
        <ele>60.7</ele>
        <time>2014-09-07T08:25:14Z</time>
      </trkpt>
      <trkpt lat="43.66327" lon="3.79114">
        <ele>60.8</ele>
        <time>2014-09-07T08:25:23Z</time>
      </trkpt>
      <trkpt lat="43.6634" lon="3.791">
        <ele>60.75</ele>
        <time>2014-09-07T08:25:29Z</time>
      </trkpt>
      <trkpt lat="43.66364" lon="3.79077">
        <ele>60.89</ele>
        <time>2014-09-07T08:25:37Z</time>
      </trkpt>
      <trkpt lat="43.66377" lon="3.79064">
        <ele>60.93</ele>
        <time>2014-09-07T08:25:41Z</time>
      </trkpt>
      <trkpt lat="43.6639" lon="3.79051">
        <ele>61.01</ele>
        <time>2014-09-07T08:25:45Z</time>
      </trkpt>
      <trkpt lat="43.66422" lon="3.79021">
        <ele>61.11</ele>
        <time>2014-09-07T08:25:55Z</time>
      </trkpt>
      <trkpt lat="43.66428" lon="3.79015">
        <ele>61.14</ele>
        <time>2014-09-07T08:25:58Z</time>
      </trkpt>
      <trkpt lat="43.66431" lon="3.79003">
        <ele>61.24</ele>
        <time>2014-09-07T08:26:05Z</time>
      </trkpt>
      <trkpt lat="43.66428" lon="3.78998">
        <ele>61.25</ele>
        <time>2014-09-07T08:26:07Z</time>
      </trkpt>
      <trkpt lat="43.66415" lon="3.78977">
        <ele>60.87</ele>
        <time>2014-09-07T08:26:13Z</time>
      </trkpt>
      <trkpt lat="43.66411" lon="3.78959">
        <ele>60.31</ele>
        <time>2014-09-07T08:26:18Z</time>
      </trkpt>
      <trkpt lat="43.66424" lon="3.78941">
        <ele>59.85</ele>
        <time>2014-09-07T08:26:24Z</time>
      </trkpt>
      <trkpt lat="43.66436" lon="3.78918">
        <ele>59.91</ele>
        <time>2014-09-07T08:26:31Z</time>
      </trkpt>
      <trkpt lat="43.66447" lon="3.789">
        <ele>60.1</ele>
        <time>2014-09-07T08:26:37Z</time>
      </trkpt>
      <trkpt lat="43.66445" lon="3.78877">
        <ele>60.06</ele>
        <time>2014-09-07T08:26:42Z</time>
      </trkpt>
      <trkpt lat="43.66447" lon="3.78855">
        <ele>59.99</ele>
        <time>2014-09-07T08:26:47Z</time>
      </trkpt>
      <trkpt lat="43.66451" lon="3.78833">
        <ele>59.94</ele>
        <time>2014-09-07T08:26:53Z</time>
      </trkpt>
      <trkpt lat="43.66464" lon="3.78818">
        <ele>60.18</ele>
        <time>2014-09-07T08:26:59Z</time>
      </trkpt>
      <trkpt lat="43.66483" lon="3.78798">
        <ele>60.25</ele>
        <time>2014-09-07T08:27:07Z</time>
      </trkpt>
      <trkpt lat="43.66492" lon="3.78782">
        <ele>60.32</ele>
        <time>2014-09-07T08:27:13Z</time>
      </trkpt>
      <trkpt lat="43.66484" lon="3.78775">
        <ele>60.38</ele>
        <time>2014-09-07T08:27:18Z</time>
      </trkpt>
      <trkpt lat="43.66475" lon="3.78774">
        <ele>60.47</ele>
        <time>2014-09-07T08:27:21Z</time>
      </trkpt>
      <trkpt lat="43.66463" lon="3.7877">
        <ele>59.55</ele>
        <time>2014-09-07T08:27:27Z</time>
      </trkpt>
      <trkpt lat="43.66461" lon="3.7877">
        <ele>59.23</ele>
        <time>2014-09-07T08:27:28Z</time>
      </trkpt>
      <trkpt lat="43.66455" lon="3.78768">
        <ele>57.15</ele>
        <time>2014-09-07T08:27:34Z</time>
      </trkpt>
      <trkpt lat="43.66452" lon="3.7877">
        <ele>56.93</ele>
        <time>2014-09-07T08:27:43Z</time>
      </trkpt>
      <trkpt lat="43.66453" lon="3.78763">
        <ele>57.46</ele>
        <time>2014-09-07T08:27:51Z</time>
      </trkpt>
      <trkpt lat="43.66454" lon="3.78755">
        <ele>58.83</ele>
        <time>2014-09-07T08:28:01Z</time>
      </trkpt>
      <trkpt lat="43.66448" lon="3.78754">
        <ele>59.78</ele>
        <time>2014-09-07T08:28:10Z</time>
      </trkpt>
      <trkpt lat="43.66444" lon="3.78749">
        <ele>61.16</ele>
        <time>2014-09-07T08:28:20Z</time>
      </trkpt>
      <trkpt lat="43.6644" lon="3.78746">
        <ele>62.81</ele>
        <time>2014-09-07T08:28:30Z</time>
      </trkpt>
      <trkpt lat="43.66438" lon="3.7875">
        <ele>63.16</ele>
        <time>2014-09-07T08:28:39Z</time>
      </trkpt>
      <trkpt lat="43.66436" lon="3.78751">
        <ele>63.44</ele>
        <time>2014-09-07T08:28:55Z</time>
      </trkpt>
      <trkpt lat="43.66436" lon="3.78752">
        <ele>63.34</ele>
        <time>2014-09-07T08:29:22Z</time>
      </trkpt>
      <trkpt lat="43.66436" lon="3.78751">
        <ele>63.36</ele>
        <time>2014-09-07T08:29:38Z</time>
      </trkpt>
      <trkpt lat="43.66436" lon="3.78756">
        <ele>63.45</ele>
        <time>2014-09-07T08:29:54Z</time>
      </trkpt>
      <trkpt lat="43.6643" lon="3.78768">
        <ele>63.28</ele>
        <time>2014-09-07T08:30:00Z</time>
      </trkpt>
      <trkpt lat="43.66426" lon="3.78781">
        <ele>62.95</ele>
        <time>2014-09-07T08:30:05Z</time>
      </trkpt>
      <trkpt lat="43.6642" lon="3.78802">
        <ele>62.52</ele>
        <time>2014-09-07T08:30:11Z</time>
      </trkpt>
      <trkpt lat="43.6641" lon="3.78824">
        <ele>62.11</ele>
        <time>2014-09-07T08:30:17Z</time>
      </trkpt>
      <trkpt lat="43.664" lon="3.78846">
        <ele>61.78</ele>
        <time>2014-09-07T08:30:23Z</time>
      </trkpt>
      <trkpt lat="43.66396" lon="3.78874">
        <ele>61.15</ele>
        <time>2014-09-07T08:30:30Z</time>
      </trkpt>
      <trkpt lat="43.66386" lon="3.78902">
        <ele>60.72</ele>
        <time>2014-09-07T08:30:37Z</time>
      </trkpt>
      <trkpt lat="43.66381" lon="3.78905">
        <ele>60.68</ele>
        <time>2014-09-07T08:30:39Z</time>
      </trkpt>
      <trkpt lat="43.66366" lon="3.78933">
        <ele>60.74</ele>
        <time>2014-09-07T08:30:48Z</time>
      </trkpt>
      <trkpt lat="43.66351" lon="3.78949">
        <ele>60.78</ele>
        <time>2014-09-07T08:30:55Z</time>
      </trkpt>
      <trkpt lat="43.66334" lon="3.78963">
        <ele>60.8</ele>
        <time>2014-09-07T08:31:02Z</time>
      </trkpt>
      <trkpt lat="43.66313" lon="3.78972">
        <ele>60.98</ele>
        <time>2014-09-07T08:31:09Z</time>
      </trkpt>
      <trkpt lat="43.66289" lon="3.78978">
        <ele>60.8</ele>
        <time>2014-09-07T08:31:17Z</time>
      </trkpt>
      <trkpt lat="43.66277" lon="3.78981">
        <ele>60.69</ele>
        <time>2014-09-07T08:31:21Z</time>
      </trkpt>
      <trkpt lat="43.66253" lon="3.78974">
        <ele>60.4</ele>
        <time>2014-09-07T08:31:29Z</time>
      </trkpt>
      <trkpt lat="43.66231" lon="3.78972">
        <ele>60.12</ele>
        <time>2014-09-07T08:31:36Z</time>
      </trkpt>
      <trkpt lat="43.66223" lon="3.78971">
        <ele>60.02</ele>
        <time>2014-09-07T08:31:39Z</time>
      </trkpt>
      <trkpt lat="43.66205" lon="3.78955">
        <ele>59.89</ele>
        <time>2014-09-07T08:31:46Z</time>
      </trkpt>
      <trkpt lat="43.66189" lon="3.78949">
        <ele>60.11</ele>
        <time>2014-09-07T08:31:52Z</time>
      </trkpt>
      <trkpt lat="43.66172" lon="3.78946">
        <ele>60.67</ele>
        <time>2014-09-07T08:31:58Z</time>
      </trkpt>
      <trkpt lat="43.66151" lon="3.78958">
        <ele>61.34</ele>
        <time>2014-09-07T08:32:05Z</time>
      </trkpt>
      <trkpt lat="43.66138" lon="3.78979">
        <ele>61.61</ele>
        <time>2014-09-07T08:32:11Z</time>
      </trkpt>
      <trkpt lat="43.66127" lon="3.79017">
        <ele>61.57</ele>
        <time>2014-09-07T08:32:19Z</time>
      </trkpt>
      <trkpt lat="43.66112" lon="3.79046">
        <ele>61.16</ele>
        <time>2014-09-07T08:32:26Z</time>
      </trkpt>
      <trkpt lat="43.66088" lon="3.79051">
        <ele>60.62</ele>
        <time>2014-09-07T08:32:32Z</time>
      </trkpt>
      <trkpt lat="43.66076" lon="3.79048">
        <ele>60.27</ele>
        <time>2014-09-07T08:32:35Z</time>
      </trkpt>
      <trkpt lat="43.66058" lon="3.79035">
        <ele>59.8</ele>
        <time>2014-09-07T08:32:39Z</time>
      </trkpt>
      <trkpt lat="43.66024" lon="3.79018">
        <ele>59.11</ele>
        <time>2014-09-07T08:32:47Z</time>
      </trkpt>
      <trkpt lat="43.65995" lon="3.79007">
        <ele>59.09</ele>
        <time>2014-09-07T08:32:54Z</time>
      </trkpt>
      <trkpt lat="43.65985" lon="3.78993">
        <ele>59.25</ele>
        <time>2014-09-07T08:32:58Z</time>
      </trkpt>
      <trkpt lat="43.65976" lon="3.78965">
        <ele>59.6</ele>
        <time>2014-09-07T08:33:05Z</time>
      </trkpt>
      <trkpt lat="43.65972" lon="3.78936">
        <ele>59.95</ele>
        <time>2014-09-07T08:33:12Z</time>
      </trkpt>
      <trkpt lat="43.65972" lon="3.78932">
        <ele>60.04</ele>
        <time>2014-09-07T08:33:13Z</time>
      </trkpt>
      <trkpt lat="43.65965" lon="3.78924">
        <ele>60.39</ele>
        <time>2014-09-07T08:33:19Z</time>
      </trkpt>
      <trkpt lat="43.65952" lon="3.78936">
        <ele>60.6</ele>
        <time>2014-09-07T08:33:26Z</time>
      </trkpt>
      <trkpt lat="43.65947" lon="3.78952">
        <ele>60.53</ele>
        <time>2014-09-07T08:33:31Z</time>
      </trkpt>
      <trkpt lat="43.65932" lon="3.78966">
        <ele>60.42</ele>
        <time>2014-09-07T08:33:37Z</time>
      </trkpt>
      <trkpt lat="43.65924" lon="3.78981">
        <ele>60.33</ele>
        <time>2014-09-07T08:33:42Z</time>
      </trkpt>
      <trkpt lat="43.65922" lon="3.78983">
        <ele>60.31</ele>
        <time>2014-09-07T08:33:43Z</time>
      </trkpt>
      <trkpt lat="43.65908" lon="3.78991">
        <ele>60.32</ele>
        <time>2014-09-07T08:33:48Z</time>
      </trkpt>
      <trkpt lat="43.65898" lon="3.78988">
        <ele>60.29</ele>
        <time>2014-09-07T08:33:52Z</time>
      </trkpt>
      <trkpt lat="43.65881" lon="3.78995">
        <ele>60.04</ele>
        <time>2014-09-07T08:33:58Z</time>
      </trkpt>
      <trkpt lat="43.65866" lon="3.79004">
        <ele>59.85</ele>
        <time>2014-09-07T08:34:03Z</time>
      </trkpt>
      <trkpt lat="43.65858" lon="3.79004">
        <ele>59.7</ele>
        <time>2014-09-07T08:34:05Z</time>
      </trkpt>
      <trkpt lat="43.65846" lon="3.78983">
        <ele>59.1</ele>
        <time>2014-09-07T08:34:11Z</time>
      </trkpt>
      <trkpt lat="43.65831" lon="3.78953">
        <ele>58.83</ele>
        <time>2014-09-07T08:34:19Z</time>
      </trkpt>
      <trkpt lat="43.65821" lon="3.78931">
        <ele>58.28</ele>
        <time>2014-09-07T08:34:25Z</time>
      </trkpt>
      <trkpt lat="43.65817" lon="3.78905">
        <ele>58.33</ele>
        <time>2014-09-07T08:34:31Z</time>
      </trkpt>
      <trkpt lat="43.65809" lon="3.78897">
        <ele>58.49</ele>
        <time>2014-09-07T08:34:35Z</time>
      </trkpt>
      <trkpt lat="43.65791" lon="3.78905">
        <ele>58.46</ele>
        <time>2014-09-07T08:34:40Z</time>
      </trkpt>
      <trkpt lat="43.65765" lon="3.78901">
        <ele>57.73</ele>
        <time>2014-09-07T08:34:46Z</time>
      </trkpt>
      <trkpt lat="43.65746" lon="3.78873">
        <ele>57.29</ele>
        <time>2014-09-07T08:34:53Z</time>
      </trkpt>
      <trkpt lat="43.65732" lon="3.78845">
        <ele>57.81</ele>
        <time>2014-09-07T08:35:00Z</time>
      </trkpt>
      <trkpt lat="43.65722" lon="3.78821">
        <ele>58.6</ele>
        <time>2014-09-07T08:35:06Z</time>
      </trkpt>
      <trkpt lat="43.65696" lon="3.78803">
        <ele>58.69</ele>
        <time>2014-09-07T08:35:12Z</time>
      </trkpt>
      <trkpt lat="43.65674" lon="3.78792">
        <ele>57.88</ele>
        <time>2014-09-07T08:35:17Z</time>
      </trkpt>
      <trkpt lat="43.65667" lon="3.78802">
        <ele>57.59</ele>
        <time>2014-09-07T08:35:20Z</time>
      </trkpt>
      <trkpt lat="43.65648" lon="3.78846">
        <ele>57.05</ele>
        <time>2014-09-07T08:35:29Z</time>
      </trkpt>
      <trkpt lat="43.65633" lon="3.78873">
        <ele>56.55</ele>
        <time>2014-09-07T08:35:35Z</time>
      </trkpt>
      <trkpt lat="43.65627" lon="3.78881">
        <ele>56.45</ele>
        <time>2014-09-07T08:35:37Z</time>
      </trkpt>
      <trkpt lat="43.65609" lon="3.78897">
        <ele>55.87</ele>
        <time>2014-09-07T08:35:42Z</time>
      </trkpt>
      <trkpt lat="43.65606" lon="3.789">
        <ele>55.77</ele>
        <time>2014-09-07T08:35:43Z</time>
      </trkpt>
      <trkpt lat="43.6558" lon="3.78914">
        <ele>55.5</ele>
        <time>2014-09-07T08:35:50Z</time>
      </trkpt>
      <trkpt lat="43.65576" lon="3.78915">
        <ele>55.48</ele>
        <time>2014-09-07T08:35:51Z</time>
      </trkpt>
      <trkpt lat="43.65552" lon="3.78924">
        <ele>55.22</ele>
        <time>2014-09-07T08:35:57Z</time>
      </trkpt>
      <trkpt lat="43.65531" lon="3.7893">
        <ele>54.54</ele>
        <time>2014-09-07T08:36:03Z</time>
      </trkpt>
      <trkpt lat="43.65509" lon="3.78925">
        <ele>54.82</ele>
        <time>2014-09-07T08:36:10Z</time>
      </trkpt>
      <trkpt lat="43.65496" lon="3.78924">
        <ele>54.99</ele>
        <time>2014-09-07T08:36:14Z</time>
      </trkpt>
      <trkpt lat="43.65475" lon="3.78915">
        <ele>55.33</ele>
        <time>2014-09-07T08:36:21Z</time>
      </trkpt>
      <trkpt lat="43.65457" lon="3.78909">
        <ele>55.56</ele>
        <time>2014-09-07T08:36:26Z</time>
      </trkpt>
      <trkpt lat="43.65432" lon="3.78901">
        <ele>55.85</ele>
        <time>2014-09-07T08:36:33Z</time>
      </trkpt>
      <trkpt lat="43.65415" lon="3.78891">
        <ele>55.75</ele>
        <time>2014-09-07T08:36:38Z</time>
      </trkpt>
      <trkpt lat="43.65391" lon="3.7887">
        <ele>55.4</ele>
        <time>2014-09-07T08:36:45Z</time>
      </trkpt>
      <trkpt lat="43.65372" lon="3.78852">
        <ele>55.31</ele>
        <time>2014-09-07T08:36:51Z</time>
      </trkpt>
      <trkpt lat="43.65364" lon="3.78845">
        <ele>55.3</ele>
        <time>2014-09-07T08:36:53Z</time>
      </trkpt>
      <trkpt lat="43.65355" lon="3.78826">
        <ele>55.02</ele>
        <time>2014-09-07T08:36:57Z</time>
      </trkpt>
      <trkpt lat="43.65355" lon="3.78815">
        <ele>54.86</ele>
        <time>2014-09-07T08:36:59Z</time>
      </trkpt>
      <trkpt lat="43.6536" lon="3.78791">
        <ele>54.75</ele>
        <time>2014-09-07T08:37:03Z</time>
      </trkpt>
      <trkpt lat="43.65369" lon="3.78773">
        <ele>54.9</ele>
        <time>2014-09-07T08:37:07Z</time>
      </trkpt>
      <trkpt lat="43.65395" lon="3.78735">
        <ele>55.65</ele>
        <time>2014-09-07T08:37:16Z</time>
      </trkpt>
      <trkpt lat="43.65399" lon="3.78725">
        <ele>55.82</ele>
        <time>2014-09-07T08:37:18Z</time>
      </trkpt>
      <trkpt lat="43.65411" lon="3.78678">
        <ele>56.78</ele>
        <time>2014-09-07T08:37:27Z</time>
      </trkpt>
      <trkpt lat="43.65426" lon="3.78647">
        <ele>57</ele>
        <time>2014-09-07T08:37:34Z</time>
      </trkpt>
      <trkpt lat="43.65435" lon="3.78629">
        <ele>57.03</ele>
        <time>2014-09-07T08:37:40Z</time>
      </trkpt>
      <trkpt lat="43.65437" lon="3.78625">
        <ele>57.03</ele>
        <time>2014-09-07T08:37:41Z</time>
      </trkpt>
      <trkpt lat="43.65436" lon="3.7859">
        <ele>56.75</ele>
        <time>2014-09-07T08:37:48Z</time>
      </trkpt>
      <trkpt lat="43.65435" lon="3.78565">
        <ele>56.96</ele>
        <time>2014-09-07T08:37:54Z</time>
      </trkpt>
      <trkpt lat="43.6543" lon="3.78539">
        <ele>58.02</ele>
        <time>2014-09-07T08:38:01Z</time>
      </trkpt>
      <trkpt lat="43.6543" lon="3.78521">
        <ele>58.31</ele>
        <time>2014-09-07T08:38:05Z</time>
      </trkpt>
      <trkpt lat="43.65442" lon="3.78483">
        <ele>59.01</ele>
        <time>2014-09-07T08:38:14Z</time>
      </trkpt>
      <trkpt lat="43.65452" lon="3.78456">
        <ele>59.41</ele>
        <time>2014-09-07T08:38:21Z</time>
      </trkpt>
      <trkpt lat="43.65466" lon="3.78431">
        <ele>60.2</ele>
        <time>2014-09-07T08:38:28Z</time>
      </trkpt>
      <trkpt lat="43.65479" lon="3.78407">
        <ele>60.97</ele>
        <time>2014-09-07T08:38:35Z</time>
      </trkpt>
      <trkpt lat="43.65493" lon="3.78387">
        <ele>62.47</ele>
        <time>2014-09-07T08:38:43Z</time>
      </trkpt>
      <trkpt lat="43.65504" lon="3.78368">
        <ele>63.98</ele>
        <time>2014-09-07T08:38:50Z</time>
      </trkpt>
      <trkpt lat="43.65518" lon="3.78354">
        <ele>65.16</ele>
        <time>2014-09-07T08:38:57Z</time>
      </trkpt>
      <trkpt lat="43.65527" lon="3.78347">
        <ele>65.98</ele>
        <time>2014-09-07T08:39:04Z</time>
      </trkpt>
      <trkpt lat="43.6553" lon="3.78344">
        <ele>66.72</ele>
        <time>2014-09-07T08:39:11Z</time>
      </trkpt>
      <trkpt lat="43.65532" lon="3.78342">
        <ele>67.21</ele>
        <time>2014-09-07T08:39:26Z</time>
      </trkpt>
      <trkpt lat="43.65532" lon="3.78341">
        <ele>66.95</ele>
        <time>2014-09-07T08:40:03Z</time>
      </trkpt>
      <trkpt lat="43.65531" lon="3.78342">
        <ele>67.08</ele>
        <time>2014-09-07T08:40:27Z</time>
      </trkpt>
      <trkpt lat="43.65531" lon="3.78343">
        <ele>66.89</ele>
        <time>2014-09-07T08:40:48Z</time>
      </trkpt>
      <trkpt lat="43.65531" lon="3.78341">
        <ele>66.98</ele>
        <time>2014-09-07T08:41:08Z</time>
      </trkpt>
      <trkpt lat="43.6553" lon="3.78342">
        <ele>67.05</ele>
        <time>2014-09-07T08:41:23Z</time>
      </trkpt>
      <trkpt lat="43.65528" lon="3.78341">
        <ele>66.83</ele>
        <time>2014-09-07T08:41:56Z</time>
      </trkpt>
      <trkpt lat="43.65529" lon="3.78342">
        <ele>66.79</ele>
        <time>2014-09-07T08:42:15Z</time>
      </trkpt>
      <trkpt lat="43.65531" lon="3.7834">
        <ele>66.77</ele>
        <time>2014-09-07T08:42:30Z</time>
      </trkpt>
      <trkpt lat="43.6553" lon="3.78341">
        <ele>66.61</ele>
        <time>2014-09-07T08:42:44Z</time>
      </trkpt>
      <trkpt lat="43.65531" lon="3.78342">
        <ele>66.67</ele>
        <time>2014-09-07T08:42:59Z</time>
      </trkpt>
      <trkpt lat="43.65533" lon="3.78341">
        <ele>66.61</ele>
        <time>2014-09-07T08:43:29Z</time>
      </trkpt>
      <trkpt lat="43.65533" lon="3.78341">
        <ele>66.71</ele>
        <time>2014-09-07T08:43:44Z</time>
      </trkpt>
      <trkpt lat="43.65535" lon="3.78338">
        <ele>66.74</ele>
        <time>2014-09-07T08:43:53Z</time>
      </trkpt>
      <trkpt lat="43.65537" lon="3.78334">
        <ele>66.69</ele>
        <time>2014-09-07T08:43:55Z</time>
      </trkpt>
      <trkpt lat="43.65551" lon="3.78311">
        <ele>66.57</ele>
        <time>2014-09-07T08:44:03Z</time>
      </trkpt>
      <trkpt lat="43.65562" lon="3.78288">
        <ele>66.78</ele>
        <time>2014-09-07T08:44:10Z</time>
      </trkpt>
      <trkpt lat="43.65569" lon="3.78262">
        <ele>67.6</ele>
        <time>2014-09-07T08:44:17Z</time>
      </trkpt>
      <trkpt lat="43.6557" lon="3.7824">
        <ele>68.09</ele>
        <time>2014-09-07T08:44:22Z</time>
      </trkpt>
      <trkpt lat="43.6557" lon="3.78213">
        <ele>68.9</ele>
        <time>2014-09-07T08:44:29Z</time>
      </trkpt>
      <trkpt lat="43.65562" lon="3.78177">
        <ele>69.73</ele>
        <time>2014-09-07T08:44:37Z</time>
      </trkpt>
      <trkpt lat="43.65547" lon="3.78144">
        <ele>70.47</ele>
        <time>2014-09-07T08:44:46Z</time>
      </trkpt>
      <trkpt lat="43.65539" lon="3.78119">
        <ele>71.5</ele>
        <time>2014-09-07T08:44:53Z</time>
      </trkpt>
      <trkpt lat="43.65536" lon="3.78092">
        <ele>71.45</ele>
        <time>2014-09-07T08:44:58Z</time>
      </trkpt>
      <trkpt lat="43.65538" lon="3.78064">
        <ele>70.9</ele>
        <time>2014-09-07T08:45:02Z</time>
      </trkpt>
      <trkpt lat="43.65533" lon="3.78033">
        <ele>69.96</ele>
        <time>2014-09-07T08:45:06Z</time>
      </trkpt>
      <trkpt lat="43.65522" lon="3.77998">
        <ele>68.92</ele>
        <time>2014-09-07T08:45:12Z</time>
      </trkpt>
      <trkpt lat="43.65514" lon="3.77978">
        <ele>68.02</ele>
        <time>2014-09-07T08:45:18Z</time>
      </trkpt>
      <trkpt lat="43.65499" lon="3.7797">
        <ele>67.46</ele>
        <time>2014-09-07T08:45:23Z</time>
      </trkpt>
      <trkpt lat="43.6549" lon="3.77952">
        <ele>66.69</ele>
        <time>2014-09-07T08:45:27Z</time>
      </trkpt>
      <trkpt lat="43.65493" lon="3.77929">
        <ele>66.19</ele>
        <time>2014-09-07T08:45:32Z</time>
      </trkpt>
      <trkpt lat="43.65505" lon="3.77916">
        <ele>66.21</ele>
        <time>2014-09-07T08:45:37Z</time>
      </trkpt>
      <trkpt lat="43.65521" lon="3.77901">
        <ele>66.99</ele>
        <time>2014-09-07T08:45:44Z</time>
      </trkpt>
      <trkpt lat="43.65534" lon="3.77886">
        <ele>68.21</ele>
        <time>2014-09-07T08:45:51Z</time>
      </trkpt>
      <trkpt lat="43.6555" lon="3.77881">
        <ele>69</ele>
        <time>2014-09-07T08:45:57Z</time>
      </trkpt>
      <trkpt lat="43.65565" lon="3.77874">
        <ele>69.41</ele>
        <time>2014-09-07T08:46:03Z</time>
      </trkpt>
      <trkpt lat="43.65575" lon="3.77872">
        <ele>69.7</ele>
        <time>2014-09-07T08:46:07Z</time>
      </trkpt>
      <trkpt lat="43.65583" lon="3.77859">
        <ele>70.04</ele>
        <time>2014-09-07T08:46:13Z</time>
      </trkpt>
      <trkpt lat="43.65592" lon="3.7785">
        <ele>70.54</ele>
        <time>2014-09-07T08:46:19Z</time>
      </trkpt>
      <trkpt lat="43.65605" lon="3.77833">
        <ele>71.52</ele>
        <time>2014-09-07T08:46:27Z</time>
      </trkpt>
      <trkpt lat="43.65606" lon="3.77831">
        <ele>71.65</ele>
        <time>2014-09-07T08:46:28Z</time>
      </trkpt>
      <trkpt lat="43.65615" lon="3.77815">
        <ele>72.68</ele>
        <time>2014-09-07T08:46:36Z</time>
      </trkpt>
      <trkpt lat="43.65623" lon="3.77802">
        <ele>73.18</ele>
        <time>2014-09-07T08:46:42Z</time>
      </trkpt>
      <trkpt lat="43.65629" lon="3.77783">
        <ele>73.76</ele>
        <time>2014-09-07T08:46:49Z</time>
      </trkpt>
      <trkpt lat="43.65637" lon="3.77775">
        <ele>73.99</ele>
        <time>2014-09-07T08:46:55Z</time>
      </trkpt>
      <trkpt lat="43.65638" lon="3.77772">
        <ele>74.02</ele>
        <time>2014-09-07T08:46:56Z</time>
      </trkpt>
      <trkpt lat="43.65646" lon="3.77744">
        <ele>74.52</ele>
        <time>2014-09-07T08:47:06Z</time>
      </trkpt>
      <trkpt lat="43.65651" lon="3.77728">
        <ele>74.88</ele>
        <time>2014-09-07T08:47:12Z</time>
      </trkpt>
      <trkpt lat="43.65658" lon="3.77704">
        <ele>75.34</ele>
        <time>2014-09-07T08:47:21Z</time>
      </trkpt>
      <trkpt lat="43.65665" lon="3.77687">
        <ele>75.85</ele>
        <time>2014-09-07T08:47:30Z</time>
      </trkpt>
      <trkpt lat="43.65667" lon="3.77686">
        <ele>76.11</ele>
        <time>2014-09-07T08:47:39Z</time>
      </trkpt>
      <trkpt lat="43.65665" lon="3.77684">
        <ele>76.11</ele>
        <time>2014-09-07T08:47:44Z</time>
      </trkpt>
      <trkpt lat="43.65664" lon="3.77677">
        <ele>76.61</ele>
        <time>2014-09-07T08:47:51Z</time>
      </trkpt>
      <trkpt lat="43.65661" lon="3.7767">
        <ele>77.65</ele>
        <time>2014-09-07T08:48:00Z</time>
      </trkpt>
      <trkpt lat="43.6566" lon="3.77667">
        <ele>77.72</ele>
        <time>2014-09-07T08:48:07Z</time>
      </trkpt>
      <trkpt lat="43.65659" lon="3.77653">
        <ele>77.83</ele>
        <time>2014-09-07T08:48:13Z</time>
      </trkpt>
      <trkpt lat="43.65662" lon="3.77645">
        <ele>78.02</ele>
        <time>2014-09-07T08:48:16Z</time>
      </trkpt>
      <trkpt lat="43.65668" lon="3.7763">
        <ele>78.5</ele>
        <time>2014-09-07T08:48:22Z</time>
      </trkpt>
      <trkpt lat="43.65677" lon="3.77604">
        <ele>79.27</ele>
        <time>2014-09-07T08:48:31Z</time>
      </trkpt>
      <trkpt lat="43.65682" lon="3.77588">
        <ele>79.6</ele>
        <time>2014-09-07T08:48:36Z</time>
      </trkpt>
      <trkpt lat="43.65689" lon="3.77564">
        <ele>80.55</ele>
        <time>2014-09-07T08:48:43Z</time>
      </trkpt>
      <trkpt lat="43.65692" lon="3.77555">
        <ele>80.89</ele>
        <time>2014-09-07T08:48:46Z</time>
      </trkpt>
      <trkpt lat="43.65698" lon="3.77536">
        <ele>81.42</ele>
        <time>2014-09-07T08:48:52Z</time>
      </trkpt>
      <trkpt lat="43.65707" lon="3.77513">
        <ele>81.83</ele>
        <time>2014-09-07T08:48:59Z</time>
      </trkpt>
      <trkpt lat="43.65715" lon="3.77495">
        <ele>82.48</ele>
        <time>2014-09-07T08:49:05Z</time>
      </trkpt>
      <trkpt lat="43.65723" lon="3.77475">
        <ele>83.27</ele>
        <time>2014-09-07T08:49:11Z</time>
      </trkpt>
      <trkpt lat="43.65729" lon="3.77469">
        <ele>83.61</ele>
        <time>2014-09-07T08:49:14Z</time>
      </trkpt>
      <trkpt lat="43.65744" lon="3.77469">
        <ele>84.23</ele>
        <time>2014-09-07T08:49:21Z</time>
      </trkpt>
      <trkpt lat="43.65756" lon="3.77471">
        <ele>85.08</ele>
        <time>2014-09-07T08:49:26Z</time>
      </trkpt>
      <trkpt lat="43.65759" lon="3.77471">
        <ele>85.22</ele>
        <time>2014-09-07T08:49:27Z</time>
      </trkpt>
      <trkpt lat="43.65771" lon="3.7747">
        <ele>85.95</ele>
        <time>2014-09-07T08:49:33Z</time>
      </trkpt>
      <trkpt lat="43.65771" lon="3.77471">
        <ele>87.33</ele>
        <time>2014-09-07T08:49:52Z</time>
      </trkpt>
      <trkpt lat="43.65772" lon="3.7747">
        <ele>87.38</ele>
        <time>2014-09-07T08:50:06Z</time>
      </trkpt>
      <trkpt lat="43.65775" lon="3.7747">
        <ele>87.43</ele>
        <time>2014-09-07T08:50:23Z</time>
      </trkpt>
      <trkpt lat="43.65783" lon="3.77469">
        <ele>87.64</ele>
        <time>2014-09-07T08:50:35Z</time>
      </trkpt>
      <trkpt lat="43.65784" lon="3.77469">
        <ele>87.66</ele>
        <time>2014-09-07T08:50:36Z</time>
      </trkpt>
      <trkpt lat="43.65796" lon="3.77472">
        <ele>88.38</ele>
        <time>2014-09-07T08:50:44Z</time>
      </trkpt>
      <trkpt lat="43.65802" lon="3.77467">
        <ele>89.34</ele>
        <time>2014-09-07T08:50:48Z</time>
      </trkpt>
      <trkpt lat="43.65799" lon="3.77455">
        <ele>90.49</ele>
        <time>2014-09-07T08:50:54Z</time>
      </trkpt>
      <trkpt lat="43.65798" lon="3.77444">
        <ele>91.44</ele>
        <time>2014-09-07T08:51:00Z</time>
      </trkpt>
      <trkpt lat="43.65803" lon="3.77428">
        <ele>92.52</ele>
        <time>2014-09-07T08:51:08Z</time>
      </trkpt>
      <trkpt lat="43.65808" lon="3.77418">
        <ele>93.53</ele>
        <time>2014-09-07T08:51:15Z</time>
      </trkpt>
      <trkpt lat="43.65814" lon="3.77408">
        <ele>94.24</ele>
        <time>2014-09-07T08:51:21Z</time>
      </trkpt>
      <trkpt lat="43.65818" lon="3.77393">
        <ele>95.17</ele>
        <time>2014-09-07T08:51:30Z</time>
      </trkpt>
      <trkpt lat="43.65821" lon="3.7738">
        <ele>95.51</ele>
        <time>2014-09-07T08:51:36Z</time>
      </trkpt>
      <trkpt lat="43.65824" lon="3.77362">
        <ele>95.91</ele>
        <time>2014-09-07T08:51:43Z</time>
      </trkpt>
      <trkpt lat="43.65824" lon="3.77345">
        <ele>95.67</ele>
        <time>2014-09-07T08:51:49Z</time>
      </trkpt>
      <trkpt lat="43.65825" lon="3.77321">
        <ele>96.04</ele>
        <time>2014-09-07T08:51:57Z</time>
      </trkpt>
      <trkpt lat="43.6583" lon="3.77303">
        <ele>96.35</ele>
        <time>2014-09-07T08:52:02Z</time>
      </trkpt>
      <trkpt lat="43.65838" lon="3.77271">
        <ele>96.75</ele>
        <time>2014-09-07T08:52:10Z</time>
      </trkpt>
      <trkpt lat="43.6584" lon="3.77254">
        <ele>96.86</ele>
        <time>2014-09-07T08:52:15Z</time>
      </trkpt>
      <trkpt lat="43.65829" lon="3.77238">
        <ele>97.63</ele>
        <time>2014-09-07T08:52:21Z</time>
      </trkpt>
      <trkpt lat="43.65824" lon="3.77229">
        <ele>98.04</ele>
        <time>2014-09-07T08:52:24Z</time>
      </trkpt>
      <trkpt lat="43.65813" lon="3.77197">
        <ele>99.09</ele>
        <time>2014-09-07T08:52:33Z</time>
      </trkpt>
      <trkpt lat="43.65815" lon="3.77171">
        <ele>100.07</ele>
        <time>2014-09-07T08:52:40Z</time>
      </trkpt>
      <trkpt lat="43.65818" lon="3.77151">
        <ele>100.7</ele>
        <time>2014-09-07T08:52:46Z</time>
      </trkpt>
      <trkpt lat="43.65814" lon="3.77117">
        <ele>101.53</ele>
        <time>2014-09-07T08:52:55Z</time>
      </trkpt>
      <trkpt lat="43.6581" lon="3.7708">
        <ele>101.41</ele>
        <time>2014-09-07T08:53:03Z</time>
      </trkpt>
      <trkpt lat="43.65806" lon="3.77033">
        <ele>101.2</ele>
        <time>2014-09-07T08:53:13Z</time>
      </trkpt>
      <trkpt lat="43.65805" lon="3.77005">
        <ele>100.83</ele>
        <time>2014-09-07T08:53:19Z</time>
      </trkpt>
      <trkpt lat="43.65793" lon="3.76972">
        <ele>100.42</ele>
        <time>2014-09-07T08:53:25Z</time>
      </trkpt>
      <trkpt lat="43.65779" lon="3.76957">
        <ele>99.21</ele>
        <time>2014-09-07T08:53:29Z</time>
      </trkpt>
      <trkpt lat="43.65766" lon="3.76948">
        <ele>98.46</ele>
        <time>2014-09-07T08:53:32Z</time>
      </trkpt>
      <trkpt lat="43.65749" lon="3.76933">
        <ele>97.16</ele>
        <time>2014-09-07T08:53:36Z</time>
      </trkpt>
      <trkpt lat="43.6572" lon="3.7692">
        <ele>95.79</ele>
        <time>2014-09-07T08:53:42Z</time>
      </trkpt>
      <trkpt lat="43.65702" lon="3.76913">
        <ele>95.18</ele>
        <time>2014-09-07T08:53:46Z</time>
      </trkpt>
      <trkpt lat="43.65679" lon="3.76917">
        <ele>93.73</ele>
        <time>2014-09-07T08:53:53Z</time>
      </trkpt>
      <trkpt lat="43.65654" lon="3.76918">
        <ele>91.88</ele>
        <time>2014-09-07T08:53:59Z</time>
      </trkpt>
      <trkpt lat="43.65629" lon="3.76918">
        <ele>89.46</ele>
        <time>2014-09-07T08:54:07Z</time>
      </trkpt>
      <trkpt lat="43.65609" lon="3.76924">
        <ele>87.76</ele>
        <time>2014-09-07T08:54:14Z</time>
      </trkpt>
      <trkpt lat="43.65603" lon="3.76932">
        <ele>87.24</ele>
        <time>2014-09-07T08:54:19Z</time>
      </trkpt>
      <trkpt lat="43.65598" lon="3.76933">
        <ele>87.29</ele>
        <time>2014-09-07T08:54:25Z</time>
      </trkpt>
      <trkpt lat="43.65594" lon="3.76934">
        <ele>87.89</ele>
        <time>2014-09-07T08:54:35Z</time>
      </trkpt>
      <trkpt lat="43.6558" lon="3.76936">
        <ele>87.87</ele>
        <time>2014-09-07T08:54:42Z</time>
      </trkpt>
      <trkpt lat="43.65561" lon="3.76947">
        <ele>88.02</ele>
        <time>2014-09-07T08:54:49Z</time>
      </trkpt>
      <trkpt lat="43.65546" lon="3.76947">
        <ele>88.34</ele>
        <time>2014-09-07T08:54:55Z</time>
      </trkpt>
      <trkpt lat="43.65521" lon="3.76931">
        <ele>88.65</ele>
        <time>2014-09-07T08:55:05Z</time>
      </trkpt>
      <trkpt lat="43.65504" lon="3.76923">
        <ele>89.05</ele>
        <time>2014-09-07T08:55:11Z</time>
      </trkpt>
      <trkpt lat="43.65489" lon="3.76919">
        <ele>89.89</ele>
        <time>2014-09-07T08:55:17Z</time>
      </trkpt>
      <trkpt lat="43.65475" lon="3.76914">
        <ele>90.62</ele>
        <time>2014-09-07T08:55:24Z</time>
      </trkpt>
      <trkpt lat="43.65468" lon="3.76897">
        <ele>90.91</ele>
        <time>2014-09-07T08:55:31Z</time>
      </trkpt>
      <trkpt lat="43.65471" lon="3.76873">
        <ele>91.12</ele>
        <time>2014-09-07T08:55:38Z</time>
      </trkpt>
      <trkpt lat="43.65478" lon="3.76851">
        <ele>91.41</ele>
        <time>2014-09-07T08:55:45Z</time>
      </trkpt>
      <trkpt lat="43.65485" lon="3.7683">
        <ele>91.61</ele>
        <time>2014-09-07T08:55:51Z</time>
      </trkpt>
      <trkpt lat="43.65494" lon="3.76799">
        <ele>91.64</ele>
        <time>2014-09-07T08:55:59Z</time>
      </trkpt>
      <trkpt lat="43.65497" lon="3.76774">
        <ele>91.98</ele>
        <time>2014-09-07T08:56:06Z</time>
      </trkpt>
      <trkpt lat="43.65501" lon="3.76749">
        <ele>92.91</ele>
        <time>2014-09-07T08:56:15Z</time>
      </trkpt>
      <trkpt lat="43.65502" lon="3.76747">
        <ele>93.03</ele>
        <time>2014-09-07T08:56:16Z</time>
      </trkpt>
      <trkpt lat="43.65506" lon="3.76727">
        <ele>94.36</ele>
        <time>2014-09-07T08:56:24Z</time>
      </trkpt>
      <trkpt lat="43.65506" lon="3.76721">
        <ele>94.86</ele>
        <time>2014-09-07T08:56:27Z</time>
      </trkpt>
      <trkpt lat="43.65504" lon="3.76703">
        <ele>96.19</ele>
        <time>2014-09-07T08:56:35Z</time>
      </trkpt>
      <trkpt lat="43.65501" lon="3.76695">
        <ele>97.07</ele>
        <time>2014-09-07T08:56:39Z</time>
      </trkpt>
      <trkpt lat="43.65498" lon="3.76691">
        <ele>97.72</ele>
        <time>2014-09-07T08:56:42Z</time>
      </trkpt>
      <trkpt lat="43.65493" lon="3.76681">
        <ele>98.54</ele>
        <time>2014-09-07T08:56:48Z</time>
      </trkpt>
      <trkpt lat="43.65488" lon="3.76665">
        <ele>99.49</ele>
        <time>2014-09-07T08:56:56Z</time>
      </trkpt>
      <trkpt lat="43.65486" lon="3.76661">
        <ele>99.9</ele>
        <time>2014-09-07T08:56:58Z</time>
      </trkpt>
      <trkpt lat="43.65482" lon="3.76647">
        <ele>101.23</ele>
        <time>2014-09-07T08:57:05Z</time>
      </trkpt>
      <trkpt lat="43.65472" lon="3.76627">
        <ele>102.98</ele>
        <time>2014-09-07T08:57:15Z</time>
      </trkpt>
      <trkpt lat="43.65462" lon="3.76618">
        <ele>104.65</ele>
        <time>2014-09-07T08:57:22Z</time>
      </trkpt>
      <trkpt lat="43.65454" lon="3.76611">
        <ele>105.82</ele>
        <time>2014-09-07T08:57:28Z</time>
      </trkpt>
      <trkpt lat="43.65452" lon="3.76607">
        <ele>106.2</ele>
        <time>2014-09-07T08:57:30Z</time>
      </trkpt>
      <trkpt lat="43.65437" lon="3.76595">
        <ele>108.61</ele>
        <time>2014-09-07T08:57:41Z</time>
      </trkpt>
      <trkpt lat="43.65425" lon="3.76588">
        <ele>110.43</ele>
        <time>2014-09-07T08:57:48Z</time>
      </trkpt>
      <trkpt lat="43.65414" lon="3.7658">
        <ele>111.94</ele>
        <time>2014-09-07T08:57:54Z</time>
      </trkpt>
      <trkpt lat="43.65409" lon="3.76576">
        <ele>112.46</ele>
        <time>2014-09-07T08:57:57Z</time>
      </trkpt>
      <trkpt lat="43.65397" lon="3.76565">
        <ele>114.01</ele>
        <time>2014-09-07T08:58:06Z</time>
      </trkpt>
      <trkpt lat="43.65386" lon="3.76555">
        <ele>115</ele>
        <time>2014-09-07T08:58:14Z</time>
      </trkpt>
      <trkpt lat="43.65371" lon="3.76552">
        <ele>115.97</ele>
        <time>2014-09-07T08:58:22Z</time>
      </trkpt>
      <trkpt lat="43.65351" lon="3.76552">
        <ele>117.21</ele>
        <time>2014-09-07T08:58:33Z</time>
      </trkpt>
      <trkpt lat="43.65325" lon="3.7655">
        <ele>119.55</ele>
        <time>2014-09-07T08:58:47Z</time>
      </trkpt>
      <trkpt lat="43.65311" lon="3.76551">
        <ele>120.83</ele>
        <time>2014-09-07T08:58:55Z</time>
      </trkpt>
      <trkpt lat="43.65291" lon="3.76548">
        <ele>122.66</ele>
        <time>2014-09-07T08:59:07Z</time>
      </trkpt>
      <trkpt lat="43.65276" lon="3.76548">
        <ele>124.45</ele>
        <time>2014-09-07T08:59:17Z</time>
      </trkpt>
      <trkpt lat="43.65263" lon="3.76547">
        <ele>125.76</ele>
        <time>2014-09-07T08:59:25Z</time>
      </trkpt>
      <trkpt lat="43.65244" lon="3.76554">
        <ele>127.48</ele>
        <time>2014-09-07T08:59:36Z</time>
      </trkpt>
      <trkpt lat="43.65232" lon="3.7656">
        <ele>129.17</ele>
        <time>2014-09-07T08:59:44Z</time>
      </trkpt>
      <trkpt lat="43.65221" lon="3.76567">
        <ele>130.98</ele>
        <time>2014-09-07T08:59:52Z</time>
      </trkpt>
      <trkpt lat="43.65205" lon="3.76575">
        <ele>132.63</ele>
        <time>2014-09-07T09:00:03Z</time>
      </trkpt>
      <trkpt lat="43.65193" lon="3.76582">
        <ele>133.39</ele>
        <time>2014-09-07T09:00:11Z</time>
      </trkpt>
      <trkpt lat="43.65179" lon="3.76593">
        <ele>134.18</ele>
        <time>2014-09-07T09:00:21Z</time>
      </trkpt>
      <trkpt lat="43.65169" lon="3.76601">
        <ele>134.86</ele>
        <time>2014-09-07T09:00:29Z</time>
      </trkpt>
      <trkpt lat="43.65155" lon="3.76613">
        <ele>135.63</ele>
        <time>2014-09-07T09:00:39Z</time>
      </trkpt>
      <trkpt lat="43.65143" lon="3.76624">
        <ele>136.36</ele>
        <time>2014-09-07T09:00:48Z</time>
      </trkpt>
      <trkpt lat="43.65134" lon="3.76633">
        <ele>137.11</ele>
        <time>2014-09-07T09:00:55Z</time>
      </trkpt>
      <trkpt lat="43.65123" lon="3.76643">
        <ele>137.81</ele>
        <time>2014-09-07T09:01:03Z</time>
      </trkpt>
      <trkpt lat="43.65113" lon="3.76654">
        <ele>138.51</ele>
        <time>2014-09-07T09:01:11Z</time>
      </trkpt>
      <trkpt lat="43.65104" lon="3.76665">
        <ele>139.19</ele>
        <time>2014-09-07T09:01:19Z</time>
      </trkpt>
      <trkpt lat="43.65092" lon="3.76678">
        <ele>140.1</ele>
        <time>2014-09-07T09:01:29Z</time>
      </trkpt>
      <trkpt lat="43.65086" lon="3.76686">
        <ele>140.61</ele>
        <time>2014-09-07T09:01:36Z</time>
      </trkpt>
      <trkpt lat="43.65086" lon="3.76686">
        <ele>140.72</ele>
        <time>2014-09-07T09:01:51Z</time>
      </trkpt>
      <trkpt lat="43.65086" lon="3.76686">
        <ele>140.55</ele>
        <time>2014-09-07T09:02:06Z</time>
      </trkpt>
      <trkpt lat="43.65086" lon="3.76686">
        <ele>140.67</ele>
        <time>2014-09-07T09:02:26Z</time>
      </trkpt>
      <trkpt lat="43.65087" lon="3.76687">
        <ele>140.49</ele>
        <time>2014-09-07T09:02:47Z</time>
      </trkpt>
      <trkpt lat="43.65087" lon="3.76687">
        <ele>140.57</ele>
        <time>2014-09-07T09:03:12Z</time>
      </trkpt>
      <trkpt lat="43.65087" lon="3.76687">
        <ele>140.66</ele>
        <time>2014-09-07T09:03:27Z</time>
      </trkpt>
      <trkpt lat="43.65088" lon="3.76685">
        <ele>140.66</ele>
        <time>2014-09-07T09:03:46Z</time>
      </trkpt>
      <trkpt lat="43.65086" lon="3.76688">
        <ele>140.62</ele>
        <time>2014-09-07T09:03:49Z</time>
      </trkpt>
      <trkpt lat="43.65067" lon="3.76711">
        <ele>140.24</ele>
        <time>2014-09-07T09:04:01Z</time>
      </trkpt>
      <trkpt lat="43.65048" lon="3.76737">
        <ele>139.75</ele>
        <time>2014-09-07T09:04:11Z</time>
      </trkpt>
      <trkpt lat="43.65038" lon="3.76762">
        <ele>139.94</ele>
        <time>2014-09-07T09:04:19Z</time>
      </trkpt>
      <trkpt lat="43.65026" lon="3.76789">
        <ele>140.21</ele>
        <time>2014-09-07T09:04:30Z</time>
      </trkpt>
      <trkpt lat="43.65017" lon="3.76807">
        <ele>140.55</ele>
        <time>2014-09-07T09:04:37Z</time>
      </trkpt>
      <trkpt lat="43.65009" lon="3.76825">
        <ele>140.99</ele>
        <time>2014-09-07T09:04:45Z</time>
      </trkpt>
      <trkpt lat="43.65006" lon="3.7683">
        <ele>141.08</ele>
        <time>2014-09-07T09:04:47Z</time>
      </trkpt>
      <trkpt lat="43.64997" lon="3.76833">
        <ele>141.26</ele>
        <time>2014-09-07T09:04:51Z</time>
      </trkpt>
      <trkpt lat="43.64977" lon="3.76826">
        <ele>142.62</ele>
        <time>2014-09-07T09:04:59Z</time>
      </trkpt>
      <trkpt lat="43.6496" lon="3.76819">
        <ele>143.96</ele>
        <time>2014-09-07T09:05:08Z</time>
      </trkpt>
      <trkpt lat="43.64939" lon="3.76811">
        <ele>144.22</ele>
        <time>2014-09-07T09:05:16Z</time>
      </trkpt>
      <trkpt lat="43.6491" lon="3.76799">
        <ele>143.3</ele>
        <time>2014-09-07T09:05:26Z</time>
      </trkpt>
      <trkpt lat="43.64889" lon="3.76791">
        <ele>142.84</ele>
        <time>2014-09-07T09:05:32Z</time>
      </trkpt>
      <trkpt lat="43.64877" lon="3.76786">
        <ele>142.38</ele>
        <time>2014-09-07T09:05:35Z</time>
      </trkpt>
      <trkpt lat="43.6486" lon="3.76774">
        <ele>141.23</ele>
        <time>2014-09-07T09:05:39Z</time>
      </trkpt>
      <trkpt lat="43.64837" lon="3.76756">
        <ele>140.3</ele>
        <time>2014-09-07T09:05:46Z</time>
      </trkpt>
      <trkpt lat="43.64834" lon="3.76753">
        <ele>140.34</ele>
        <time>2014-09-07T09:05:47Z</time>
      </trkpt>
      <trkpt lat="43.64827" lon="3.76721">
        <ele>140.92</ele>
        <time>2014-09-07T09:05:55Z</time>
      </trkpt>
      <trkpt lat="43.6483" lon="3.76683">
        <ele>142.32</ele>
        <time>2014-09-07T09:06:04Z</time>
      </trkpt>
      <trkpt lat="43.64831" lon="3.76641">
        <ele>143.14</ele>
        <time>2014-09-07T09:06:14Z</time>
      </trkpt>
      <trkpt lat="43.64838" lon="3.76604">
        <ele>143.72</ele>
        <time>2014-09-07T09:06:22Z</time>
      </trkpt>
      <trkpt lat="43.64844" lon="3.76571">
        <ele>143.93</ele>
        <time>2014-09-07T09:06:29Z</time>
      </trkpt>
      <trkpt lat="43.64851" lon="3.76542">
        <ele>144.21</ele>
        <time>2014-09-07T09:06:35Z</time>
      </trkpt>
      <trkpt lat="43.64857" lon="3.76505">
        <ele>144.12</ele>
        <time>2014-09-07T09:06:43Z</time>
      </trkpt>
      <trkpt lat="43.64862" lon="3.76473">
        <ele>144.38</ele>
        <time>2014-09-07T09:06:50Z</time>
      </trkpt>
      <trkpt lat="43.64862" lon="3.7643">
        <ele>144.52</ele>
        <time>2014-09-07T09:06:59Z</time>
      </trkpt>
      <trkpt lat="43.64863" lon="3.76409">
        <ele>144.36</ele>
        <time>2014-09-07T09:07:03Z</time>
      </trkpt>
      <trkpt lat="43.64862" lon="3.76357">
        <ele>143.5</ele>
        <time>2014-09-07T09:07:11Z</time>
      </trkpt>
      <trkpt lat="43.64853" lon="3.76324">
        <ele>142.49</ele>
        <time>2014-09-07T09:07:16Z</time>
      </trkpt>
      <trkpt lat="43.64838" lon="3.76273">
        <ele>140.79</ele>
        <time>2014-09-07T09:07:24Z</time>
      </trkpt>
      <trkpt lat="43.64831" lon="3.76211">
        <ele>138.94</ele>
        <time>2014-09-07T09:07:33Z</time>
      </trkpt>
      <trkpt lat="43.64824" lon="3.76179">
        <ele>138.27</ele>
        <time>2014-09-07T09:07:38Z</time>
      </trkpt>
      <trkpt lat="43.64816" lon="3.76138">
        <ele>137.8</ele>
        <time>2014-09-07T09:07:46Z</time>
      </trkpt>
      <trkpt lat="43.64812" lon="3.76108">
        <ele>137.56</ele>
        <time>2014-09-07T09:07:52Z</time>
      </trkpt>
      <trkpt lat="43.64803" lon="3.76073">
        <ele>137.7</ele>
        <time>2014-09-07T09:08:01Z</time>
      </trkpt>
      <trkpt lat="43.64793" lon="3.76042">
        <ele>137.87</ele>
        <time>2014-09-07T09:08:09Z</time>
      </trkpt>
      <trkpt lat="43.64783" lon="3.7601">
        <ele>137.56</ele>
        <time>2014-09-07T09:08:16Z</time>
      </trkpt>
      <trkpt lat="43.64769" lon="3.75982">
        <ele>137.44</ele>
        <time>2014-09-07T09:08:23Z</time>
      </trkpt>
      <trkpt lat="43.6475" lon="3.75949">
        <ele>137.45</ele>
        <time>2014-09-07T09:08:32Z</time>
      </trkpt>
      <trkpt lat="43.64722" lon="3.75921">
        <ele>137.73</ele>
        <time>2014-09-07T09:08:42Z</time>
      </trkpt>
      <trkpt lat="43.64697" lon="3.75896">
        <ele>138.17</ele>
        <time>2014-09-07T09:08:50Z</time>
      </trkpt>
      <trkpt lat="43.64684" lon="3.75886">
        <ele>138.57</ele>
        <time>2014-09-07T09:08:54Z</time>
      </trkpt>
      <trkpt lat="43.64646" lon="3.75866">
        <ele>138.46</ele>
        <time>2014-09-07T09:09:04Z</time>
      </trkpt>
      <trkpt lat="43.6462" lon="3.75842">
        <ele>138.68</ele>
        <time>2014-09-07T09:09:12Z</time>
      </trkpt>
      <trkpt lat="43.6461" lon="3.75825">
        <ele>138.58</ele>
        <time>2014-09-07T09:09:16Z</time>
      </trkpt>
      <trkpt lat="43.64587" lon="3.7577">
        <ele>138.9</ele>
        <time>2014-09-07T09:09:26Z</time>
      </trkpt>
      <trkpt lat="43.64569" lon="3.75724">
        <ele>138.43</ele>
        <time>2014-09-07T09:09:34Z</time>
      </trkpt>
      <trkpt lat="43.64561" lon="3.75707">
        <ele>138.04</ele>
        <time>2014-09-07T09:09:38Z</time>
      </trkpt>
      <trkpt lat="43.64552" lon="3.75689">
        <ele>137.67</ele>
        <time>2014-09-07T09:09:42Z</time>
      </trkpt>
      <trkpt lat="43.6453" lon="3.75665">
        <ele>136.62</ele>
        <time>2014-09-07T09:09:49Z</time>
      </trkpt>
      <trkpt lat="43.64523" lon="3.75657">
        <ele>136.45</ele>
        <time>2014-09-07T09:09:54Z</time>
      </trkpt>
      <trkpt lat="43.64524" lon="3.75658">
        <ele>136.43</ele>
        <time>2014-09-07T09:10:07Z</time>
      </trkpt>
      <trkpt lat="43.64523" lon="3.7565">
        <ele>136.48</ele>
        <time>2014-09-07T09:10:13Z</time>
      </trkpt>
      <trkpt lat="43.6452" lon="3.75618">
        <ele>136.63</ele>
        <time>2014-09-07T09:10:21Z</time>
      </trkpt>
      <trkpt lat="43.64515" lon="3.75564">
        <ele>137.7</ele>
        <time>2014-09-07T09:10:33Z</time>
      </trkpt>
      <trkpt lat="43.64512" lon="3.75519">
        <ele>139.12</ele>
        <time>2014-09-07T09:10:44Z</time>
      </trkpt>
      <trkpt lat="43.64512" lon="3.75518">
        <ele>139.68</ele>
        <time>2014-09-07T09:10:49Z</time>
      </trkpt>
      <trkpt lat="43.64512" lon="3.75519">
        <ele>140.35</ele>
        <time>2014-09-07T09:11:15Z</time>
      </trkpt>
      <trkpt lat="43.64512" lon="3.75519">
        <ele>140.55</ele>
        <time>2014-09-07T09:11:35Z</time>
      </trkpt>
      <trkpt lat="43.6451" lon="3.7552">
        <ele>140.67</ele>
        <time>2014-09-07T09:12:02Z</time>
      </trkpt>
      <trkpt lat="43.64511" lon="3.7552">
        <ele>140.95</ele>
        <time>2014-09-07T09:12:14Z</time>
      </trkpt>
      <trkpt lat="43.64512" lon="3.75519">
        <ele>140.97</ele>
        <time>2014-09-07T09:12:38Z</time>
      </trkpt>
      <trkpt lat="43.64511" lon="3.7552">
        <ele>140.82</ele>
        <time>2014-09-07T09:12:56Z</time>
      </trkpt>
      <trkpt lat="43.64511" lon="3.75519">
        <ele>141.19</ele>
        <time>2014-09-07T09:13:14Z</time>
      </trkpt>
      <trkpt lat="43.64511" lon="3.75519">
        <ele>141.31</ele>
        <time>2014-09-07T09:13:32Z</time>
      </trkpt>
      <trkpt lat="43.64511" lon="3.75521">
        <ele>141.24</ele>
        <time>2014-09-07T09:13:49Z</time>
      </trkpt>
      <trkpt lat="43.64511" lon="3.75519">
        <ele>141.49</ele>
        <time>2014-09-07T09:14:04Z</time>
      </trkpt>
      <trkpt lat="43.64513" lon="3.75517">
        <ele>141.6</ele>
        <time>2014-09-07T09:14:19Z</time>
      </trkpt>
      <trkpt lat="43.64512" lon="3.75518">
        <ele>141.56</ele>
        <time>2014-09-07T09:14:35Z</time>
      </trkpt>
      <trkpt lat="43.64512" lon="3.75518">
        <ele>141.22</ele>
        <time>2014-09-07T09:14:49Z</time>
      </trkpt>
      <trkpt lat="43.64512" lon="3.75517">
        <ele>141.33</ele>
        <time>2014-09-07T09:15:06Z</time>
      </trkpt>
      <trkpt lat="43.64513" lon="3.75514">
        <ele>141.32</ele>
        <time>2014-09-07T09:15:20Z</time>
      </trkpt>
      <trkpt lat="43.64512" lon="3.75499">
        <ele>141.28</ele>
        <time>2014-09-07T09:15:25Z</time>
      </trkpt>
      <trkpt lat="43.6451" lon="3.75463">
        <ele>142.13</ele>
        <time>2014-09-07T09:15:35Z</time>
      </trkpt>
      <trkpt lat="43.64507" lon="3.75416">
        <ele>143.46</ele>
        <time>2014-09-07T09:15:47Z</time>
      </trkpt>
      <trkpt lat="43.64503" lon="3.75378">
        <ele>144.44</ele>
        <time>2014-09-07T09:15:57Z</time>
      </trkpt>
      <trkpt lat="43.64495" lon="3.75367">
        <ele>144.73</ele>
        <time>2014-09-07T09:16:03Z</time>
      </trkpt>
      <trkpt lat="43.64483" lon="3.75351">
        <ele>144.68</ele>
        <time>2014-09-07T09:16:09Z</time>
      </trkpt>
      <trkpt lat="43.64478" lon="3.7534">
        <ele>144.62</ele>
        <time>2014-09-07T09:16:14Z</time>
      </trkpt>
      <trkpt lat="43.64478" lon="3.75343">
        <ele>145.04</ele>
        <time>2014-09-07T09:16:26Z</time>
      </trkpt>
      <trkpt lat="43.64472" lon="3.75349">
        <ele>144.92</ele>
        <time>2014-09-07T09:16:30Z</time>
      </trkpt>
      <trkpt lat="43.64443" lon="3.75364">
        <ele>143.74</ele>
        <time>2014-09-07T09:16:39Z</time>
      </trkpt>
      <trkpt lat="43.64416" lon="3.75371">
        <ele>143.14</ele>
        <time>2014-09-07T09:16:46Z</time>
      </trkpt>
      <trkpt lat="43.64395" lon="3.75382">
        <ele>142.23</ele>
        <time>2014-09-07T09:16:52Z</time>
      </trkpt>
      <trkpt lat="43.64393" lon="3.75384">
        <ele>141.88</ele>
        <time>2014-09-07T09:16:53Z</time>
      </trkpt>
      <trkpt lat="43.64385" lon="3.7538">
        <ele>141.33</ele>
        <time>2014-09-07T09:16:57Z</time>
      </trkpt>
      <trkpt lat="43.64377" lon="3.75332">
        <ele>140.74</ele>
        <time>2014-09-07T09:17:07Z</time>
      </trkpt>
      <trkpt lat="43.64369" lon="3.75287">
        <ele>140.73</ele>
        <time>2014-09-07T09:17:15Z</time>
      </trkpt>
      <trkpt lat="43.64364" lon="3.75252">
        <ele>140.82</ele>
        <time>2014-09-07T09:17:21Z</time>
      </trkpt>
      <trkpt lat="43.64351" lon="3.75228">
        <ele>141.02</ele>
        <time>2014-09-07T09:17:26Z</time>
      </trkpt>
      <trkpt lat="43.64344" lon="3.75218">
        <ele>141.05</ele>
        <time>2014-09-07T09:17:28Z</time>
      </trkpt>
      <trkpt lat="43.64337" lon="3.75207">
        <ele>140.93</ele>
        <time>2014-09-07T09:17:30Z</time>
      </trkpt>
      <trkpt lat="43.64319" lon="3.75162">
        <ele>139.9</ele>
        <time>2014-09-07T09:17:37Z</time>
      </trkpt>
      <trkpt lat="43.64304" lon="3.75113">
        <ele>139.46</ele>
        <time>2014-09-07T09:17:45Z</time>
      </trkpt>
      <trkpt lat="43.64294" lon="3.75092">
        <ele>140.24</ele>
        <time>2014-09-07T09:17:51Z</time>
      </trkpt>
      <trkpt lat="43.64273" lon="3.75089">
        <ele>141.06</ele>
        <time>2014-09-07T09:17:57Z</time>
      </trkpt>
      <trkpt lat="43.64238" lon="3.75083">
        <ele>141.45</ele>
        <time>2014-09-07T09:18:06Z</time>
      </trkpt>
      <trkpt lat="43.64212" lon="3.7507">
        <ele>141.96</ele>
        <time>2014-09-07T09:18:14Z</time>
      </trkpt>
      <trkpt lat="43.64192" lon="3.75049">
        <ele>142.6</ele>
        <time>2014-09-07T09:18:21Z</time>
      </trkpt>
      <trkpt lat="43.64168" lon="3.7501">
        <ele>142.55</ele>
        <time>2014-09-07T09:18:30Z</time>
      </trkpt>
      <trkpt lat="43.64147" lon="3.74996">
        <ele>142.4</ele>
        <time>2014-09-07T09:18:35Z</time>
      </trkpt>
      <trkpt lat="43.64142" lon="3.74994">
        <ele>142.3</ele>
        <time>2014-09-07T09:18:36Z</time>
      </trkpt>
      <trkpt lat="43.6412" lon="3.74979">
        <ele>141.1</ele>
        <time>2014-09-07T09:18:41Z</time>
      </trkpt>
      <trkpt lat="43.64093" lon="3.74963">
        <ele>141.15</ele>
        <time>2014-09-07T09:18:49Z</time>
      </trkpt>
      <trkpt lat="43.64073" lon="3.74951">
        <ele>142.73</ele>
        <time>2014-09-07T09:18:57Z</time>
      </trkpt>
      <trkpt lat="43.64049" lon="3.74946">
        <ele>144.54</ele>
        <time>2014-09-07T09:19:06Z</time>
      </trkpt>
      <trkpt lat="43.64037" lon="3.74947">
        <ele>145.55</ele>
        <time>2014-09-07T09:19:13Z</time>
      </trkpt>
      <trkpt lat="43.64023" lon="3.74953">
        <ele>146.81</ele>
        <time>2014-09-07T09:19:22Z</time>
      </trkpt>
      <trkpt lat="43.64018" lon="3.74954">
        <ele>147.23</ele>
        <time>2014-09-07T09:19:25Z</time>
      </trkpt>
      <trkpt lat="43.64011" lon="3.74946">
        <ele>147.75</ele>
        <time>2014-09-07T09:19:30Z</time>
      </trkpt>
      <trkpt lat="43.63999" lon="3.74927">
        <ele>148.29</ele>
        <time>2014-09-07T09:19:38Z</time>
      </trkpt>
      <trkpt lat="43.63984" lon="3.74912">
        <ele>148.82</ele>
        <time>2014-09-07T09:19:46Z</time>
      </trkpt>
      <trkpt lat="43.63971" lon="3.7489">
        <ele>149.75</ele>
        <time>2014-09-07T09:19:55Z</time>
      </trkpt>
      <trkpt lat="43.63972" lon="3.74876">
        <ele>150.27</ele>
        <time>2014-09-07T09:19:59Z</time>
      </trkpt>
      <trkpt lat="43.63987" lon="3.74842">
        <ele>149.86</ele>
        <time>2014-09-07T09:20:07Z</time>
      </trkpt>
      <trkpt lat="43.63991" lon="3.7483">
        <ele>149.58</ele>
        <time>2014-09-07T09:20:09Z</time>
      </trkpt>
      <trkpt lat="43.64005" lon="3.74771">
        <ele>147.71</ele>
        <time>2014-09-07T09:20:17Z</time>
      </trkpt>
      <trkpt lat="43.64008" lon="3.74758">
        <ele>147.26</ele>
        <time>2014-09-07T09:20:19Z</time>
      </trkpt>
      <trkpt lat="43.64016" lon="3.74727">
        <ele>146.27</ele>
        <time>2014-09-07T09:20:26Z</time>
      </trkpt>
      <trkpt lat="43.64023" lon="3.74707">
        <ele>146.12</ele>
        <time>2014-09-07T09:20:32Z</time>
      </trkpt>
      <trkpt lat="43.64032" lon="3.74683">
        <ele>146.42</ele>
        <time>2014-09-07T09:20:39Z</time>
      </trkpt>
      <trkpt lat="43.64039" lon="3.74665">
        <ele>146.92</ele>
        <time>2014-09-07T09:20:45Z</time>
      </trkpt>
      <trkpt lat="43.64044" lon="3.74646">
        <ele>147.24</ele>
        <time>2014-09-07T09:20:51Z</time>
      </trkpt>
      <trkpt lat="43.6405" lon="3.74626">
        <ele>147.88</ele>
        <time>2014-09-07T09:20:57Z</time>
      </trkpt>
      <trkpt lat="43.64059" lon="3.746">
        <ele>148.41</ele>
        <time>2014-09-07T09:21:05Z</time>
      </trkpt>
      <trkpt lat="43.64069" lon="3.74576">
        <ele>148.66</ele>
        <time>2014-09-07T09:21:12Z</time>
      </trkpt>
      <trkpt lat="43.64083" lon="3.74538">
        <ele>148.48</ele>
        <time>2014-09-07T09:21:21Z</time>
      </trkpt>
      <trkpt lat="43.64096" lon="3.74498">
        <ele>147.81</ele>
        <time>2014-09-07T09:21:28Z</time>
      </trkpt>
      <trkpt lat="43.64099" lon="3.74485">
        <ele>147.53</ele>
        <time>2014-09-07T09:21:30Z</time>
      </trkpt>
      <trkpt lat="43.64112" lon="3.74443">
        <ele>146.94</ele>
        <time>2014-09-07T09:21:38Z</time>
      </trkpt>
      <trkpt lat="43.64125" lon="3.74404">
        <ele>147.13</ele>
        <time>2014-09-07T09:21:47Z</time>
      </trkpt>
      <trkpt lat="43.64134" lon="3.74372">
        <ele>147.37</ele>
        <time>2014-09-07T09:21:54Z</time>
      </trkpt>
      <trkpt lat="43.64134" lon="3.74364">
        <ele>147.61</ele>
        <time>2014-09-07T09:21:57Z</time>
      </trkpt>
      <trkpt lat="43.64133" lon="3.74361">
        <ele>147.83</ele>
        <time>2014-09-07T09:21:59Z</time>
      </trkpt>
      <trkpt lat="43.64129" lon="3.74365">
        <ele>148.22</ele>
        <time>2014-09-07T09:22:04Z</time>
      </trkpt>
      <trkpt lat="43.64132" lon="3.74371">
        <ele>148.24</ele>
        <time>2014-09-07T09:22:07Z</time>
      </trkpt>
      <trkpt lat="43.64136" lon="3.74374">
        <ele>148.04</ele>
        <time>2014-09-07T09:22:14Z</time>
      </trkpt>
      <trkpt lat="43.64138" lon="3.74373">
        <ele>148.05</ele>
        <time>2014-09-07T09:22:37Z</time>
      </trkpt>
      <trkpt lat="43.64138" lon="3.74373">
        <ele>148.15</ele>
        <time>2014-09-07T09:22:47Z</time>
      </trkpt>
      <trkpt lat="43.64139" lon="3.74373">
        <ele>148.17</ele>
        <time>2014-09-07T09:23:06Z</time>
      </trkpt>
      <trkpt lat="43.64139" lon="3.74373">
        <ele>147.33</ele>
        <time>2014-09-07T09:23:23Z</time>
      </trkpt>
      <trkpt lat="43.6414" lon="3.74372">
        <ele>147.77</ele>
        <time>2014-09-07T09:23:55Z</time>
      </trkpt>
      <trkpt lat="43.6414" lon="3.74371">
        <ele>147.65</ele>
        <time>2014-09-07T09:24:12Z</time>
      </trkpt>
      <trkpt lat="43.64138" lon="3.74371">
        <ele>147.97</ele>
        <time>2014-09-07T09:24:35Z</time>
      </trkpt>
      <trkpt lat="43.64137" lon="3.7437">
        <ele>148.44</ele>
        <time>2014-09-07T09:24:43Z</time>
      </trkpt>
      <trkpt lat="43.64137" lon="3.74367">
        <ele>148.45</ele>
        <time>2014-09-07T09:24:56Z</time>
      </trkpt>
      <trkpt lat="43.64136" lon="3.74363">
        <ele>148.45</ele>
        <time>2014-09-07T09:24:58Z</time>
      </trkpt>
      <trkpt lat="43.64137" lon="3.74342">
        <ele>148.76</ele>
        <time>2014-09-07T09:25:06Z</time>
      </trkpt>
      <trkpt lat="43.64146" lon="3.74337">
        <ele>149.06</ele>
        <time>2014-09-07T09:25:11Z</time>
      </trkpt>
      <trkpt lat="43.64148" lon="3.74338">
        <ele>149.11</ele>
        <time>2014-09-07T09:25:12Z</time>
      </trkpt>
      <trkpt lat="43.64161" lon="3.74357">
        <ele>148.83</ele>
        <time>2014-09-07T09:25:20Z</time>
      </trkpt>
      <trkpt lat="43.64174" lon="3.74385">
        <ele>148.54</ele>
        <time>2014-09-07T09:25:29Z</time>
      </trkpt>
      <trkpt lat="43.64179" lon="3.74411">
        <ele>148.6</ele>
        <time>2014-09-07T09:25:36Z</time>
      </trkpt>
      <trkpt lat="43.6419" lon="3.74435">
        <ele>149.34</ele>
        <time>2014-09-07T09:25:44Z</time>
      </trkpt>
      <trkpt lat="43.64203" lon="3.74465">
        <ele>149.56</ele>
        <time>2014-09-07T09:25:53Z</time>
      </trkpt>
      <trkpt lat="43.64216" lon="3.74499">
        <ele>149.79</ele>
        <time>2014-09-07T09:26:03Z</time>
      </trkpt>
      <trkpt lat="43.64229" lon="3.74528">
        <ele>149.72</ele>
        <time>2014-09-07T09:26:12Z</time>
      </trkpt>
      <trkpt lat="43.6423" lon="3.74531">
        <ele>149.72</ele>
        <time>2014-09-07T09:26:13Z</time>
      </trkpt>
      <trkpt lat="43.6423" lon="3.74543">
        <ele>149.76</ele>
        <time>2014-09-07T09:26:16Z</time>
      </trkpt>
      <trkpt lat="43.6424" lon="3.74559">
        <ele>150.07</ele>
        <time>2014-09-07T09:26:22Z</time>
      </trkpt>
      <trkpt lat="43.64241" lon="3.74562">
        <ele>150.1</ele>
        <time>2014-09-07T09:26:23Z</time>
      </trkpt>
      <trkpt lat="43.64258" lon="3.74604">
        <ele>150.09</ele>
        <time>2014-09-07T09:26:35Z</time>
      </trkpt>
      <trkpt lat="43.6428" lon="3.74658">
        <ele>149.79</ele>
        <time>2014-09-07T09:26:48Z</time>
      </trkpt>
      <trkpt lat="43.64294" lon="3.74696">
        <ele>149.85</ele>
        <time>2014-09-07T09:26:57Z</time>
      </trkpt>
      <trkpt lat="43.64307" lon="3.7473">
        <ele>150.09</ele>
        <time>2014-09-07T09:27:06Z</time>
      </trkpt>
      <trkpt lat="43.64323" lon="3.74773">
        <ele>150.82</ele>
        <time>2014-09-07T09:27:18Z</time>
      </trkpt>
      <trkpt lat="43.64333" lon="3.74799">
        <ele>151.78</ele>
        <time>2014-09-07T09:27:26Z</time>
      </trkpt>
      <trkpt lat="43.64344" lon="3.74827">
        <ele>152.87</ele>
        <time>2014-09-07T09:27:35Z</time>
      </trkpt>
      <trkpt lat="43.64357" lon="3.74858">
        <ele>153.84</ele>
        <time>2014-09-07T09:27:45Z</time>
      </trkpt>
      <trkpt lat="43.64368" lon="3.74889">
        <ele>154.39</ele>
        <time>2014-09-07T09:27:54Z</time>
      </trkpt>
      <trkpt lat="43.6438" lon="3.74919">
        <ele>153.89</ele>
        <time>2014-09-07T09:28:02Z</time>
      </trkpt>
      <trkpt lat="43.64389" lon="3.74938">
        <ele>153.13</ele>
        <time>2014-09-07T09:28:06Z</time>
      </trkpt>
      <trkpt lat="43.64412" lon="3.74985">
        <ele>151.29</ele>
        <time>2014-09-07T09:28:15Z</time>
      </trkpt>
      <trkpt lat="43.64441" lon="3.75029">
        <ele>149.93</ele>
        <time>2014-09-07T09:28:24Z</time>
      </trkpt>
      <trkpt lat="43.64467" lon="3.7506">
        <ele>149.64</ele>
        <time>2014-09-07T09:28:32Z</time>
      </trkpt>
      <trkpt lat="43.64488" lon="3.75082">
        <ele>149.45</ele>
        <time>2014-09-07T09:28:41Z</time>
      </trkpt>
      <trkpt lat="43.64498" lon="3.75084">
        <ele>149.31</ele>
        <time>2014-09-07T09:28:44Z</time>
      </trkpt>
      <trkpt lat="43.64507" lon="3.75099">
        <ele>148.62</ele>
        <time>2014-09-07T09:28:49Z</time>
      </trkpt>
      <trkpt lat="43.64509" lon="3.75109">
        <ele>148.29</ele>
        <time>2014-09-07T09:28:51Z</time>
      </trkpt>
      <trkpt lat="43.64525" lon="3.75133">
        <ele>146.4</ele>
        <time>2014-09-07T09:28:58Z</time>
      </trkpt>
      <trkpt lat="43.64536" lon="3.75148">
        <ele>146.01</ele>
        <time>2014-09-07T09:29:02Z</time>
      </trkpt>
      <trkpt lat="43.64565" lon="3.75183">
        <ele>145.07</ele>
        <time>2014-09-07T09:29:11Z</time>
      </trkpt>
      <trkpt lat="43.64591" lon="3.75217">
        <ele>143.89</ele>
        <time>2014-09-07T09:29:19Z</time>
      </trkpt>
      <trkpt lat="43.64618" lon="3.75252">
        <ele>141.35</ele>
        <time>2014-09-07T09:29:26Z</time>
      </trkpt>
      <trkpt lat="43.64633" lon="3.75269">
        <ele>140.14</ele>
        <time>2014-09-07T09:29:30Z</time>
      </trkpt>
      <trkpt lat="43.64642" lon="3.75281">
        <ele>138.77</ele>
        <time>2014-09-07T09:29:33Z</time>
      </trkpt>
      <trkpt lat="43.64659" lon="3.75302">
        <ele>136.63</ele>
        <time>2014-09-07T09:29:40Z</time>
      </trkpt>
      <trkpt lat="43.64662" lon="3.75305">
        <ele>136.06</ele>
        <time>2014-09-07T09:29:42Z</time>
      </trkpt>
      <trkpt lat="43.64669" lon="3.75313">
        <ele>134.94</ele>
        <time>2014-09-07T09:29:47Z</time>
      </trkpt>
      <trkpt lat="43.6469" lon="3.75342">
        <ele>133.11</ele>
        <time>2014-09-07T09:29:53Z</time>
      </trkpt>
      <trkpt lat="43.64699" lon="3.75352">
        <ele>131.84</ele>
        <time>2014-09-07T09:29:57Z</time>
      </trkpt>
      <trkpt lat="43.64714" lon="3.75367">
        <ele>133.27</ele>
        <time>2014-09-07T09:30:04Z</time>
      </trkpt>
      <trkpt lat="43.64733" lon="3.75392">
        <ele>135.04</ele>
        <time>2014-09-07T09:30:13Z</time>
      </trkpt>
      <trkpt lat="43.64747" lon="3.7541">
        <ele>135.07</ele>
        <time>2014-09-07T09:30:18Z</time>
      </trkpt>
      <trkpt lat="43.64756" lon="3.75443">
        <ele>133.66</ele>
        <time>2014-09-07T09:30:23Z</time>
      </trkpt>
      <trkpt lat="43.64766" lon="3.75451">
        <ele>132.71</ele>
        <time>2014-09-07T09:30:25Z</time>
      </trkpt>
      <trkpt lat="43.64782" lon="3.75472">
        <ele>131.53</ele>
        <time>2014-09-07T09:30:31Z</time>
      </trkpt>
      <trkpt lat="43.64793" lon="3.75484">
        <ele>132.9</ele>
        <time>2014-09-07T09:30:37Z</time>
      </trkpt>
      <trkpt lat="43.64796" lon="3.75489">
        <ele>133.22</ele>
        <time>2014-09-07T09:30:39Z</time>
      </trkpt>
      <trkpt lat="43.64804" lon="3.75498">
        <ele>133.69</ele>
        <time>2014-09-07T09:30:43Z</time>
      </trkpt>
      <trkpt lat="43.64813" lon="3.7551">
        <ele>133.91</ele>
        <time>2014-09-07T09:30:47Z</time>
      </trkpt>
      <trkpt lat="43.64825" lon="3.75522">
        <ele>133.91</ele>
        <time>2014-09-07T09:30:51Z</time>
      </trkpt>
      <trkpt lat="43.64841" lon="3.75545">
        <ele>133.25</ele>
        <time>2014-09-07T09:30:56Z</time>
      </trkpt>
      <trkpt lat="43.64864" lon="3.7558">
        <ele>131.05</ele>
        <time>2014-09-07T09:31:03Z</time>
      </trkpt>
      <trkpt lat="43.64867" lon="3.75584">
        <ele>131.05</ele>
        <time>2014-09-07T09:31:04Z</time>
      </trkpt>
      <trkpt lat="43.64876" lon="3.75596">
        <ele>129.75</ele>
        <time>2014-09-07T09:31:08Z</time>
      </trkpt>
      <trkpt lat="43.64883" lon="3.75615">
        <ele>128.36</ele>
        <time>2014-09-07T09:31:12Z</time>
      </trkpt>
      <trkpt lat="43.649" lon="3.7564">
        <ele>125.55</ele>
        <time>2014-09-07T09:31:18Z</time>
      </trkpt>
      <trkpt lat="43.64912" lon="3.75665">
        <ele>122.94</ele>
        <time>2014-09-07T09:31:22Z</time>
      </trkpt>
      <trkpt lat="43.64915" lon="3.75667">
        <ele>122.43</ele>
        <time>2014-09-07T09:31:23Z</time>
      </trkpt>
      <trkpt lat="43.64935" lon="3.7568">
        <ele>121.26</ele>
        <time>2014-09-07T09:31:30Z</time>
      </trkpt>
      <trkpt lat="43.64949" lon="3.75691">
        <ele>120.2</ele>
        <time>2014-09-07T09:31:35Z</time>
      </trkpt>
      <trkpt lat="43.64966" lon="3.7571">
        <ele>117.6</ele>
        <time>2014-09-07T09:31:41Z</time>
      </trkpt>
      <trkpt lat="43.64972" lon="3.75717">
        <ele>116.17</ele>
        <time>2014-09-07T09:31:44Z</time>
      </trkpt>
      <trkpt lat="43.64988" lon="3.75733">
        <ele>115.84</ele>
        <time>2014-09-07T09:31:50Z</time>
      </trkpt>
      <trkpt lat="43.65021" lon="3.7576">
        <ele>113.95</ele>
        <time>2014-09-07T09:31:58Z</time>
      </trkpt>
      <trkpt lat="43.65041" lon="3.75773">
        <ele>111.47</ele>
        <time>2014-09-07T09:32:03Z</time>
      </trkpt>
      <trkpt lat="43.65044" lon="3.75774">
        <ele>110.87</ele>
        <time>2014-09-07T09:32:04Z</time>
      </trkpt>
      <trkpt lat="43.65047" lon="3.75773">
        <ele>107.23</ele>
        <time>2014-09-07T09:32:10Z</time>
      </trkpt>
      <trkpt lat="43.65044" lon="3.75774">
        <ele>105.9</ele>
        <time>2014-09-07T09:32:22Z</time>
      </trkpt>
      <trkpt lat="43.65049" lon="3.75777">
        <ele>106.74</ele>
        <time>2014-09-07T09:32:32Z</time>
      </trkpt>
      <trkpt lat="43.65051" lon="3.75773">
        <ele>107.01</ele>
        <time>2014-09-07T09:32:46Z</time>
      </trkpt>
      <trkpt lat="43.65052" lon="3.75774">
        <ele>107.27</ele>
        <time>2014-09-07T09:32:57Z</time>
      </trkpt>
      <trkpt lat="43.65053" lon="3.75773">
        <ele>107.3</ele>
        <time>2014-09-07T09:33:09Z</time>
      </trkpt>
      <trkpt lat="43.65054" lon="3.75777">
        <ele>107.5</ele>
        <time>2014-09-07T09:33:18Z</time>
      </trkpt>
      <trkpt lat="43.65055" lon="3.75778">
        <ele>107.54</ele>
        <time>2014-09-07T09:33:19Z</time>
      </trkpt>
      <trkpt lat="43.65067" lon="3.75794">
        <ele>107.46</ele>
        <time>2014-09-07T09:33:26Z</time>
      </trkpt>
      <trkpt lat="43.65084" lon="3.75808">
        <ele>107.05</ele>
        <time>2014-09-07T09:33:30Z</time>
      </trkpt>
      <trkpt lat="43.65109" lon="3.75846">
        <ele>104.65</ele>
        <time>2014-09-07T09:33:36Z</time>
      </trkpt>
      <trkpt lat="43.65113" lon="3.75853">
        <ele>104.33</ele>
        <time>2014-09-07T09:33:37Z</time>
      </trkpt>
      <trkpt lat="43.65133" lon="3.75871">
        <ele>103.34</ele>
        <time>2014-09-07T09:33:42Z</time>
      </trkpt>
      <trkpt lat="43.65157" lon="3.75869">
        <ele>103.01</ele>
        <time>2014-09-07T09:33:48Z</time>
      </trkpt>
      <trkpt lat="43.65183" lon="3.75877">
        <ele>102.14</ele>
        <time>2014-09-07T09:33:55Z</time>
      </trkpt>
      <trkpt lat="43.65201" lon="3.75885">
        <ele>102.04</ele>
        <time>2014-09-07T09:34:00Z</time>
      </trkpt>
      <trkpt lat="43.6523" lon="3.75917">
        <ele>101.37</ele>
        <time>2014-09-07T09:34:08Z</time>
      </trkpt>
      <trkpt lat="43.65233" lon="3.75923">
        <ele>101.24</ele>
        <time>2014-09-07T09:34:09Z</time>
      </trkpt>
      <trkpt lat="43.65265" lon="3.75972">
        <ele>100.48</ele>
        <time>2014-09-07T09:34:19Z</time>
      </trkpt>
      <trkpt lat="43.65281" lon="3.76002">
        <ele>99.87</ele>
        <time>2014-09-07T09:34:26Z</time>
      </trkpt>
      <trkpt lat="43.65299" lon="3.76023">
        <ele>100.77</ele>
        <time>2014-09-07T09:34:33Z</time>
      </trkpt>
      <trkpt lat="43.65329" lon="3.76042">
        <ele>101.18</ele>
        <time>2014-09-07T09:34:41Z</time>
      </trkpt>
      <trkpt lat="43.65334" lon="3.76044">
        <ele>101.09</ele>
        <time>2014-09-07T09:34:42Z</time>
      </trkpt>
      <trkpt lat="43.65353" lon="3.7605">
        <ele>100.63</ele>
        <time>2014-09-07T09:34:46Z</time>
      </trkpt>
      <trkpt lat="43.65374" lon="3.76071">
        <ele>99.34</ele>
        <time>2014-09-07T09:34:51Z</time>
      </trkpt>
      <trkpt lat="43.65379" lon="3.76098">
        <ele>98.31</ele>
        <time>2014-09-07T09:34:55Z</time>
      </trkpt>
      <trkpt lat="43.65392" lon="3.76137">
        <ele>97.94</ele>
        <time>2014-09-07T09:35:02Z</time>
      </trkpt>
      <trkpt lat="43.65403" lon="3.76155">
        <ele>97.69</ele>
        <time>2014-09-07T09:35:06Z</time>
      </trkpt>
      <trkpt lat="43.65412" lon="3.76163">
        <ele>97.5</ele>
        <time>2014-09-07T09:35:08Z</time>
      </trkpt>
      <trkpt lat="43.65421" lon="3.76167">
        <ele>97.26</ele>
        <time>2014-09-07T09:35:10Z</time>
      </trkpt>
      <trkpt lat="43.65439" lon="3.76172">
        <ele>96.62</ele>
        <time>2014-09-07T09:35:14Z</time>
      </trkpt>
      <trkpt lat="43.65451" lon="3.7618">
        <ele>96.37</ele>
        <time>2014-09-07T09:35:17Z</time>
      </trkpt>
      <trkpt lat="43.65465" lon="3.76185">
        <ele>96.19</ele>
        <time>2014-09-07T09:35:20Z</time>
      </trkpt>
      <trkpt lat="43.65487" lon="3.76186">
        <ele>95.77</ele>
        <time>2014-09-07T09:35:25Z</time>
      </trkpt>
      <trkpt lat="43.65512" lon="3.76196">
        <ele>94.73</ele>
        <time>2014-09-07T09:35:30Z</time>
      </trkpt>
      <trkpt lat="43.65533" lon="3.76229">
        <ele>93.73</ele>
        <time>2014-09-07T09:35:36Z</time>
      </trkpt>
      <trkpt lat="43.65555" lon="3.76285">
        <ele>92.95</ele>
        <time>2014-09-07T09:35:45Z</time>
      </trkpt>
      <trkpt lat="43.65566" lon="3.76338">
        <ele>92.39</ele>
        <time>2014-09-07T09:35:53Z</time>
      </trkpt>
      <trkpt lat="43.65571" lon="3.7637">
        <ele>92.17</ele>
        <time>2014-09-07T09:35:58Z</time>
      </trkpt>
      <trkpt lat="43.65574" lon="3.76382">
        <ele>92.23</ele>
        <time>2014-09-07T09:36:00Z</time>
      </trkpt>
      <trkpt lat="43.6559" lon="3.76442">
        <ele>92.56</ele>
        <time>2014-09-07T09:36:10Z</time>
      </trkpt>
      <trkpt lat="43.65607" lon="3.76512">
        <ele>92.25</ele>
        <time>2014-09-07T09:36:21Z</time>
      </trkpt>
      <trkpt lat="43.65619" lon="3.76564">
        <ele>91.86</ele>
        <time>2014-09-07T09:36:29Z</time>
      </trkpt>
      <trkpt lat="43.65621" lon="3.76577">
        <ele>91.73</ele>
        <time>2014-09-07T09:36:31Z</time>
      </trkpt>
      <trkpt lat="43.65619" lon="3.76621">
        <ele>91.35</ele>
        <time>2014-09-07T09:36:39Z</time>
      </trkpt>
      <trkpt lat="43.65619" lon="3.76623">
        <ele>91.33</ele>
        <time>2014-09-07T09:36:45Z</time>
      </trkpt>
      <trkpt lat="43.65619" lon="3.76623">
        <ele>91.57</ele>
        <time>2014-09-07T09:36:59Z</time>
      </trkpt>
      <trkpt lat="43.65618" lon="3.76625">
        <ele>91.12</ele>
        <time>2014-09-07T09:37:16Z</time>
      </trkpt>
      <trkpt lat="43.65618" lon="3.76627">
        <ele>91.08</ele>
        <time>2014-09-07T09:37:33Z</time>
      </trkpt>
      <trkpt lat="43.65617" lon="3.76628">
        <ele>91.06</ele>
        <time>2014-09-07T09:37:51Z</time>
      </trkpt>
      <trkpt lat="43.65617" lon="3.76628">
        <ele>91.42</ele>
        <time>2014-09-07T09:38:06Z</time>
      </trkpt>
      <trkpt lat="43.65617" lon="3.76628">
        <ele>91.22</ele>
        <time>2014-09-07T09:38:30Z</time>
      </trkpt>
      <trkpt lat="43.65617" lon="3.76629">
        <ele>91.21</ele>
        <time>2014-09-07T09:38:47Z</time>
      </trkpt>
      <trkpt lat="43.65619" lon="3.76625">
        <ele>91.17</ele>
        <time>2014-09-07T09:39:07Z</time>
      </trkpt>
      <trkpt lat="43.6562" lon="3.76626">
        <ele>91.16</ele>
        <time>2014-09-07T09:39:26Z</time>
      </trkpt>
      <trkpt lat="43.6562" lon="3.76625">
        <ele>91.07</ele>
        <time>2014-09-07T09:39:44Z</time>
      </trkpt>
      <trkpt lat="43.65622" lon="3.76624">
        <ele>91.13</ele>
        <time>2014-09-07T09:40:00Z</time>
      </trkpt>
      <trkpt lat="43.65621" lon="3.76623">
        <ele>91.03</ele>
        <time>2014-09-07T09:40:15Z</time>
      </trkpt>
      <trkpt lat="43.65621" lon="3.76624">
        <ele>90.98</ele>
        <time>2014-09-07T09:40:43Z</time>
      </trkpt>
      <trkpt lat="43.65618" lon="3.76627">
        <ele>90.79</ele>
        <time>2014-09-07T09:41:07Z</time>
      </trkpt>
      <trkpt lat="43.6562" lon="3.76626">
        <ele>90.81</ele>
        <time>2014-09-07T09:41:24Z</time>
      </trkpt>
      <trkpt lat="43.65619" lon="3.76625">
        <ele>90.66</ele>
        <time>2014-09-07T09:41:43Z</time>
      </trkpt>
      <trkpt lat="43.65619" lon="3.76632">
        <ele>90.33</ele>
        <time>2014-09-07T09:41:52Z</time>
      </trkpt>
      <trkpt lat="43.65618" lon="3.7665">
        <ele>90.26</ele>
        <time>2014-09-07T09:41:58Z</time>
      </trkpt>
      <trkpt lat="43.65618" lon="3.76679">
        <ele>90.49</ele>
        <time>2014-09-07T09:42:06Z</time>
      </trkpt>
      <trkpt lat="43.65613" lon="3.76706">
        <ele>90.5</ele>
        <time>2014-09-07T09:42:13Z</time>
      </trkpt>
      <trkpt lat="43.65603" lon="3.76727">
        <ele>91.05</ele>
        <time>2014-09-07T09:42:20Z</time>
      </trkpt>
      <trkpt lat="43.65589" lon="3.76768">
        <ele>91.03</ele>
        <time>2014-09-07T09:42:30Z</time>
      </trkpt>
      <trkpt lat="43.65576" lon="3.7679">
        <ele>91.74</ele>
        <time>2014-09-07T09:42:37Z</time>
      </trkpt>
      <trkpt lat="43.65563" lon="3.76792">
        <ele>92.67</ele>
        <time>2014-09-07T09:42:44Z</time>
      </trkpt>
      <trkpt lat="43.65546" lon="3.76784">
        <ele>93.32</ele>
        <time>2014-09-07T09:42:52Z</time>
      </trkpt>
      <trkpt lat="43.65536" lon="3.76774">
        <ele>94.03</ele>
        <time>2014-09-07T09:42:58Z</time>
      </trkpt>
      <trkpt lat="43.65526" lon="3.76765">
        <ele>94.79</ele>
        <time>2014-09-07T09:43:04Z</time>
      </trkpt>
      <trkpt lat="43.65515" lon="3.76757">
        <ele>95.84</ele>
        <time>2014-09-07T09:43:11Z</time>
      </trkpt>
      <trkpt lat="43.65506" lon="3.76756">
        <ele>97.19</ele>
        <time>2014-09-07T09:43:18Z</time>
      </trkpt>
      <trkpt lat="43.655" lon="3.76778">
        <ele>97.76</ele>
        <time>2014-09-07T09:43:25Z</time>
      </trkpt>
      <trkpt lat="43.65499" lon="3.76782">
        <ele>97.73</ele>
        <time>2014-09-07T09:43:26Z</time>
      </trkpt>
      <trkpt lat="43.65489" lon="3.7682">
        <ele>96.76</ele>
        <time>2014-09-07T09:43:35Z</time>
      </trkpt>
      <trkpt lat="43.65481" lon="3.76846">
        <ele>96.3</ele>
        <time>2014-09-07T09:43:42Z</time>
      </trkpt>
      <trkpt lat="43.65472" lon="3.76873">
        <ele>96.1</ele>
        <time>2014-09-07T09:43:49Z</time>
      </trkpt>
      <trkpt lat="43.65471" lon="3.76897">
        <ele>95.94</ele>
        <time>2014-09-07T09:43:55Z</time>
      </trkpt>
      <trkpt lat="43.65481" lon="3.76908">
        <ele>95.75</ele>
        <time>2014-09-07T09:43:59Z</time>
      </trkpt>
      <trkpt lat="43.65507" lon="3.76918">
        <ele>95.29</ele>
        <time>2014-09-07T09:44:06Z</time>
      </trkpt>
      <trkpt lat="43.65545" lon="3.76939">
        <ele>94.21</ele>
        <time>2014-09-07T09:44:16Z</time>
      </trkpt>
      <trkpt lat="43.65571" lon="3.76938">
        <ele>93.72</ele>
        <time>2014-09-07T09:44:23Z</time>
      </trkpt>
      <trkpt lat="43.6559" lon="3.76928">
        <ele>93.26</ele>
        <time>2014-09-07T09:44:30Z</time>
      </trkpt>
      <trkpt lat="43.65597" lon="3.76929">
        <ele>92.49</ele>
        <time>2014-09-07T09:44:37Z</time>
      </trkpt>
      <trkpt lat="43.65597" lon="3.76924">
        <ele>92.48</ele>
        <time>2014-09-07T09:44:52Z</time>
      </trkpt>
      <trkpt lat="43.65596" lon="3.76923">
        <ele>92.4</ele>
        <time>2014-09-07T09:45:08Z</time>
      </trkpt>
      <trkpt lat="43.65598" lon="3.76924">
        <ele>92.06</ele>
        <time>2014-09-07T09:45:20Z</time>
      </trkpt>
      <trkpt lat="43.65599" lon="3.76924">
        <ele>91.93</ele>
        <time>2014-09-07T09:45:34Z</time>
      </trkpt>
      <trkpt lat="43.656" lon="3.76926">
        <ele>91.96</ele>
        <time>2014-09-07T09:45:46Z</time>
      </trkpt>
      <trkpt lat="43.65601" lon="3.76929">
        <ele>91.94</ele>
        <time>2014-09-07T09:45:57Z</time>
      </trkpt>
      <trkpt lat="43.65601" lon="3.76949">
        <ele>91.75</ele>
        <time>2014-09-07T09:46:03Z</time>
      </trkpt>
      <trkpt lat="43.65601" lon="3.76952">
        <ele>91.66</ele>
        <time>2014-09-07T09:46:04Z</time>
      </trkpt>
      <trkpt lat="43.65601" lon="3.76989">
        <ele>90.75</ele>
        <time>2014-09-07T09:46:12Z</time>
      </trkpt>
      <trkpt lat="43.65597" lon="3.77023">
        <ele>89.91</ele>
        <time>2014-09-07T09:46:20Z</time>
      </trkpt>
      <trkpt lat="43.65593" lon="3.77055">
        <ele>89.1</ele>
        <time>2014-09-07T09:46:27Z</time>
      </trkpt>
      <trkpt lat="43.6559" lon="3.77078">
        <ele>88.39</ele>
        <time>2014-09-07T09:46:33Z</time>
      </trkpt>
      <trkpt lat="43.65588" lon="3.77104">
        <ele>87.78</ele>
        <time>2014-09-07T09:46:39Z</time>
      </trkpt>
      <trkpt lat="43.65588" lon="3.77136">
        <ele>87.21</ele>
        <time>2014-09-07T09:46:45Z</time>
      </trkpt>
      <trkpt lat="43.65586" lon="3.7717">
        <ele>85.58</ele>
        <time>2014-09-07T09:46:52Z</time>
      </trkpt>
      <trkpt lat="43.65584" lon="3.77209">
        <ele>84.15</ele>
        <time>2014-09-07T09:46:59Z</time>
      </trkpt>
      <trkpt lat="43.65585" lon="3.77236">
        <ele>83.51</ele>
        <time>2014-09-07T09:47:04Z</time>
      </trkpt>
      <trkpt lat="43.65588" lon="3.77247">
        <ele>83.31</ele>
        <time>2014-09-07T09:47:06Z</time>
      </trkpt>
      <trkpt lat="43.65585" lon="3.77286">
        <ele>82.18</ele>
        <time>2014-09-07T09:47:13Z</time>
      </trkpt>
      <trkpt lat="43.65589" lon="3.77307">
        <ele>81.86</ele>
        <time>2014-09-07T09:47:18Z</time>
      </trkpt>
      <trkpt lat="43.65587" lon="3.77334">
        <ele>81.58</ele>
        <time>2014-09-07T09:47:25Z</time>
      </trkpt>
      <trkpt lat="43.65578" lon="3.77359">
        <ele>80.76</ele>
        <time>2014-09-07T09:47:31Z</time>
      </trkpt>
      <trkpt lat="43.65564" lon="3.77387">
        <ele>79.94</ele>
        <time>2014-09-07T09:47:37Z</time>
      </trkpt>
      <trkpt lat="43.65543" lon="3.77421">
        <ele>78.77</ele>
        <time>2014-09-07T09:47:45Z</time>
      </trkpt>
      <trkpt lat="43.65528" lon="3.77455">
        <ele>77.93</ele>
        <time>2014-09-07T09:47:51Z</time>
      </trkpt>
      <trkpt lat="43.65517" lon="3.77492">
        <ele>77.18</ele>
        <time>2014-09-07T09:47:58Z</time>
      </trkpt>
      <trkpt lat="43.65515" lon="3.77514">
        <ele>77.23</ele>
        <time>2014-09-07T09:48:03Z</time>
      </trkpt>
      <trkpt lat="43.65507" lon="3.7754">
        <ele>77.04</ele>
        <time>2014-09-07T09:48:09Z</time>
      </trkpt>
      <trkpt lat="43.65504" lon="3.7756">
        <ele>76.79</ele>
        <time>2014-09-07T09:48:14Z</time>
      </trkpt>
      <trkpt lat="43.65504" lon="3.7757">
        <ele>76.62</ele>
        <time>2014-09-07T09:48:16Z</time>
      </trkpt>
      <trkpt lat="43.655" lon="3.77605">
        <ele>75.75</ele>
        <time>2014-09-07T09:48:24Z</time>
      </trkpt>
      <trkpt lat="43.65498" lon="3.77634">
        <ele>74.83</ele>
        <time>2014-09-07T09:48:32Z</time>
      </trkpt>
      <trkpt lat="43.65499" lon="3.77653">
        <ele>74.16</ele>
        <time>2014-09-07T09:48:37Z</time>
      </trkpt>
      <trkpt lat="43.65499" lon="3.77677">
        <ele>73.22</ele>
        <time>2014-09-07T09:48:43Z</time>
      </trkpt>
      <trkpt lat="43.655" lon="3.777">
        <ele>72.43</ele>
        <time>2014-09-07T09:48:49Z</time>
      </trkpt>
      <trkpt lat="43.65501" lon="3.77705">
        <ele>72.21</ele>
        <time>2014-09-07T09:48:52Z</time>
      </trkpt>
      <trkpt lat="43.65501" lon="3.77709">
        <ele>71.69</ele>
        <time>2014-09-07T09:49:00Z</time>
      </trkpt>
      <trkpt lat="43.65502" lon="3.7771">
        <ele>71.67</ele>
        <time>2014-09-07T09:49:01Z</time>
      </trkpt>
      <trkpt lat="43.6551" lon="3.77724">
        <ele>71.51</ele>
        <time>2014-09-07T09:49:07Z</time>
      </trkpt>
      <trkpt lat="43.65511" lon="3.77723">
        <ele>71.16</ele>
        <time>2014-09-07T09:49:12Z</time>
      </trkpt>
      <trkpt lat="43.65507" lon="3.77716">
        <ele>70.8</ele>
        <time>2014-09-07T09:49:21Z</time>
      </trkpt>
      <trkpt lat="43.65506" lon="3.77717">
        <ele>70.41</ele>
        <time>2014-09-07T09:49:31Z</time>
      </trkpt>
      <trkpt lat="43.65505" lon="3.77721">
        <ele>70.21</ele>
        <time>2014-09-07T09:49:40Z</time>
      </trkpt>
      <trkpt lat="43.65504" lon="3.77715">
        <ele>70.42</ele>
        <time>2014-09-07T09:49:47Z</time>
      </trkpt>
      <trkpt lat="43.65504" lon="3.77713">
        <ele>70.5</ele>
        <time>2014-09-07T09:49:48Z</time>
      </trkpt>
      <trkpt lat="43.65503" lon="3.77705">
        <ele>71.09</ele>
        <time>2014-09-07T09:49:56Z</time>
      </trkpt>
      <trkpt lat="43.65504" lon="3.77707">
        <ele>71.13</ele>
        <time>2014-09-07T09:49:59Z</time>
      </trkpt>
      <trkpt lat="43.65506" lon="3.77716">
        <ele>71.16</ele>
        <time>2014-09-07T09:50:03Z</time>
      </trkpt>
      <trkpt lat="43.6551" lon="3.77719">
        <ele>70.78</ele>
        <time>2014-09-07T09:50:09Z</time>
      </trkpt>
      <trkpt lat="43.65508" lon="3.77725">
        <ele>70.67</ele>
        <time>2014-09-07T09:50:19Z</time>
      </trkpt>
      <trkpt lat="43.65509" lon="3.77743">
        <ele>70.4</ele>
        <time>2014-09-07T09:50:25Z</time>
      </trkpt>
      <trkpt lat="43.65514" lon="3.77761">
        <ele>70.38</ele>
        <time>2014-09-07T09:50:31Z</time>
      </trkpt>
      <trkpt lat="43.65514" lon="3.77774">
        <ele>70.67</ele>
        <time>2014-09-07T09:50:35Z</time>
      </trkpt>
      <trkpt lat="43.65516" lon="3.77799">
        <ele>71.08</ele>
        <time>2014-09-07T09:50:42Z</time>
      </trkpt>
      <trkpt lat="43.65511" lon="3.77828">
        <ele>71.8</ele>
        <time>2014-09-07T09:50:49Z</time>
      </trkpt>
      <trkpt lat="43.65501" lon="3.77863">
        <ele>71.35</ele>
        <time>2014-09-07T09:50:55Z</time>
      </trkpt>
      <trkpt lat="43.65494" lon="3.77895">
        <ele>70.09</ele>
        <time>2014-09-07T09:51:02Z</time>
      </trkpt>
      <trkpt lat="43.65489" lon="3.77915">
        <ele>69.13</ele>
        <time>2014-09-07T09:51:08Z</time>
      </trkpt>
      <trkpt lat="43.65489" lon="3.77939">
        <ele>68.19</ele>
        <time>2014-09-07T09:51:15Z</time>
      </trkpt>
      <trkpt lat="43.65497" lon="3.77962">
        <ele>67.89</ele>
        <time>2014-09-07T09:51:21Z</time>
      </trkpt>
      <trkpt lat="43.65511" lon="3.77968">
        <ele>68.13</ele>
        <time>2014-09-07T09:51:26Z</time>
      </trkpt>
      <trkpt lat="43.6552" lon="3.77977">
        <ele>68.51</ele>
        <time>2014-09-07T09:51:31Z</time>
      </trkpt>
      <trkpt lat="43.65526" lon="3.77998">
        <ele>69.21</ele>
        <time>2014-09-07T09:51:38Z</time>
      </trkpt>
      <trkpt lat="43.65534" lon="3.78015">
        <ele>69.67</ele>
        <time>2014-09-07T09:51:44Z</time>
      </trkpt>
      <trkpt lat="43.6554" lon="3.78043">
        <ele>70.39</ele>
        <time>2014-09-07T09:51:53Z</time>
      </trkpt>
      <trkpt lat="43.65541" lon="3.78072">
        <ele>71.27</ele>
        <time>2014-09-07T09:52:02Z</time>
      </trkpt>
      <trkpt lat="43.65541" lon="3.78088">
        <ele>71.97</ele>
        <time>2014-09-07T09:52:08Z</time>
      </trkpt>
      <trkpt lat="43.65542" lon="3.78103">
        <ele>72.61</ele>
        <time>2014-09-07T09:52:14Z</time>
      </trkpt>
      <trkpt lat="43.65545" lon="3.78121">
        <ele>73.46</ele>
        <time>2014-09-07T09:52:21Z</time>
      </trkpt>
      <trkpt lat="43.65552" lon="3.7814">
        <ele>73.34</ele>
        <time>2014-09-07T09:52:27Z</time>
      </trkpt>
      <trkpt lat="43.65563" lon="3.78163">
        <ele>72.53</ele>
        <time>2014-09-07T09:52:32Z</time>
      </trkpt>
      <trkpt lat="43.65571" lon="3.7819">
        <ele>71.87</ele>
        <time>2014-09-07T09:52:38Z</time>
      </trkpt>
      <trkpt lat="43.65574" lon="3.78222">
        <ele>71.51</ele>
        <time>2014-09-07T09:52:45Z</time>
      </trkpt>
      <trkpt lat="43.65571" lon="3.78255">
        <ele>70.76</ele>
        <time>2014-09-07T09:52:51Z</time>
      </trkpt>
      <trkpt lat="43.65559" lon="3.78288">
        <ele>69.55</ele>
        <time>2014-09-07T09:52:58Z</time>
      </trkpt>
      <trkpt lat="43.65546" lon="3.78311">
        <ele>68.61</ele>
        <time>2014-09-07T09:53:04Z</time>
      </trkpt>
      <trkpt lat="43.65538" lon="3.78323">
        <ele>68.31</ele>
        <time>2014-09-07T09:53:08Z</time>
      </trkpt>
      <trkpt lat="43.65534" lon="3.78334">
        <ele>68.31</ele>
        <time>2014-09-07T09:53:14Z</time>
      </trkpt>
      <trkpt lat="43.65535" lon="3.7834">
        <ele>68.22</ele>
        <time>2014-09-07T09:53:32Z</time>
      </trkpt>
      <trkpt lat="43.65533" lon="3.7834">
        <ele>68.18</ele>
        <time>2014-09-07T09:53:50Z</time>
      </trkpt>
      <trkpt lat="43.65533" lon="3.78339">
        <ele>68.17</ele>
        <time>2014-09-07T09:54:00Z</time>
      </trkpt>
      <trkpt lat="43.65528" lon="3.78344">
        <ele>68.35</ele>
        <time>2014-09-07T09:54:14Z</time>
      </trkpt>
      <trkpt lat="43.65513" lon="3.78351">
        <ele>67.93</ele>
        <time>2014-09-07T09:54:20Z</time>
      </trkpt>
      <trkpt lat="43.65496" lon="3.78372">
        <ele>66.85</ele>
        <time>2014-09-07T09:54:26Z</time>
      </trkpt>
      <trkpt lat="43.65492" lon="3.78378">
        <ele>66.65</ele>
        <time>2014-09-07T09:54:27Z</time>
      </trkpt>
      <trkpt lat="43.65465" lon="3.78424">
        <ele>63.95</ele>
        <time>2014-09-07T09:54:35Z</time>
      </trkpt>
      <trkpt lat="43.6545" lon="3.78456">
        <ele>62.56</ele>
        <time>2014-09-07T09:54:40Z</time>
      </trkpt>
      <trkpt lat="43.6543" lon="3.78506">
        <ele>60.95</ele>
        <time>2014-09-07T09:54:48Z</time>
      </trkpt>
      <trkpt lat="43.65427" lon="3.78518">
        <ele>60.65</ele>
        <time>2014-09-07T09:54:50Z</time>
      </trkpt>
      <trkpt lat="43.65428" lon="3.78546">
        <ele>60</ele>
        <time>2014-09-07T09:54:55Z</time>
      </trkpt>
      <trkpt lat="43.65434" lon="3.78584">
        <ele>58.93</ele>
        <time>2014-09-07T09:55:02Z</time>
      </trkpt>
      <trkpt lat="43.65434" lon="3.7859">
        <ele>58.67</ele>
        <time>2014-09-07T09:55:03Z</time>
      </trkpt>
      <trkpt lat="43.65425" lon="3.78611">
        <ele>57.72</ele>
        <time>2014-09-07T09:55:07Z</time>
      </trkpt>
      <trkpt lat="43.65393" lon="3.78633">
        <ele>56.86</ele>
        <time>2014-09-07T09:55:16Z</time>
      </trkpt>
      <trkpt lat="43.65368" lon="3.78645">
        <ele>57.44</ele>
        <time>2014-09-07T09:55:24Z</time>
      </trkpt>
      <trkpt lat="43.65349" lon="3.78658">
        <ele>59.1</ele>
        <time>2014-09-07T09:55:31Z</time>
      </trkpt>
      <trkpt lat="43.65331" lon="3.78673">
        <ele>60.24</ele>
        <time>2014-09-07T09:55:38Z</time>
      </trkpt>
      <trkpt lat="43.65313" lon="3.78688">
        <ele>60.66</ele>
        <time>2014-09-07T09:55:44Z</time>
      </trkpt>
      <trkpt lat="43.65294" lon="3.78696">
        <ele>60.81</ele>
        <time>2014-09-07T09:55:50Z</time>
      </trkpt>
      <trkpt lat="43.65275" lon="3.78706">
        <ele>61.05</ele>
        <time>2014-09-07T09:55:57Z</time>
      </trkpt>
      <trkpt lat="43.65257" lon="3.78714">
        <ele>60.98</ele>
        <time>2014-09-07T09:56:03Z</time>
      </trkpt>
      <trkpt lat="43.65245" lon="3.78718">
        <ele>60.68</ele>
        <time>2014-09-07T09:56:06Z</time>
      </trkpt>
      <trkpt lat="43.65222" lon="3.78731">
        <ele>59.52</ele>
        <time>2014-09-07T09:56:13Z</time>
      </trkpt>
      <trkpt lat="43.65222" lon="3.78731">
        <ele>59.01</ele>
        <time>2014-09-07T09:56:18Z</time>
      </trkpt>
      <trkpt lat="43.65218" lon="3.78733">
        <ele>59.03</ele>
        <time>2014-09-07T09:56:21Z</time>
      </trkpt>
      <trkpt lat="43.65216" lon="3.78746">
        <ele>58.89</ele>
        <time>2014-09-07T09:56:25Z</time>
      </trkpt>
      <trkpt lat="43.65191" lon="3.78776">
        <ele>58.44</ele>
        <time>2014-09-07T09:56:32Z</time>
      </trkpt>
      <trkpt lat="43.65177" lon="3.78785">
        <ele>58.27</ele>
        <time>2014-09-07T09:56:35Z</time>
      </trkpt>
      <trkpt lat="43.65153" lon="3.78799">
        <ele>57.89</ele>
        <time>2014-09-07T09:56:41Z</time>
      </trkpt>
      <trkpt lat="43.65131" lon="3.78818">
        <ele>57.73</ele>
        <time>2014-09-07T09:56:46Z</time>
      </trkpt>
      <trkpt lat="43.65114" lon="3.78832">
        <ele>57.33</ele>
        <time>2014-09-07T09:56:50Z</time>
      </trkpt>
      <trkpt lat="43.65093" lon="3.78849">
        <ele>56.96</ele>
        <time>2014-09-07T09:56:55Z</time>
      </trkpt>
      <trkpt lat="43.65072" lon="3.7888">
        <ele>56.46</ele>
        <time>2014-09-07T09:57:03Z</time>
      </trkpt>
      <trkpt lat="43.65069" lon="3.78887">
        <ele>56.44</ele>
        <time>2014-09-07T09:57:05Z</time>
      </trkpt>
      <trkpt lat="43.65064" lon="3.78896">
        <ele>56.4</ele>
        <time>2014-09-07T09:57:07Z</time>
      </trkpt>
      <trkpt lat="43.65047" lon="3.78918">
        <ele>55.53</ele>
        <time>2014-09-07T09:57:13Z</time>
      </trkpt>
      <trkpt lat="43.65045" lon="3.78923">
        <ele>55.29</ele>
        <time>2014-09-07T09:57:15Z</time>
      </trkpt>
      <trkpt lat="43.65037" lon="3.78928">
        <ele>54.94</ele>
        <time>2014-09-07T09:57:21Z</time>
      </trkpt>
      <trkpt lat="43.65028" lon="3.78938">
        <ele>54.63</ele>
        <time>2014-09-07T09:57:26Z</time>
      </trkpt>
      <trkpt lat="43.65011" lon="3.78952">
        <ele>54.39</ele>
        <time>2014-09-07T09:57:32Z</time>
      </trkpt>
      <trkpt lat="43.65005" lon="3.78956">
        <ele>54.45</ele>
        <time>2014-09-07T09:57:36Z</time>
      </trkpt>
      <trkpt lat="43.65002" lon="3.78957">
        <ele>58.41</ele>
        <time>2014-09-07T09:57:40Z</time>
      </trkpt>
    </trkseg>
  </trk>
</gpx>